Time,TemperatureF,DewpointF,PressureIn,WindDirection,WindDirectionDegrees,WindSpeedMPH,WindSpeedGustMPH,Humidity,HourlyPrecipIn,Conditions,Clouds,dailyrainin,SoftwareType,DateUTC
2013-01-19 01:31:00,35.8,27.7,30.19,SSW,210,18.0,21.0,72,0.00,,---,0.00,VWS V14.01,2013-01-19 06:31:00,
2013-01-19 01:32:00,35.8,27.3,30.19,SSW,192,21.0,21.0,71,0.00,,---,0.00,VWS V14.01,2013-01-19 06:32:00,
2013-01-19 01:33:00,35.9,27.8,30.19,SSW,198,24.0,24.0,72,0.00,,---,0.00,VWS V14.01,2013-01-19 06:33:00,
2013-01-19 01:34:00,35.9,27.8,30.19,SSW,209,27.0,30.0,72,0.00,,---,0.00,VWS V14.01,2013-01-19 06:34:00,
2013-01-19 01:35:00,35.9,27.8,30.19,SSW,207,20.0,30.0,72,0.00,,---,0.00,VWS V14.01,2013-01-19 06:35:00,
2013-01-19 01:36:00,36.0,27.5,30.19,SSW,211,21.0,30.0,71,0.00,,---,0.00,VWS V14.01,2013-01-19 06:36:00,
2013-01-19 01:37:00,36.0,28.2,30.19,SSW,202,28.0,30.0,73,0.00,,---,0.00,VWS V14.01,2013-01-19 06:37:00,
2013-01-19 01:38:00,36.0,27.5,30.19,SSW,205,23.0,30.0,71,0.00,,---,0.00,VWS V14.01,2013-01-19 06:38:00,
2013-01-19 01:39:00,36.0,27.5,30.19,SSW,208,18.0,30.0,71,0.00,,---,0.00,VWS V14.01,2013-01-19 06:39:00,
2013-01-19 01:40:00,36.1,28.0,30.19,SSW,202,24.0,30.0,72,0.00,,---,0.00,VWS V14.01,2013-01-19 06:40:00,
2013-01-19 01:41:00,36.1,28.0,30.19,SSW,204,18.0,30.0,72,0.00,,---,0.00,VWS V14.01,2013-01-19 06:41:00,
2013-01-19 01:42:00,36.1,27.6,30.19,SSW,208,17.0,30.0,71,0.00,,---,0.00,VWS V14.01,2013-01-19 06:42:00,
2013-01-19 01:43:00,36.1,28.3,30.19,SSW,203,24.0,30.0,73,0.00,,---,0.00,VWS V14.01,2013-01-19 06:43:00,
2013-01-19 01:44:00,36.1,28.3,30.19,SSW,207,23.0,30.0,73,0.00,,---,0.00,VWS V14.01,2013-01-19 06:44:00,
2013-01-19 01:45:00,36.1,27.6,30.19,SSW,202,20.0,30.0,71,0.00,,---,0.00,VWS V14.01,2013-01-19 06:45:00,
2013-01-19 01:46:00,36.1,28.0,30.19,SSW,202,17.0,30.0,72,0.00,,---,0.00,VWS V14.01,2013-01-19 06:46:00,
2013-01-19 01:47:00,36.2,28.4,30.19,SSW,202,22.0,30.0,73,0.00,,---,0.00,VWS V14.01,2013-01-19 06:47:00,
2013-01-19 01:48:00,36.2,28.1,30.19,SSW,207,20.0,30.0,72,0.00,,---,0.00,VWS V14.01,2013-01-19 06:48:00,
2013-01-19 01:49:00,36.2,27.7,30.19,SSW,201,19.0,30.0,71,0.00,,---,0.00,VWS V14.01,2013-01-19 06:49:00,
2013-01-19 01:50:00,36.3,28.1,30.19,SSW,198,22.0,30.0,72,0.00,,---,0.00,VWS V14.01,2013-01-19 06:50:00,
2013-01-19 01:51:00,36.2,27.7,30.19,SSW,208,19.0,30.0,71,0.00,,---,0.00,VWS V14.01,2013-01-19 06:51:00,
2013-01-19 01:52:00,36.2,27.7,30.19,SSW,209,18.0,30.0,71,0.00,,---,0.00,VWS V14.01,2013-01-19 06:52:00,
2013-01-19 01:53:00,36.3,28.1,30.19,SSW,204,19.0,30.0,72,0.00,,---,0.00,VWS V14.01,2013-01-19 06:53:00,
2013-01-19 01:54:00,36.3,28.1,30.19,SSW,206,17.0,30.0,72,0.00,,---,0.00,VWS V14.01,2013-01-19 06:54:00,
2013-01-19 01:55:00,36.3,28.1,30.19,SSW,204,15.0,30.0,72,0.00,,---,0.00,VWS V14.01,2013-01-19 06:55:00,
2013-01-19 01:56:00,36.4,28.6,30.19,SW,233,21.0,30.0,73,0.00,,---,0.00,VWS V14.01,2013-01-19 06:56:00,
2013-01-19 01:57:00,36.4,28.6,30.20,SSW,206,18.0,30.0,73,0.00,,---,0.00,VWS V14.01,2013-01-19 06:57:00,
2013-01-19 01:58:00,36.5,28.7,30.19,SSW,206,17.0,30.0,73,0.00,,---,0.00,VWS V14.01,2013-01-19 06:58:00,
2013-01-19 01:59:00,36.4,28.2,30.19,SSW,205,18.0,30.0,72,0.00,,---,0.00,VWS V14.01,2013-01-19 06:59:00,
2013-01-19 02:00:00,36.4,28.2,30.19,SSW,210,20.0,30.0,72,0.00,,---,0.00,VWS V14.01,2013-01-19 07:00:00,
2013-01-19 02:01:00,36.4,27.9,30.19,SSW,202,20.0,27.0,71,0.00,,---,0.00,VWS V14.01,2013-01-19 07:01:00,
2013-01-19 02:02:00,36.5,27.7,30.19,SSW,206,17.0,27.0,70,0.00,,---,0.00,VWS V14.01,2013-01-19 07:02:00,
2013-01-19 02:03:00,36.6,28.4,30.19,SSW,199,17.0,27.0,72,0.00,,---,0.00,VWS V14.01,2013-01-19 07:03:00,
2013-01-19 02:04:00,36.6,28.8,30.19,SSW,197,21.0,27.0,73,0.00,,---,0.00,VWS V14.01,2013-01-19 07:04:00,
2013-01-19 02:05:00,36.5,28.4,30.19,SSW,210,13.0,27.0,72,0.00,,---,0.00,VWS V14.01,2013-01-19 07:05:00,
2013-01-19 02:06:00,36.6,28.8,30.19,SW,215,16.0,27.0,73,0.00,,---,0.00,VWS V14.01,2013-01-19 07:06:00,
2013-01-19 02:07:00,36.6,28.4,30.19,SSW,202,17.0,27.0,72,0.00,,---,0.00,VWS V14.01,2013-01-19 07:07:00,
2013-01-19 02:08:00,36.6,28.4,30.19,SSW,211,19.0,27.0,72,0.00,,---,0.00,VWS V14.01,2013-01-19 07:08:00,
2013-01-19 02:09:00,36.6,28.1,30.19,SSW,209,21.0,27.0,71,0.00,,---,0.00,VWS V14.01,2013-01-19 07:09:00,
2013-01-19 02:10:00,36.7,28.2,30.19,SSW,205,20.0,27.0,71,0.00,,---,0.00,VWS V14.01,2013-01-19 07:10:00,
2013-01-19 02:11:00,36.7,28.5,30.19,SSW,203,18.0,27.0,72,0.00,,---,0.00,VWS V14.01,2013-01-19 07:11:00,
2013-01-19 02:12:00,36.7,28.5,30.19,SW,214,18.0,27.0,72,0.00,,---,0.00,VWS V14.01,2013-01-19 07:12:00,
2013-01-19 02:13:00,36.8,28.6,30.19,SSW,208,15.0,27.0,72,0.00,,---,0.00,VWS V14.01,2013-01-19 07:13:00,
2013-01-19 02:14:00,36.8,28.6,30.19,SSW,200,17.0,27.0,72,0.00,,---,0.00,VWS V14.01,2013-01-19 07:14:00,
2013-01-19 02:15:00,36.8,28.3,30.19,SSW,205,16.0,27.0,71,0.00,,---,0.00,VWS V14.01,2013-01-19 07:15:00,
2013-01-19 02:16:00,36.8,28.6,30.19,SSW,201,17.0,27.0,72,0.00,,---,0.00,VWS V14.01,2013-01-19 07:16:00,
2013-01-19 02:17:00,36.8,28.3,30.19,SSW,207,18.0,27.0,71,0.00,,---,0.00,VWS V14.01,2013-01-19 07:17:00,
2013-01-19 02:18:00,36.8,28.6,30.19,SSW,198,15.0,27.0,72,0.00,,---,0.00,VWS V14.01,2013-01-19 07:18:00,
2013-01-19 02:19:00,36.8,28.6,30.19,SSW,207,24.0,27.0,72,0.00,,---,0.00,VWS V14.01,2013-01-19 07:19:00,
2013-01-19 02:20:00,36.9,28.4,30.19,SSW,205,17.0,27.0,71,0.00,,---,0.00,VWS V14.01,2013-01-19 07:20:00,
2013-01-19 02:21:00,37.0,29.2,30.19,SSW,202,18.0,27.0,73,0.00,,---,0.00,VWS V14.01,2013-01-19 07:21:00,
2013-01-19 02:22:00,37.0,28.5,30.19,SSW,212,21.0,27.0,71,0.00,,---,0.00,VWS V14.01,2013-01-19 07:22:00,
2013-01-19 02:23:00,37.0,28.1,30.19,South,188,23.0,27.0,70,0.00,,---,0.00,VWS V14.01,2013-01-19 07:23:00,
2013-01-19 02:24:00,37.0,28.8,30.19,SSW,205,21.0,27.0,72,0.00,,---,0.00,VWS V14.01,2013-01-19 07:24:00,
2013-01-19 02:25:00,37.1,28.6,30.19,SSW,209,16.0,27.0,71,0.00,,---,0.00,VWS V14.01,2013-01-19 07:25:00,
2013-01-19 02:26:00,37.1,28.9,30.18,SSW,205,26.0,32.0,72,0.00,,---,0.00,VWS V14.01,2013-01-19 07:26:00,
2013-01-19 02:27:00,37.1,28.2,30.19,South,190,18.0,32.0,70,0.00,,---,0.00,VWS V14.01,2013-01-19 07:27:00,
2013-01-19 02:28:00,37.1,28.6,30.18,SSW,194,25.0,32.0,71,0.00,,---,0.00,VWS V14.01,2013-01-19 07:28:00,
2013-01-19 02:29:00,37.2,28.7,30.19,SSW,207,16.0,32.0,71,0.00,,---,0.00,VWS V14.01,2013-01-19 07:29:00,
2013-01-19 02:30:00,37.3,29.1,30.19,SSW,202,18.0,32.0,72,0.00,,---,0.00,VWS V14.01,2013-01-19 07:30:00,
2013-01-19 02:31:00,37.4,29.5,30.19,SSW,200,19.0,22.0,73,0.00,,---,0.00,VWS V14.01,2013-01-19 07:31:00,
2013-01-19 02:32:00,37.3,29.5,30.19,SSW,204,16.0,22.0,73,0.00,,---,0.00,VWS V14.01,2013-01-19 07:32:00,
2013-01-19 02:33:00,37.4,29.2,30.19,SSW,200,14.0,22.0,72,0.00,,---,0.00,VWS V14.01,2013-01-19 07:33:00,
2013-01-19 02:34:00,37.4,29.2,30.19,SSW,199,15.0,22.0,72,0.00,,---,0.00,VWS V14.01,2013-01-19 07:34:00,
2013-01-19 02:35:00,37.3,28.8,30.19,SW,221,22.0,26.0,71,0.00,,---,0.00,VWS V14.01,2013-01-19 07:35:00,
2013-01-19 02:36:00,37.4,28.9,30.19,SSW,203,21.0,26.0,71,0.00,,---,0.00,VWS V14.01,2013-01-19 07:36:00,
2013-01-19 02:37:00,37.4,28.2,30.19,SSW,205,17.0,26.0,69,0.00,,---,0.00,VWS V14.01,2013-01-19 07:37:00,
2013-01-19 02:38:00,37.5,29.3,30.19,SSW,211,19.0,26.0,72,0.00,,---,0.00,VWS V14.01,2013-01-19 07:38:00,
2013-01-19 02:39:00,37.5,29.0,30.19,SW,216,20.0,26.0,71,0.00,,---,0.00,VWS V14.01,2013-01-19 07:39:00,
2013-01-19 02:40:00,37.6,29.1,30.19,SW,219,16.0,26.0,71,0.00,,---,0.00,VWS V14.01,2013-01-19 07:40:00,
2013-01-19 02:41:00,37.6,29.1,30.19,SSW,213,16.0,26.0,71,0.00,,---,0.00,VWS V14.01,2013-01-19 07:41:00,
2013-01-19 02:42:00,37.7,29.2,30.19,SSW,198,21.0,26.0,71,0.00,,---,0.00,VWS V14.01,2013-01-19 07:42:00,
2013-01-19 02:43:00,37.8,29.3,30.19,SSW,201,21.0,27.0,71,0.00,,---,0.00,VWS V14.01,2013-01-19 07:43:00,
2013-01-19 02:44:00,37.8,29.3,30.18,SSW,209,30.0,30.0,71,0.00,,---,0.00,VWS V14.01,2013-01-19 07:44:00,
2013-01-19 02:45:00,37.9,29.0,30.19,SW,215,19.0,30.0,70,0.00,,---,0.00,VWS V14.01,2013-01-19 07:45:00,
2013-01-19 02:46:00,37.9,29.4,30.19,SW,221,19.0,30.0,71,0.00,,---,0.00,VWS V14.01,2013-01-19 07:46:00,
2013-01-19 02:47:00,38.0,29.5,30.19,SSW,213,16.0,30.0,71,0.00,,---,0.00,VWS V14.01,2013-01-19 07:47:00,
2013-01-19 02:48:00,37.9,29.7,30.19,SSW,203,26.0,30.0,72,0.00,,---,0.00,VWS V14.01,2013-01-19 07:48:00,
2013-01-19 02:49:00,38.0,29.1,30.19,SSW,202,22.0,30.0,70,0.00,,---,0.00,VWS V14.01,2013-01-19 07:49:00,
2013-01-19 02:50:00,38.0,29.1,30.19,SSW,204,17.0,30.0,70,0.00,,---,0.00,VWS V14.01,2013-01-19 07:50:00,
2013-01-19 02:51:00,38.1,29.9,30.19,SSW,209,21.0,30.0,72,0.00,,---,0.00,VWS V14.01,2013-01-19 07:51:00,
2013-01-19 02:52:00,38.2,29.6,30.19,SSW,200,25.0,30.0,71,0.00,,---,0.00,VWS V14.01,2013-01-19 07:52:00,
2013-01-19 02:53:00,38.2,29.6,30.19,SSW,202,26.0,30.0,71,0.00,,---,0.00,VWS V14.01,2013-01-19 07:53:00,
2013-01-19 02:54:00,38.2,29.3,30.19,SSW,208,23.0,30.0,70,0.00,,---,0.00,VWS V14.01,2013-01-19 07:54:00,
2013-01-19 02:55:00,38.3,29.4,30.19,SSW,200,22.0,30.0,70,0.00,,---,0.00,VWS V14.01,2013-01-19 07:55:00,
2013-01-19 02:56:00,38.4,29.5,30.18,SSW,202,21.0,30.0,70,0.00,,---,0.00,VWS V14.01,2013-01-19 07:56:00,
2013-01-19 02:57:00,38.4,29.5,30.18,SSW,208,21.0,30.0,70,0.00,,---,0.00,VWS V14.01,2013-01-19 07:57:00,
2013-01-19 02:58:00,38.4,29.5,30.18,SSW,206,17.0,30.0,70,0.00,,---,0.00,VWS V14.01,2013-01-19 07:58:00,
2013-01-19 02:59:00,38.5,29.9,30.18,SSW,208,15.0,30.0,71,0.00,,---,0.00,VWS V14.01,2013-01-19 07:59:00,
2013-01-19 03:00:00,38.6,30.4,30.18,SSW,209,18.0,30.0,72,0.00,,---,0.00,VWS V14.01,2013-01-19 08:00:00,
2013-01-19 03:01:00,38.6,30.0,30.18,SSW,201,21.0,24.0,71,0.00,,---,0.00,VWS V14.01,2013-01-19 08:01:00,
2013-01-19 03:02:00,38.7,29.8,30.18,SSW,196,20.0,26.0,70,0.00,,---,0.00,VWS V14.01,2013-01-19 08:02:00,
2013-01-19 03:03:00,38.7,29.4,30.18,SSW,204,26.0,29.0,69,0.00,,---,0.00,VWS V14.01,2013-01-19 08:03:00,
2013-01-19 03:04:00,38.7,29.8,30.18,SSW,198,21.0,29.0,70,0.00,,---,0.00,VWS V14.01,2013-01-19 08:04:00,
2013-01-19 03:05:00,38.8,29.9,30.18,SW,222,22.0,29.0,70,0.00,,---,0.00,VWS V14.01,2013-01-19 08:05:00,
2013-01-19 03:06:00,38.8,29.9,30.18,SSW,200,23.0,29.0,70,0.00,,---,0.00,VWS V14.01,2013-01-19 08:06:00,
2013-01-19 03:07:00,38.9,30.3,30.18,SSW,202,22.0,30.0,71,0.00,,---,0.00,VWS V14.01,2013-01-19 08:07:00,
2013-01-19 03:08:00,38.9,30.0,30.18,SSW,211,19.0,30.0,70,0.00,,---,0.00,VWS V14.01,2013-01-19 08:08:00,
2013-01-19 03:09:00,39.0,30.8,30.18,SSW,194,21.0,30.0,72,0.00,,---,0.00,VWS V14.01,2013-01-19 08:09:00,
2013-01-19 03:10:00,39.0,30.1,30.18,SSW,208,22.0,30.0,70,0.00,,---,0.00,VWS V14.01,2013-01-19 08:10:00,
2013-01-19 03:11:00,39.1,29.8,30.18,SSW,209,22.0,30.0,69,0.00,,---,0.00,VWS V14.01,2013-01-19 08:11:00,
2013-01-19 03:12:00,39.1,30.2,30.18,SSW,206,20.0,30.0,70,0.00,,---,0.00,VWS V14.01,2013-01-19 08:12:00,
2013-01-19 03:13:00,39.2,30.2,30.18,SSW,211,23.0,30.0,70,0.00,,---,0.00,VWS V14.01,2013-01-19 08:13:00,
2013-01-19 03:14:00,39.2,29.9,30.17,SSW,213,27.0,30.0,69,0.00,,---,0.00,VWS V14.01,2013-01-19 08:14:00,
2013-01-19 03:15:00,39.3,30.0,30.18,SSW,205,22.0,31.0,69,0.00,,---,0.00,VWS V14.01,2013-01-19 08:15:00,
2013-01-19 03:16:00,39.3,30.0,30.17,SSW,205,23.0,31.0,69,0.00,,---,0.00,VWS V14.01,2013-01-19 08:16:00,
2013-01-19 03:17:00,39.3,30.0,30.17,SSW,210,16.0,31.0,69,0.00,,---,0.00,VWS V14.01,2013-01-19 08:17:00,
2013-01-19 03:18:00,39.4,30.1,30.17,SSW,199,24.0,31.0,69,0.00,,---,0.00,VWS V14.01,2013-01-19 08:18:00,
2013-01-19 03:19:00,39.5,30.9,30.18,SSW,210,17.0,31.0,71,0.00,,---,0.00,VWS V14.01,2013-01-19 08:19:00,
2013-01-19 03:20:00,39.5,30.9,30.18,SW,225,19.0,31.0,71,0.00,,---,0.00,VWS V14.01,2013-01-19 08:20:00,
2013-01-19 03:21:00,39.5,30.5,30.17,SSW,202,23.0,31.0,70,0.00,,---,0.00,VWS V14.01,2013-01-19 08:21:00,
2013-01-19 03:22:00,39.5,30.2,30.17,SSW,203,20.0,35.0,69,0.00,,---,0.00,VWS V14.01,2013-01-19 08:22:00,
2013-01-19 03:23:00,39.6,30.3,30.17,SSW,202,24.0,35.0,69,0.00,,---,0.00,VWS V14.01,2013-01-19 08:23:00,
2013-01-19 03:24:00,39.6,30.6,30.17,SSW,208,19.0,35.0,70,0.00,,---,0.00,VWS V14.01,2013-01-19 08:24:00,
2013-01-19 03:25:00,39.6,29.9,30.17,SSW,205,26.0,35.0,68,0.00,,---,0.00,VWS V14.01,2013-01-19 08:25:00,
2013-01-19 03:26:00,39.6,29.9,30.17,SSW,200,24.0,35.0,68,0.00,,---,0.00,VWS V14.01,2013-01-19 08:26:00,
2013-01-19 03:27:00,39.7,30.7,30.17,SSW,207,19.0,35.0,70,0.00,,---,0.00,VWS V14.01,2013-01-19 08:27:00,
2013-01-19 03:28:00,39.7,30.7,30.17,SW,217,19.0,35.0,70,0.00,,---,0.00,VWS V14.01,2013-01-19 08:28:00,
2013-01-19 03:29:00,39.8,31.2,30.17,SW,214,19.0,35.0,71,0.00,,---,0.00,VWS V14.01,2013-01-19 08:29:00,
2013-01-19 03:30:00,39.8,31.2,30.17,SW,214,24.0,35.0,71,0.00,,---,0.00,VWS V14.01,2013-01-19 08:30:00,
2013-01-19 03:31:00,39.8,30.8,30.17,SSW,213,21.0,24.0,70,0.00,,---,0.00,VWS V14.01,2013-01-19 08:31:00,
2013-01-19 03:32:00,39.8,30.8,30.17,SSW,206,17.0,25.0,70,0.00,,---,0.00,VWS V14.01,2013-01-19 08:32:00,
2013-01-19 03:33:00,39.9,30.6,30.17,SSW,202,15.0,25.0,69,0.00,,---,0.00,VWS V14.01,2013-01-19 08:33:00,
2013-01-19 03:34:00,39.9,30.6,30.17,SSW,206,23.0,28.0,69,0.00,,---,0.00,VWS V14.01,2013-01-19 08:34:00,
2013-01-19 03:35:00,40.0,30.7,30.17,SSW,211,15.0,28.0,69,0.00,,---,0.00,VWS V14.01,2013-01-19 08:35:00,
2013-01-19 03:36:00,40.0,31.0,30.17,SSW,195,21.0,28.0,70,0.00,,---,0.00,VWS V14.01,2013-01-19 08:36:00,
2013-01-19 03:37:00,40.0,31.0,30.17,SSW,194,21.0,28.0,70,0.00,,---,0.00,VWS V14.01,2013-01-19 08:37:00,
2013-01-19 03:38:00,40.1,30.4,30.17,SW,220,22.0,28.0,68,0.00,,---,0.00,VWS V14.01,2013-01-19 08:38:00,
2013-01-19 03:39:00,40.2,30.5,30.17,SSW,204,19.0,28.0,68,0.00,,---,0.00,VWS V14.01,2013-01-19 08:39:00,
2013-01-19 03:40:00,40.2,30.9,30.17,SW,227,22.0,28.0,69,0.00,,---,0.00,VWS V14.01,2013-01-19 08:40:00,
2013-01-19 03:41:00,40.3,31.0,30.17,SSW,205,23.0,28.0,69,0.00,,---,0.00,VWS V14.01,2013-01-19 08:41:00,
2013-01-19 03:42:00,40.4,30.7,30.17,SSW,202,25.0,28.0,68,0.00,,---,0.00,VWS V14.01,2013-01-19 08:42:00,
2013-01-19 03:43:00,40.4,30.3,30.17,SSW,213,27.0,31.0,67,0.00,,---,0.00,VWS V14.01,2013-01-19 08:43:00,
2013-01-19 03:44:00,40.5,30.4,30.16,SSW,209,21.0,31.0,67,0.00,,---,0.00,VWS V14.01,2013-01-19 08:44:00,
2013-01-19 03:45:00,40.5,30.4,30.16,SSW,205,26.0,31.0,67,0.00,,---,0.00,VWS V14.01,2013-01-19 08:45:00,
2013-01-19 03:46:00,40.6,30.5,30.16,SSW,210,28.0,33.0,67,0.00,,---,0.00,VWS V14.01,2013-01-19 08:46:00,
2013-01-19 03:47:00,40.7,30.2,30.16,SSW,202,25.0,33.0,66,0.00,,---,0.00,VWS V14.01,2013-01-19 08:47:00,
2013-01-19 03:48:00,40.7,30.6,30.16,SSW,202,19.0,33.0,67,0.00,,---,0.00,VWS V14.01,2013-01-19 08:48:00,
2013-01-19 03:49:00,40.8,31.1,30.16,SSW,212,20.0,33.0,68,0.00,,---,0.00,VWS V14.01,2013-01-19 08:49:00,
2013-01-19 03:50:00,40.8,31.4,30.16,SSW,201,22.0,33.0,69,0.00,,---,0.00,VWS V14.01,2013-01-19 08:50:00,
2013-01-19 03:51:00,40.8,30.7,30.16,SSW,204,23.0,33.0,67,0.00,,---,0.00,VWS V14.01,2013-01-19 08:51:00,
2013-01-19 03:52:00,40.9,31.5,30.16,SSW,193,18.0,33.0,69,0.00,,---,0.00,VWS V14.01,2013-01-19 08:52:00,
2013-01-19 03:53:00,40.9,31.5,30.16,SSW,198,17.0,33.0,69,0.00,,---,0.00,VWS V14.01,2013-01-19 08:53:00,
2013-01-19 03:54:00,41.0,30.9,30.16,SSW,210,20.0,33.0,67,0.00,,---,0.00,VWS V14.01,2013-01-19 08:54:00,
2013-01-19 03:55:00,41.0,31.6,30.16,SSW,213,16.0,33.0,69,0.00,,---,0.00,VWS V14.01,2013-01-19 08:55:00,
2013-01-19 03:56:00,41.1,31.4,30.16,SSW,198,21.0,33.0,68,0.00,,---,0.00,VWS V14.01,2013-01-19 08:56:00,
2013-01-19 03:57:00,41.1,31.4,30.16,SSW,208,25.0,33.0,68,0.00,,---,0.00,VWS V14.01,2013-01-19 08:57:00,
2013-01-19 03:58:00,41.1,31.0,30.16,SSW,206,18.0,33.0,67,0.00,,---,0.00,VWS V14.01,2013-01-19 08:58:00,
2013-01-19 03:59:00,41.2,30.7,30.16,SSW,202,17.0,33.0,66,0.00,,---,0.00,VWS V14.01,2013-01-19 08:59:00,
2013-01-19 04:00:00,41.3,31.2,30.16,SW,217,20.0,33.0,67,0.00,,---,0.00,VWS V14.01,2013-01-19 09:00:00,
2013-01-19 04:01:00,41.3,30.4,30.16,SSW,201,17.0,25.0,65,0.00,,---,0.00,VWS V14.01,2013-01-19 09:01:00,
2013-01-19 04:02:00,41.3,31.2,30.16,SW,225,19.0,25.0,67,0.00,,---,0.00,VWS V14.01,2013-01-19 09:02:00,
2013-01-19 04:03:00,41.3,31.5,30.16,SSW,198,13.0,25.0,68,0.00,,---,0.00,VWS V14.01,2013-01-19 09:03:00,
2013-01-19 04:04:00,41.4,31.3,30.16,SSW,213,15.0,25.0,67,0.00,,---,0.00,VWS V14.01,2013-01-19 09:04:00,
2013-01-19 04:05:00,41.4,31.6,30.16,SSW,198,19.0,25.0,68,0.00,,---,0.00,VWS V14.01,2013-01-19 09:05:00,
2013-01-19 04:06:00,41.4,30.9,30.16,SSW,209,26.0,28.0,66,0.00,,---,0.00,VWS V14.01,2013-01-19 09:06:00,
2013-01-19 04:07:00,41.5,30.6,30.16,SSW,210,28.0,28.0,65,0.00,,---,0.00,VWS V14.01,2013-01-19 09:07:00,
2013-01-19 04:08:00,41.6,30.7,30.16,SSW,212,22.0,30.0,65,0.00,,---,0.00,VWS V14.01,2013-01-19 09:08:00,
2013-01-19 04:09:00,41.6,31.5,30.15,SSW,192,29.0,30.0,67,0.00,,---,0.00,VWS V14.01,2013-01-19 09:09:00,
2013-01-19 04:10:00,41.6,30.7,30.15,SSW,209,27.0,30.0,65,0.00,,---,0.00,VWS V14.01,2013-01-19 09:10:00,
2013-01-19 04:11:00,41.6,31.1,30.15,SSW,207,20.0,30.0,66,0.00,,---,0.00,VWS V14.01,2013-01-19 09:11:00,
2013-01-19 04:12:00,41.7,30.8,30.15,SSW,198,18.0,30.0,65,0.00,,---,0.00,VWS V14.01,2013-01-19 09:12:00,
2013-01-19 04:13:00,41.8,30.9,30.15,SSW,208,23.0,30.0,65,0.00,,---,0.00,VWS V14.01,2013-01-19 09:13:00,
2013-01-19 04:14:00,41.8,30.9,30.15,SSW,208,25.0,30.0,65,0.00,,---,0.00,VWS V14.01,2013-01-19 09:14:00,
2013-01-19 04:15:00,41.8,30.5,30.15,SSW,207,20.0,30.0,64,0.00,,---,0.00,VWS V14.01,2013-01-19 09:15:00,
2013-01-19 04:16:00,41.8,30.5,30.15,SSW,205,19.0,30.0,64,0.00,,---,0.00,VWS V14.01,2013-01-19 09:16:00,
2013-01-19 04:17:00,41.9,30.6,30.15,SSW,207,17.0,31.0,64,0.00,,---,0.00,VWS V14.01,2013-01-19 09:17:00,
2013-01-19 04:18:00,41.9,30.6,30.15,SW,215,18.0,31.0,64,0.00,,---,0.00,VWS V14.01,2013-01-19 09:18:00,
2013-01-19 04:19:00,41.9,31.0,30.15,SSW,208,25.0,31.0,65,0.00,,---,0.00,VWS V14.01,2013-01-19 09:19:00,
2013-01-19 04:20:00,42.0,30.7,30.14,SSW,205,21.0,31.0,64,0.00,,---,0.00,VWS V14.01,2013-01-19 09:20:00,
2013-01-19 04:21:00,42.0,30.7,30.14,SSW,208,23.0,31.0,64,0.00,,---,0.00,VWS V14.01,2013-01-19 09:21:00,
2013-01-19 04:22:00,42.0,30.7,30.14,SSW,197,22.0,31.0,64,0.00,,---,0.00,VWS V14.01,2013-01-19 09:22:00,
2013-01-19 04:23:00,42.0,31.5,30.14,SSW,194,25.0,31.0,66,0.00,,---,0.00,VWS V14.01,2013-01-19 09:23:00,
2013-01-19 04:24:00,42.0,30.7,30.14,SSW,201,26.0,31.0,64,0.00,,---,0.00,VWS V14.01,2013-01-19 09:24:00,
2013-01-19 04:25:00,42.0,29.9,30.13,SSW,210,28.0,32.0,62,0.00,,---,0.00,VWS V14.01,2013-01-19 09:25:00,
2013-01-19 04:26:00,42.1,30.4,30.13,SW,215,27.0,36.0,63,0.00,,---,0.00,VWS V14.01,2013-01-19 09:26:00,
2013-01-19 04:27:00,42.2,30.5,30.13,SSW,200,26.0,36.0,63,0.00,,---,0.00,VWS V14.01,2013-01-19 09:27:00,
2013-01-19 04:28:00,42.2,30.1,30.13,SSW,209,25.0,36.0,62,0.00,,---,0.00,VWS V14.01,2013-01-19 09:28:00,
2013-01-19 04:29:00,42.2,30.5,30.13,SSW,207,21.0,36.0,63,0.00,,---,0.00,VWS V14.01,2013-01-19 09:29:00,
2013-01-19 04:30:00,42.3,31.4,30.13,SSW,207,18.0,36.0,65,0.00,,---,0.00,VWS V14.01,2013-01-19 09:30:00,
2013-01-19 04:31:00,42.2,30.5,30.13,SW,219,26.0,28.0,63,0.00,,---,0.00,VWS V14.01,2013-01-19 09:31:00,
2013-01-19 04:32:00,42.3,30.2,30.13,SSW,209,23.0,30.0,62,0.00,,---,0.00,VWS V14.01,2013-01-19 09:32:00,
2013-01-19 04:33:00,42.4,30.3,30.13,SW,219,23.0,30.0,62,0.00,,---,0.00,VWS V14.01,2013-01-19 09:33:00,
2013-01-19 04:34:00,42.3,30.6,30.13,SSW,192,26.0,31.0,63,0.00,,---,0.00,VWS V14.01,2013-01-19 09:34:00,
2013-01-19 04:35:00,42.4,31.1,30.13,SSW,205,19.0,31.0,64,0.00,,---,0.00,VWS V14.01,2013-01-19 09:35:00,
2013-01-19 04:36:00,42.3,31.0,30.13,SSW,207,24.0,31.0,64,0.00,,---,0.00,VWS V14.01,2013-01-19 09:36:00,
2013-01-19 04:37:00,42.4,30.3,30.13,SW,219,20.0,31.0,62,0.00,,---,0.00,VWS V14.01,2013-01-19 09:37:00,
2013-01-19 04:38:00,42.3,30.6,30.13,SSW,204,21.0,31.0,63,0.00,,---,0.00,VWS V14.01,2013-01-19 09:38:00,
2013-01-19 04:39:00,42.4,30.3,30.12,SSW,209,23.0,31.0,62,0.00,,---,0.00,VWS V14.01,2013-01-19 09:39:00,
2013-01-19 04:40:00,42.4,29.9,30.12,SW,214,21.0,31.0,61,0.00,,---,0.00,VWS V14.01,2013-01-19 09:40:00,
2013-01-19 04:41:00,42.4,30.7,30.12,SSW,213,24.0,31.0,63,0.00,,---,0.00,VWS V14.01,2013-01-19 09:41:00,
2013-01-19 04:42:00,42.4,30.7,30.12,SSW,202,22.0,31.0,63,0.00,,---,0.00,VWS V14.01,2013-01-19 09:42:00,
2013-01-19 04:43:00,42.5,30.8,30.12,SSW,198,22.0,31.0,63,0.00,,---,0.00,VWS V14.01,2013-01-19 09:43:00,
2013-01-19 04:44:00,42.5,30.8,30.12,SSW,209,25.0,31.0,63,0.00,,---,0.00,VWS V14.01,2013-01-19 09:44:00,
2013-01-19 04:45:00,42.5,30.0,30.12,SSW,205,34.0,36.0,61,0.00,,---,0.00,VWS V14.01,2013-01-19 09:45:00,
2013-01-19 04:46:00,42.6,30.1,30.11,SSW,211,32.0,39.0,61,0.00,,---,0.00,VWS V14.01,2013-01-19 09:46:00,
2013-01-19 04:47:00,42.7,29.8,30.12,SSW,207,26.0,39.0,60,0.00,,---,0.00,VWS V14.01,2013-01-19 09:47:00,
2013-01-19 04:48:00,42.7,29.8,30.12,SSW,199,26.0,39.0,60,0.00,,---,0.00,VWS V14.01,2013-01-19 09:48:00,
2013-01-19 04:49:00,42.7,29.8,30.12,SSW,213,23.0,39.0,60,0.00,,---,0.00,VWS V14.01,2013-01-19 09:49:00,
2013-01-19 04:50:00,42.7,30.6,30.11,South,190,22.0,39.0,62,0.00,,---,0.00,VWS V14.01,2013-01-19 09:50:00,
2013-01-19 04:51:00,42.7,30.6,30.11,SSW,208,24.0,39.0,62,0.00,,---,0.00,VWS V14.01,2013-01-19 09:51:00,
2013-01-19 04:52:00,42.7,30.6,30.11,SSW,208,25.0,39.0,62,0.00,,---,0.00,VWS V14.01,2013-01-19 09:52:00,
2013-01-19 04:53:00,42.7,30.6,30.11,SSW,202,29.0,39.0,62,0.00,,---,0.00,VWS V14.01,2013-01-19 09:53:00,
2013-01-19 04:54:00,42.7,30.6,30.11,SSW,205,26.0,39.0,62,0.00,,---,0.00,VWS V14.01,2013-01-19 09:54:00,
2013-01-19 04:55:00,42.7,30.6,30.11,SSW,199,25.0,39.0,62,0.00,,---,0.00,VWS V14.01,2013-01-19 09:55:00,
2013-01-19 04:56:00,42.8,29.9,30.11,SSW,202,18.0,39.0,60,0.00,,---,0.00,VWS V14.01,2013-01-19 09:56:00,
2013-01-19 04:57:00,42.8,30.3,30.11,SSW,205,20.0,39.0,61,0.00,,---,0.00,VWS V14.01,2013-01-19 09:57:00,
2013-01-19 04:58:00,42.8,30.7,30.10,SSW,194,25.0,39.0,62,0.00,,---,0.00,VWS V14.01,2013-01-19 09:58:00,
2013-01-19 04:59:00,42.8,30.3,30.10,SSW,202,33.0,39.0,61,0.00,,---,0.00,VWS V14.01,2013-01-19 09:59:00,
2013-01-19 05:00:00,42.9,30.4,30.10,SSW,200,23.0,39.0,61,0.00,,---,0.00,VWS V14.01,2013-01-19 10:00:00,
2013-01-19 05:01:00,42.9,30.4,30.10,SW,215,28.0,28.0,61,0.00,,---,0.00,VWS V14.01,2013-01-19 10:01:00,
2013-01-19 05:02:00,42.9,30.4,30.10,SSW,205,21.0,28.0,61,0.00,,---,0.00,VWS V14.01,2013-01-19 10:02:00,
2013-01-19 05:03:00,42.9,30.4,30.10,SSW,203,23.0,28.0,61,0.00,,---,0.00,VWS V14.01,2013-01-19 10:03:00,
2013-01-19 05:04:00,42.9,30.4,30.10,SSW,198,29.0,33.0,61,0.00,,---,0.00,VWS V14.01,2013-01-19 10:04:00,
2013-01-19 05:05:00,43.0,30.5,30.10,SSW,203,26.0,34.0,61,0.00,,---,0.00,VWS V14.01,2013-01-19 10:05:00,
2013-01-19 05:06:00,43.0,30.1,30.09,SSW,209,25.0,34.0,60,0.00,,---,0.00,VWS V14.01,2013-01-19 10:06:00,
2013-01-19 05:07:00,43.1,29.8,30.10,SSW,209,21.0,34.0,59,0.00,,---,0.00,VWS V14.01,2013-01-19 10:07:00,
2013-01-19 05:08:00,43.1,29.8,30.09,SSW,203,19.0,34.0,59,0.00,,---,0.00,VWS V14.01,2013-01-19 10:08:00,
2013-01-19 05:09:00,43.2,30.3,30.09,SSW,203,22.0,34.0,60,0.00,,---,0.00,VWS V14.01,2013-01-19 10:09:00,
2013-01-19 05:10:00,43.1,30.6,30.09,SSW,209,32.0,34.0,61,0.00,,---,0.00,VWS V14.01,2013-01-19 10:10:00,
2013-01-19 05:11:00,43.1,30.6,30.09,SSW,196,23.0,34.0,61,0.00,,---,0.00,VWS V14.01,2013-01-19 10:11:00,
2013-01-19 05:12:00,43.1,30.6,30.09,SSW,195,22.0,34.0,61,0.00,,---,0.00,VWS V14.01,2013-01-19 10:12:00,
2013-01-19 05:13:00,43.1,30.6,30.09,South,190,19.0,34.0,61,0.00,,---,0.00,VWS V14.01,2013-01-19 10:13:00,
2013-01-19 05:14:00,43.1,30.2,30.09,SSW,207,19.0,34.0,60,0.00,,---,0.00,VWS V14.01,2013-01-19 10:14:00,
2013-01-19 05:15:00,43.2,30.3,30.09,SSW,201,17.0,34.0,60,0.00,,---,0.00,VWS V14.01,2013-01-19 10:15:00,
2013-01-19 05:16:00,43.2,29.9,30.09,SSW,193,21.0,34.0,59,0.00,,---,0.00,VWS V14.01,2013-01-19 10:16:00,
2013-01-19 05:17:00,43.3,30.0,30.08,SW,223,21.0,34.0,59,0.00,,---,0.00,VWS V14.01,2013-01-19 10:17:00,
2013-01-19 05:18:00,43.4,30.0,30.08,SSW,208,21.0,34.0,59,0.00,,---,0.00,VWS V14.01,2013-01-19 10:18:00,
2013-01-19 05:19:00,43.3,31.2,30.09,SSW,204,17.0,34.0,62,0.00,,---,0.00,VWS V14.01,2013-01-19 10:19:00,
2013-01-19 05:20:00,43.3,31.2,30.08,SSW,192,17.0,34.0,62,0.00,,---,0.00,VWS V14.01,2013-01-19 10:20:00,
2013-01-19 05:21:00,43.3,30.8,30.08,SSW,198,20.0,34.0,61,0.00,,---,0.00,VWS V14.01,2013-01-19 10:21:00,
2013-01-19 05:22:00,43.3,30.8,30.08,SSW,204,16.0,34.0,61,0.00,,---,0.00,VWS V14.01,2013-01-19 10:22:00,
2013-01-19 05:23:00,43.3,31.2,30.08,SSW,211,20.0,34.0,62,0.00,,---,0.00,VWS V14.01,2013-01-19 10:23:00,
2013-01-19 05:24:00,43.3,30.0,30.08,SSW,202,22.0,34.0,59,0.00,,---,0.00,VWS V14.01,2013-01-19 10:24:00,
2013-01-19 05:25:00,43.4,30.5,30.08,SSW,209,24.0,34.0,60,0.00,,---,0.00,VWS V14.01,2013-01-19 10:25:00,
2013-01-19 05:26:00,43.5,30.5,30.08,SSW,209,23.0,34.0,60,0.00,,---,0.00,VWS V14.01,2013-01-19 10:26:00,
2013-01-19 05:27:00,43.5,30.1,30.08,SSW,207,21.0,34.0,59,0.00,,---,0.00,VWS V14.01,2013-01-19 10:27:00,
2013-01-19 05:28:00,43.6,29.8,30.08,SSW,194,20.0,34.0,58,0.00,,---,0.00,VWS V14.01,2013-01-19 10:28:00,
2013-01-19 05:29:00,43.7,29.9,30.08,SSW,201,20.0,34.0,58,0.00,,---,0.00,VWS V14.01,2013-01-19 10:29:00,
2013-01-19 05:30:00,43.7,30.3,30.08,South,188,19.0,34.0,59,0.00,,---,0.00,VWS V14.01,2013-01-19 10:30:00,
2013-01-19 05:31:00,43.8,30.0,30.08,SSW,201,18.0,31.0,58,0.00,,---,0.00,VWS V14.01,2013-01-19 10:31:00,
2013-01-19 05:32:00,43.8,30.0,30.07,SSW,203,22.0,31.0,58,0.00,,---,0.00,VWS V14.01,2013-01-19 10:32:00,
2013-01-19 05:33:00,43.8,30.0,30.07,SSW,202,24.0,32.0,58,0.00,,---,0.00,VWS V14.01,2013-01-19 10:33:00,
2013-01-19 05:34:00,43.8,30.4,30.07,SSW,200,25.0,32.0,59,0.00,,---,0.00,VWS V14.01,2013-01-19 10:34:00,
2013-01-19 05:35:00,43.8,30.0,30.07,SSW,200,25.0,32.0,58,0.00,,---,0.00,VWS V14.01,2013-01-19 10:35:00,
2013-01-19 05:36:00,43.9,30.1,30.07,SSW,205,18.0,32.0,58,0.00,,---,0.00,VWS V14.01,2013-01-19 10:36:00,
2013-01-19 05:37:00,43.8,31.2,30.07,SSW,198,22.0,32.0,61,0.00,,---,0.00,VWS V14.01,2013-01-19 10:37:00,
2013-01-19 05:38:00,43.7,30.7,30.07,SSW,193,21.0,32.0,60,0.00,,---,0.00,VWS V14.01,2013-01-19 10:38:00,
2013-01-19 05:39:00,43.7,30.7,30.07,SSW,206,22.0,32.0,60,0.00,,---,0.00,VWS V14.01,2013-01-19 10:39:00,
2013-01-19 05:40:00,43.8,30.4,30.06,SSW,194,25.0,32.0,59,0.00,,---,0.00,VWS V14.01,2013-01-19 10:40:00,
2013-01-19 05:41:00,43.9,30.1,30.06,SSW,207,25.0,32.0,58,0.00,,---,0.00,VWS V14.01,2013-01-19 10:41:00,
2013-01-19 05:42:00,43.9,30.1,30.06,SSW,196,29.0,33.0,58,0.00,,---,0.00,VWS V14.01,2013-01-19 10:42:00,
2013-01-19 05:43:00,44.0,30.2,30.06,South,191,23.0,33.0,58,0.00,,---,0.00,VWS V14.01,2013-01-19 10:43:00,
2013-01-19 05:44:00,44.0,30.6,30.06,SSW,211,22.0,33.0,59,0.00,,---,0.00,VWS V14.01,2013-01-19 10:44:00,
2013-01-19 05:45:00,44.0,30.6,30.06,SSW,201,21.0,33.0,59,0.00,,---,0.00,VWS V14.01,2013-01-19 10:45:00,
2013-01-19 05:46:00,44.1,29.9,30.06,SSW,197,21.0,33.0,57,0.00,,---,0.00,VWS V14.01,2013-01-19 10:46:00,
2013-01-19 05:47:00,44.2,29.5,30.06,SSW,200,23.0,33.0,56,0.00,,---,0.00,VWS V14.01,2013-01-19 10:47:00,
2013-01-19 05:48:00,44.2,30.4,30.06,SSW,206,17.0,33.0,58,0.00,,---,0.00,VWS V14.01,2013-01-19 10:48:00,
2013-01-19 05:49:00,44.2,30.8,30.06,SSW,204,27.0,33.0,59,0.00,,---,0.00,VWS V14.01,2013-01-19 10:49:00,
2013-01-19 05:50:00,44.2,29.5,30.06,SSW,209,23.0,33.0,56,0.00,,---,0.00,VWS V14.01,2013-01-19 10:50:00,
2013-01-19 05:51:00,44.3,30.0,30.06,SSW,205,20.0,33.0,57,0.00,,---,0.00,VWS V14.01,2013-01-19 10:51:00,
2013-01-19 05:52:00,44.3,30.5,30.06,SSW,206,19.0,33.0,58,0.00,,---,0.00,VWS V14.01,2013-01-19 10:52:00,
2013-01-19 05:53:00,44.3,30.9,30.05,SSW,194,21.0,33.0,59,0.00,,---,0.00,VWS V14.01,2013-01-19 10:53:00,
2013-01-19 05:54:00,44.4,29.7,30.05,SSW,209,19.0,33.0,56,0.00,,---,0.00,VWS V14.01,2013-01-19 10:54:00,
2013-01-19 05:55:00,44.5,30.2,30.06,SSW,205,17.0,33.0,57,0.00,,---,0.00,VWS V14.01,2013-01-19 10:55:00,
2013-01-19 05:56:00,44.5,30.7,30.05,South,190,20.0,33.0,58,0.00,,---,0.00,VWS V14.01,2013-01-19 10:56:00,
2013-01-19 05:57:00,44.4,30.6,30.05,SW,215,27.0,33.0,58,0.00,,---,0.00,VWS V14.01,2013-01-19 10:57:00,
2013-01-19 05:58:00,44.5,30.2,30.05,SSW,196,17.0,33.0,57,0.00,,---,0.00,VWS V14.01,2013-01-19 10:58:00,
2013-01-19 05:59:00,44.5,30.2,30.05,SSW,202,19.0,33.0,57,0.00,,---,0.00,VWS V14.01,2013-01-19 10:59:00,
2013-01-19 06:00:00,44.6,30.8,30.05,SSW,205,20.0,23.0,58,0.00,,---,0.00,VWS V14.01,2013-01-19 11:00:00,
2013-01-19 06:01:00,44.6,30.3,30.05,South,189,24.0,26.0,57,0.00,,---,0.00,VWS V14.01,2013-01-19 11:01:00,
2013-01-19 06:02:00,44.7,30.0,30.05,SSW,211,21.0,27.0,56,0.00,,---,0.00,VWS V14.01,2013-01-19 11:02:00,
2013-01-19 06:03:00,44.7,30.4,30.05,SSW,197,19.0,27.0,57,0.00,,---,0.00,VWS V14.01,2013-01-19 11:03:00,
2013-01-19 06:04:00,44.7,30.0,30.05,SSW,199,21.0,30.0,56,0.00,,---,0.00,VWS V14.01,2013-01-19 11:04:00,
2013-01-19 06:05:00,44.7,30.9,30.05,SSW,196,14.0,30.0,58,0.00,,---,0.00,VWS V14.01,2013-01-19 11:05:00,
2013-01-19 06:06:00,44.7,31.7,30.05,SSW,194,27.0,30.0,60,0.00,,---,0.00,VWS V14.01,2013-01-19 11:06:00,
2013-01-19 06:07:00,44.7,30.4,30.05,SSW,211,23.0,30.0,57,0.00,,---,0.00,VWS V14.01,2013-01-19 11:07:00,
2013-01-19 06:08:00,44.8,30.9,30.05,SSW,203,20.0,30.0,58,0.00,,---,0.00,VWS V14.01,2013-01-19 11:08:00,
2013-01-19 06:09:00,44.7,30.0,30.05,SSW,198,20.0,30.0,56,0.00,,---,0.00,VWS V14.01,2013-01-19 11:09:00,
2013-01-19 06:10:00,44.9,29.3,30.05,South,189,23.0,30.0,54,0.00,,---,0.00,VWS V14.01,2013-01-19 11:10:00,
2013-01-19 06:11:00,44.9,29.7,30.04,SSW,199,28.0,33.0,55,0.00,,---,0.00,VWS V14.01,2013-01-19 11:11:00,
2013-01-19 06:12:00,45.0,30.3,30.05,SSW,203,23.0,33.0,56,0.00,,---,0.00,VWS V14.01,2013-01-19 11:12:00,
2013-01-19 06:13:00,44.9,30.2,30.05,SSW,207,18.0,33.0,56,0.00,,---,0.00,VWS V14.01,2013-01-19 11:13:00,
2013-01-19 06:14:00,44.9,31.0,30.05,SSW,204,17.0,33.0,58,0.00,,---,0.00,VWS V14.01,2013-01-19 11:14:00,
2013-01-19 06:15:00,44.8,30.1,30.05,SSW,200,22.0,33.0,56,0.00,,---,0.00,VWS V14.01,2013-01-19 11:15:00,
2013-01-19 06:16:00,44.9,30.6,30.04,SSW,202,23.0,33.0,57,0.00,,---,0.00,VWS V14.01,2013-01-19 11:16:00,
2013-01-19 06:17:00,45.0,29.8,30.04,SSW,194,25.0,33.0,55,0.00,,---,0.00,VWS V14.01,2013-01-19 11:17:00,
2013-01-19 06:18:00,45.1,30.4,30.04,South,189,25.0,33.0,56,0.00,,---,0.00,VWS V14.01,2013-01-19 11:18:00,
2013-01-19 06:19:00,45.1,29.9,30.04,SW,217,23.0,33.0,55,0.00,,---,0.00,VWS V14.01,2013-01-19 11:19:00,
2013-01-19 06:20:00,45.1,30.4,30.04,SSW,198,22.0,33.0,56,0.00,,---,0.00,VWS V14.01,2013-01-19 11:20:00,
2013-01-19 06:21:00,45.1,29.5,30.04,SSW,198,22.0,33.0,54,0.00,,---,0.00,VWS V14.01,2013-01-19 11:21:00,
2013-01-19 06:22:00,45.1,30.8,30.04,SSW,205,26.0,33.0,57,0.00,,---,0.00,VWS V14.01,2013-01-19 11:22:00,
2013-01-19 06:23:00,45.1,29.9,30.04,SSW,211,27.0,34.0,55,0.00,,---,0.00,VWS V14.01,2013-01-19 11:23:00,
2013-01-19 06:24:00,45.1,29.9,30.03,SSW,196,21.0,34.0,55,0.00,,---,0.00,VWS V14.01,2013-01-19 11:24:00,
2013-01-19 06:25:00,45.2,30.0,30.03,SSW,205,20.0,34.0,55,0.00,,---,0.00,VWS V14.01,2013-01-19 11:25:00,
2013-01-19 06:26:00,45.1,30.4,30.03,SSW,208,23.0,34.0,56,0.00,,---,0.00,VWS V14.01,2013-01-19 11:26:00,
2013-01-19 06:27:00,45.2,30.5,30.03,SSW,209,28.0,34.0,56,0.00,,---,0.00,VWS V14.01,2013-01-19 11:27:00,
2013-01-19 06:28:00,45.3,30.1,30.03,SSW,201,19.0,34.0,55,0.00,,---,0.00,VWS V14.01,2013-01-19 11:28:00,
2013-01-19 06:29:00,45.2,31.3,30.03,SSW,200,24.0,34.0,58,0.00,,---,0.00,VWS V14.01,2013-01-19 11:29:00,
2013-01-19 06:30:00,45.3,30.1,30.03,SSW,195,21.0,21.0,55,0.00,,---,0.00,VWS V14.01,2013-01-19 11:30:00,
2013-01-19 06:31:00,45.4,30.2,30.03,SSW,202,26.0,28.0,55,0.00,,---,0.00,VWS V14.01,2013-01-19 11:31:00,
2013-01-19 06:32:00,45.4,29.7,30.03,SSW,202,25.0,29.0,54,0.00,,---,0.00,VWS V14.01,2013-01-19 11:32:00,
2013-01-19 06:33:00,45.5,29.4,30.03,SSW,200,17.0,29.0,53,0.00,,---,0.00,VWS V14.01,2013-01-19 11:33:00,
2013-01-19 06:34:00,45.5,31.2,30.03,SSW,199,20.0,29.0,57,0.00,,---,0.00,VWS V14.01,2013-01-19 11:34:00,
2013-01-19 06:35:00,45.4,30.6,30.03,SSW,202,22.0,29.0,56,0.00,,---,0.00,VWS V14.01,2013-01-19 11:35:00,
2013-01-19 06:36:00,45.4,30.6,30.03,SSW,192,27.0,29.0,56,0.00,,---,0.00,VWS V14.01,2013-01-19 11:36:00,
2013-01-19 06:37:00,45.4,30.2,30.03,SSW,210,20.0,29.0,55,0.00,,---,0.00,VWS V14.01,2013-01-19 11:37:00,
2013-01-19 06:38:00,45.4,30.2,30.03,SSW,197,25.0,29.0,55,0.00,,---,0.00,VWS V14.01,2013-01-19 11:38:00,
2013-01-19 06:39:00,45.5,30.3,30.03,SSW,207,18.0,29.0,55,0.00,,---,0.00,VWS V14.01,2013-01-19 11:39:00,
2013-01-19 06:40:00,45.5,30.7,30.03,SSW,206,24.0,30.0,56,0.00,,---,0.00,VWS V14.01,2013-01-19 11:40:00,
2013-01-19 06:41:00,45.5,29.8,30.03,SSW,194,27.0,31.0,54,0.00,,---,0.00,VWS V14.01,2013-01-19 11:41:00,
2013-01-19 06:42:00,45.6,29.9,30.03,SSW,196,25.0,31.0,54,0.00,,---,0.00,VWS V14.01,2013-01-19 11:42:00,
2013-01-19 06:43:00,45.6,29.5,30.03,SSW,204,29.0,31.0,53,0.00,,---,0.00,VWS V14.01,2013-01-19 11:43:00,
2013-01-19 06:44:00,45.7,29.6,30.03,SSW,201,23.0,31.0,53,0.00,,---,0.00,VWS V14.01,2013-01-19 11:44:00,
2013-01-19 06:45:00,45.7,30.0,30.03,SSW,198,24.0,31.0,54,0.00,,---,0.00,VWS V14.01,2013-01-19 11:45:00,
2013-01-19 06:46:00,45.6,30.4,30.02,SSW,196,24.0,32.0,55,0.00,,---,0.00,VWS V14.01,2013-01-19 11:46:00,
2013-01-19 06:47:00,45.6,29.5,30.03,SSW,202,17.0,32.0,53,0.00,,---,0.00,VWS V14.01,2013-01-19 11:47:00,
2013-01-19 06:48:00,45.6,31.3,30.03,SSW,202,24.0,32.0,57,0.00,,---,0.00,VWS V14.01,2013-01-19 11:48:00,
2013-01-19 06:49:00,45.5,30.7,30.02,SW,215,26.0,32.0,56,0.00,,---,0.00,VWS V14.01,2013-01-19 11:49:00,
2013-01-19 06:50:00,45.5,30.7,30.03,SSW,207,21.0,32.0,56,0.00,,---,0.00,VWS V14.01,2013-01-19 11:50:00,
2013-01-19 06:51:00,45.6,30.4,30.02,SSW,205,20.0,32.0,55,0.00,,---,0.00,VWS V14.01,2013-01-19 11:51:00,
2013-01-19 06:52:00,45.6,30.4,30.02,SSW,194,22.0,32.0,55,0.00,,---,0.00,VWS V14.01,2013-01-19 11:52:00,
2013-01-19 06:53:00,45.6,30.8,30.02,South,187,26.0,32.0,56,0.00,,---,0.00,VWS V14.01,2013-01-19 11:53:00,
2013-01-19 06:54:00,45.6,30.8,30.02,SSW,209,22.0,32.0,56,0.00,,---,0.00,VWS V14.01,2013-01-19 11:54:00,
2013-01-19 06:55:00,45.8,30.6,30.02,SSW,207,23.0,38.0,55,0.00,,---,0.00,VWS V14.01,2013-01-19 11:55:00,
2013-01-19 06:56:00,46.0,29.4,30.02,SSW,200,21.0,38.0,52,0.00,,---,0.00,VWS V14.01,2013-01-19 11:56:00,
2013-01-19 06:57:00,46.0,30.3,30.02,SSW,200,20.0,38.0,54,0.00,,---,0.00,VWS V14.01,2013-01-19 11:57:00,
2013-01-19 06:58:00,46.0,30.8,30.02,SSW,196,18.0,38.0,55,0.00,,---,0.00,VWS V14.01,2013-01-19 11:58:00,
2013-01-19 06:59:00,46.1,30.9,30.02,SSW,192,25.0,38.0,55,0.00,,---,0.00,VWS V14.01,2013-01-19 11:59:00,
2013-01-19 07:00:00,46.1,31.3,30.02,SSW,211,31.0,38.0,56,0.00,,---,0.00,VWS V14.01,2013-01-19 12:00:00,
2013-01-19 07:01:00,46.3,29.6,30.02,SSW,203,23.0,37.0,52,0.00,,---,0.00,VWS V14.01,2013-01-19 12:01:00,
2013-01-19 07:02:00,46.4,30.2,30.02,SSW,206,20.0,37.0,53,0.00,,---,0.00,VWS V14.01,2013-01-19 12:02:00,
2013-01-19 07:03:00,46.5,29.8,30.02,SSW,205,19.0,37.0,52,0.00,,---,0.00,VWS V14.01,2013-01-19 12:03:00,
2013-01-19 07:04:00,46.6,29.5,30.02,SSW,199,25.0,37.0,51,0.00,,---,0.00,VWS V14.01,2013-01-19 12:04:00,
2013-01-19 07:05:00,46.7,30.0,30.02,SSW,205,22.0,37.0,52,0.00,,---,0.00,VWS V14.01,2013-01-19 12:05:00,
2013-01-19 07:06:00,46.7,31.4,30.02,SSW,202,17.0,37.0,55,0.00,,---,0.00,VWS V14.01,2013-01-19 12:06:00,
2013-01-19 07:07:00,46.7,31.4,30.02,SSW,211,20.0,37.0,55,0.00,,---,0.00,VWS V14.01,2013-01-19 12:07:00,
2013-01-19 07:08:00,46.7,31.0,30.02,SSW,198,24.0,37.0,54,0.00,,---,0.00,VWS V14.01,2013-01-19 12:08:00,
2013-01-19 07:09:00,46.7,31.4,30.02,SSW,196,22.0,37.0,55,0.00,,---,0.00,VWS V14.01,2013-01-19 12:09:00,
2013-01-19 07:10:00,46.8,31.5,30.01,SSW,193,20.0,37.0,55,0.00,,---,0.00,VWS V14.01,2013-01-19 12:10:00,
2013-01-19 07:11:00,47.1,30.4,30.02,South,190,23.0,37.0,52,0.00,,---,0.00,VWS V14.01,2013-01-19 12:11:00,
2013-01-19 07:12:00,47.1,30.4,30.01,SSW,198,25.0,37.0,52,0.00,,---,0.00,VWS V14.01,2013-01-19 12:12:00,
2013-01-19 07:13:00,47.1,30.4,30.01,SSW,200,27.0,37.0,52,0.00,,---,0.00,VWS V14.01,2013-01-19 12:13:00,
2013-01-19 07:14:00,47.2,31.0,30.01,SSW,208,24.0,37.0,53,0.00,,---,0.00,VWS V14.01,2013-01-19 12:14:00,
2013-01-19 07:15:00,47.2,31.0,30.01,SSW,201,17.0,37.0,53,0.00,,---,0.00,VWS V14.01,2013-01-19 12:15:00,
2013-01-19 07:16:00,47.0,31.2,30.01,SSW,195,17.0,37.0,54,0.00,,---,0.00,VWS V14.01,2013-01-19 12:16:00,
2013-01-19 07:17:00,46.9,31.1,30.01,SSW,196,22.0,37.0,54,0.00,,---,0.00,VWS V14.01,2013-01-19 12:17:00,
2013-01-19 07:18:00,46.9,30.7,30.01,South,191,24.0,37.0,53,0.00,,---,0.00,VWS V14.01,2013-01-19 12:18:00,
2013-01-19 07:19:00,46.9,30.7,30.01,SSW,204,17.0,37.0,53,0.00,,---,0.00,VWS V14.01,2013-01-19 12:19:00,
2013-01-19 07:20:00,47.0,30.3,30.01,SSW,200,17.0,37.0,52,0.00,,---,0.00,VWS V14.01,2013-01-19 12:20:00,
2013-01-19 07:21:00,47.0,30.8,30.01,SSW,197,28.0,37.0,53,0.00,,---,0.00,VWS V14.01,2013-01-19 12:21:00,
2013-01-19 07:22:00,47.1,30.4,30.01,SSW,200,20.0,37.0,52,0.00,,---,0.00,VWS V14.01,2013-01-19 12:22:00,
2013-01-19 07:23:00,47.1,31.3,30.01,SSW,192,23.0,37.0,54,0.00,,---,0.00,VWS V14.01,2013-01-19 12:23:00,
2013-01-19 07:24:00,47.2,31.0,30.01,SSW,192,23.0,37.0,53,0.00,,---,0.00,VWS V14.01,2013-01-19 12:24:00,
2013-01-19 07:25:00,47.3,30.6,30.00,SSW,200,24.0,37.0,52,0.00,,---,0.00,VWS V14.01,2013-01-19 12:25:00,
2013-01-19 07:26:00,47.3,30.6,30.01,SW,215,22.0,37.0,52,0.00,,---,0.00,VWS V14.01,2013-01-19 12:26:00,
2013-01-19 07:27:00,47.4,30.7,30.01,SSW,204,27.0,37.0,52,0.00,,---,0.00,VWS V14.01,2013-01-19 12:27:00,
2013-01-19 07:28:00,47.4,30.7,30.01,SSW,203,20.0,37.0,52,0.00,,---,0.00,VWS V14.01,2013-01-19 12:28:00,
2013-01-19 07:29:00,47.4,30.7,30.01,SSW,198,23.0,37.0,52,0.00,,---,0.00,VWS V14.01,2013-01-19 12:29:00,
2013-01-19 07:30:00,47.5,30.8,30.01,SSW,193,20.0,37.0,52,0.00,,---,0.00,VWS V14.01,2013-01-19 12:30:00,
2013-01-19 07:31:00,47.5,31.7,30.01,SSW,202,16.0,21.0,54,0.00,,---,0.00,VWS V14.01,2013-01-19 12:31:00,
2013-01-19 07:32:00,47.5,32.2,30.01,SSW,209,20.0,22.0,55,0.00,,---,0.00,VWS V14.01,2013-01-19 12:32:00,
2013-01-19 07:33:00,47.5,31.2,30.01,SSW,198,19.0,26.0,53,0.00,,---,0.00,VWS V14.01,2013-01-19 12:33:00,
2013-01-19 07:34:00,47.5,31.7,30.01,South,190,20.0,26.0,54,0.00,,---,0.00,VWS V14.01,2013-01-19 12:34:00,
2013-01-19 07:35:00,47.6,31.3,30.00,SSW,194,20.0,26.0,53,0.00,,---,0.00,VWS V14.01,2013-01-19 12:35:00,
2013-01-19 07:36:00,47.6,32.2,30.01,SSW,198,16.0,26.0,55,0.00,,---,0.00,VWS V14.01,2013-01-19 12:36:00,
2013-01-19 07:37:00,47.7,31.4,30.01,SSW,202,16.0,26.0,53,0.00,,---,0.00,VWS V14.01,2013-01-19 12:37:00,
2013-01-19 07:38:00,47.8,31.0,30.00,SSW,192,18.0,26.0,52,0.00,,---,0.00,VWS V14.01,2013-01-19 12:38:00,
2013-01-19 07:39:00,47.8,31.5,30.01,SSW,200,18.0,26.0,53,0.00,,---,0.00,VWS V14.01,2013-01-19 12:39:00,
2013-01-19 07:40:00,47.8,31.0,30.00,SSW,198,19.0,26.0,52,0.00,,---,0.00,VWS V14.01,2013-01-19 12:40:00,
2013-01-19 07:41:00,47.8,31.0,30.01,SSW,196,20.0,26.0,52,0.00,,---,0.00,VWS V14.01,2013-01-19 12:41:00,
2013-01-19 07:42:00,47.9,30.7,30.01,SSW,207,22.0,28.0,51,0.00,,---,0.00,VWS V14.01,2013-01-19 12:42:00,
2013-01-19 07:43:00,47.9,30.2,30.01,SSW,198,17.0,28.0,50,0.00,,---,0.00,VWS V14.01,2013-01-19 12:43:00,
2013-01-19 07:44:00,47.9,31.6,30.01,SSW,192,21.0,28.0,53,0.00,,---,0.00,VWS V14.01,2013-01-19 12:44:00,
2013-01-19 07:45:00,47.9,31.6,30.00,SSW,207,22.0,28.0,53,0.00,,---,0.00,VWS V14.01,2013-01-19 12:45:00,
2013-01-19 07:46:00,47.9,30.7,30.01,SSW,196,16.0,28.0,51,0.00,,---,0.00,VWS V14.01,2013-01-19 12:46:00,
2013-01-19 07:47:00,47.8,30.6,30.00,South,190,24.0,28.0,51,0.00,,---,0.00,VWS V14.01,2013-01-19 12:47:00,
2013-01-19 07:48:00,47.9,30.7,30.01,SSW,203,21.0,28.0,51,0.00,,---,0.00,VWS V14.01,2013-01-19 12:48:00,
2013-01-19 07:49:00,47.9,31.6,30.00,SSW,199,18.0,28.0,53,0.00,,---,0.00,VWS V14.01,2013-01-19 12:49:00,
2013-01-19 07:50:00,47.9,30.7,30.00,SSW,195,20.0,28.0,51,0.00,,---,0.00,VWS V14.01,2013-01-19 12:50:00,
2013-01-19 07:51:00,48.0,30.8,30.00,SSW,196,21.0,28.0,51,0.00,,---,0.00,VWS V14.01,2013-01-19 12:51:00,
2013-01-19 07:52:00,48.1,30.8,30.00,SSW,194,20.0,28.0,51,0.00,,---,0.00,VWS V14.01,2013-01-19 12:52:00,
2013-01-19 07:53:00,48.0,31.2,30.00,SSW,202,19.0,28.0,52,0.00,,---,0.00,VWS V14.01,2013-01-19 12:53:00,
2013-01-19 07:54:00,48.1,31.8,30.00,SSW,192,18.0,28.0,53,0.00,,---,0.00,VWS V14.01,2013-01-19 12:54:00,
2013-01-19 07:55:00,48.0,31.2,30.00,SSW,192,26.0,28.0,52,0.00,,---,0.00,VWS V14.01,2013-01-19 12:55:00,
2013-01-19 07:56:00,48.0,31.2,30.00,South,191,25.0,28.0,52,0.00,,---,0.00,VWS V14.01,2013-01-19 12:56:00,
2013-01-19 07:57:00,48.0,30.8,30.00,South,188,22.0,28.0,51,0.00,,---,0.00,VWS V14.01,2013-01-19 12:57:00,
2013-01-19 07:58:00,48.0,30.8,30.00,SSW,200,22.0,28.0,51,0.00,,---,0.00,VWS V14.01,2013-01-19 12:58:00,
2013-01-19 07:59:00,47.9,30.7,30.00,SSW,200,22.0,28.0,51,0.00,,---,0.00,VWS V14.01,2013-01-19 12:59:00,
2013-01-19 08:00:00,48.0,30.8,30.00,SSW,207,22.0,28.0,51,0.00,,---,0.00,VWS V14.01,2013-01-19 13:00:00,
2013-01-19 08:01:00,48.0,30.8,30.00,SSW,200,23.0,28.0,51,0.00,,---,0.00,VWS V14.01,2013-01-19 13:01:00,
2013-01-19 08:02:00,47.9,30.7,30.00,SSW,194,20.0,28.0,51,0.00,,---,0.00,VWS V14.01,2013-01-19 13:02:00,
2013-01-19 08:03:00,48.0,31.2,30.00,SSW,196,20.0,28.0,52,0.00,,---,0.00,VWS V14.01,2013-01-19 13:03:00,
2013-01-19 08:04:00,47.9,31.1,30.00,SSW,195,20.0,28.0,52,0.00,,---,0.00,VWS V14.01,2013-01-19 13:04:00,
2013-01-19 08:05:00,48.0,30.8,30.00,SSW,194,22.0,31.0,51,0.00,,---,0.00,VWS V14.01,2013-01-19 13:05:00,
2013-01-19 08:06:00,47.9,31.1,30.00,SSW,205,21.0,31.0,52,0.00,,---,0.00,VWS V14.01,2013-01-19 13:06:00,
2013-01-19 08:07:00,47.9,31.1,30.00,SSW,208,21.0,31.0,52,0.00,,---,0.00,VWS V14.01,2013-01-19 13:07:00,
2013-01-19 08:08:00,47.8,31.0,30.00,SSW,207,17.0,31.0,52,0.00,,---,0.00,VWS V14.01,2013-01-19 13:08:00,
2013-01-19 08:09:00,47.9,30.7,30.00,SSW,204,23.0,31.0,51,0.00,,---,0.00,VWS V14.01,2013-01-19 13:09:00,
2013-01-19 08:10:00,47.9,30.7,30.00,SSW,199,18.0,31.0,51,0.00,,---,0.00,VWS V14.01,2013-01-19 13:10:00,
2013-01-19 08:11:00,47.9,31.1,30.00,SSW,194,18.0,31.0,52,0.00,,---,0.00,VWS V14.01,2013-01-19 13:11:00,
2013-01-19 08:12:00,47.9,31.1,30.00,SSW,205,18.0,31.0,52,0.00,,---,0.00,VWS V14.01,2013-01-19 13:12:00,
2013-01-19 08:13:00,47.9,30.7,30.00,SSW,207,18.0,31.0,51,0.00,,---,0.00,VWS V14.01,2013-01-19 13:13:00,
2013-01-19 08:14:00,47.9,30.7,30.00,SSW,202,18.0,31.0,51,0.00,,---,0.00,VWS V14.01,2013-01-19 13:14:00,
2013-01-19 08:15:00,47.8,31.0,30.00,SSW,205,17.0,31.0,52,0.00,,---,0.00,VWS V14.01,2013-01-19 13:15:00,
2013-01-19 08:16:00,47.8,31.0,30.00,SSW,213,19.0,31.0,52,0.00,,---,0.00,VWS V14.01,2013-01-19 13:16:00,
2013-01-19 08:17:00,47.7,31.4,30.00,SSW,204,16.0,31.0,53,0.00,,---,0.00,VWS V14.01,2013-01-19 13:17:00,
2013-01-19 08:18:00,47.7,31.0,30.00,SSW,207,17.0,31.0,52,0.00,,---,0.00,VWS V14.01,2013-01-19 13:18:00,
2013-01-19 08:19:00,47.8,29.1,30.00,SSW,210,18.0,31.0,48,0.00,,---,0.00,VWS V14.01,2013-01-19 13:19:00,
2013-01-19 08:20:00,48.0,30.8,30.00,SSW,213,16.0,31.0,51,0.00,,---,0.00,VWS V14.01,2013-01-19 13:20:00,
2013-01-19 08:21:00,47.9,31.1,30.00,SSW,213,16.0,31.0,52,0.00,,---,0.00,VWS V14.01,2013-01-19 13:21:00,
2013-01-19 08:22:00,47.9,30.7,30.00,SW,216,19.0,31.0,51,0.00,,---,0.00,VWS V14.01,2013-01-19 13:22:00,
2013-01-19 08:23:00,47.9,30.7,30.00,SSW,208,18.0,31.0,51,0.00,,---,0.00,VWS V14.01,2013-01-19 13:23:00,
2013-01-19 08:24:00,47.9,31.1,30.00,WSW,242,21.0,31.0,52,0.00,,---,0.00,VWS V14.01,2013-01-19 13:24:00,
2013-01-19 08:25:00,47.8,30.6,30.00,SSW,203,16.0,31.0,51,0.00,,---,0.00,VWS V14.01,2013-01-19 13:25:00,
2013-01-19 08:26:00,47.8,31.5,30.00,SSW,192,17.0,31.0,53,0.00,,---,0.00,VWS V14.01,2013-01-19 13:26:00,
2013-01-19 08:27:00,47.8,31.0,30.00,SSW,205,25.0,31.0,52,0.00,,---,0.00,VWS V14.01,2013-01-19 13:27:00,
2013-01-19 08:28:00,47.9,30.2,30.00,SSW,201,18.0,31.0,50,0.00,,---,0.00,VWS V14.01,2013-01-19 13:28:00,
2013-01-19 08:29:00,48.0,30.3,30.00,SSW,213,21.0,31.0,50,0.00,,---,0.00,VWS V14.01,2013-01-19 13:29:00,
2013-01-19 08:30:00,48.1,29.9,30.00,SSW,198,26.0,26.0,49,0.00,,---,0.00,VWS V14.01,2013-01-19 13:30:00,
2013-01-19 08:31:00,48.2,28.9,30.00,SSW,194,21.0,26.0,47,0.00,,---,0.00,VWS V14.01,2013-01-19 13:31:00,
2013-01-19 08:32:00,48.1,30.4,30.00,SSW,207,14.0,26.0,50,0.00,,---,0.00,VWS V14.01,2013-01-19 13:32:00,
2013-01-19 08:33:00,48.1,30.8,30.00,SSW,204,22.0,26.0,51,0.00,,---,0.00,VWS V14.01,2013-01-19 13:33:00,
2013-01-19 08:34:00,48.2,30.5,30.00,SSW,205,25.0,27.0,50,0.00,,---,0.00,VWS V14.01,2013-01-19 13:34:00,
2013-01-19 08:35:00,48.4,30.1,30.00,SSW,198,22.0,27.0,49,0.00,,---,0.00,VWS V14.01,2013-01-19 13:35:00,
2013-01-19 08:36:00,48.3,30.0,30.00,SSW,207,25.0,27.0,49,0.00,,---,0.00,VWS V14.01,2013-01-19 13:36:00,
2013-01-19 08:37:00,48.3,29.0,30.00,SSW,212,19.0,27.0,47,0.00,,---,0.00,VWS V14.01,2013-01-19 13:37:00,
2013-01-19 08:38:00,48.2,30.5,30.00,SSW,207,26.0,27.0,50,0.00,,---,0.00,VWS V14.01,2013-01-19 13:38:00,
2013-01-19 08:39:00,48.2,30.0,30.00,SSW,211,23.0,29.0,49,0.00,,---,0.00,VWS V14.01,2013-01-19 13:39:00,
2013-01-19 08:40:00,48.3,30.0,30.00,SSW,199,25.0,29.0,49,0.00,,---,0.00,VWS V14.01,2013-01-19 13:40:00,
2013-01-19 08:41:00,48.2,30.9,30.00,SSW,198,21.0,29.0,51,0.00,,---,0.00,VWS V14.01,2013-01-19 13:41:00,
2013-01-19 08:42:00,48.1,30.8,30.00,SSW,201,20.0,29.0,51,0.00,,---,0.00,VWS V14.01,2013-01-19 13:42:00,
2013-01-19 08:43:00,48.1,29.9,30.00,SW,215,21.0,29.0,49,0.00,,---,0.00,VWS V14.01,2013-01-19 13:43:00,
2013-01-19 08:44:00,48.2,29.5,30.00,SSW,202,19.0,29.0,48,0.00,,---,0.00,VWS V14.01,2013-01-19 13:44:00,
2013-01-19 08:46:00,48.1,31.3,30.00,SSW,208,22.0,29.0,52,0.00,,---,0.00,VWS V14.01,2013-01-19 13:46:00,
2013-01-19 08:47:00,48.0,29.8,29.99,SSW,198,21.0,29.0,49,0.00,,---,0.00,VWS V14.01,2013-01-19 13:47:00,
2013-01-19 08:48:00,47.9,29.7,29.99,SSW,192,24.0,29.0,49,0.00,,---,0.00,VWS V14.01,2013-01-19 13:48:00,
2013-01-19 08:50:00,47.9,29.7,30.00,SSW,194,19.0,29.0,49,0.00,,---,0.00,VWS V14.01,2013-01-19 13:50:00,
2013-01-19 08:51:00,47.9,30.2,29.99,SSW,207,26.0,29.0,50,0.00,,---,0.00,VWS V14.01,2013-01-19 13:51:00,
2013-01-19 08:52:00,48.1,29.4,29.99,SSW,193,20.0,29.0,48,0.00,,---,0.00,VWS V14.01,2013-01-19 13:52:00,
2013-01-19 08:53:00,48.1,30.4,29.99,SSW,204,19.0,29.0,50,0.00,,---,0.00,VWS V14.01,2013-01-19 13:53:00,
2013-01-19 08:54:00,48.0,30.3,29.99,SSW,197,17.0,29.0,50,0.00,,---,0.00,VWS V14.01,2013-01-19 13:54:00,
2013-01-19 08:55:00,48.0,30.3,29.99,South,191,22.0,30.0,50,0.00,,---,0.00,VWS V14.01,2013-01-19 13:55:00,
2013-01-19 08:56:00,48.1,29.9,29.99,SSW,206,24.0,32.0,49,0.00,,---,0.00,VWS V14.01,2013-01-19 13:56:00,
2013-01-19 08:57:00,48.1,30.4,29.99,SSW,205,21.0,32.0,50,0.00,,---,0.00,VWS V14.01,2013-01-19 13:57:00,
2013-01-19 08:58:00,47.9,30.2,29.99,SSW,207,26.0,33.0,50,0.00,,---,0.00,VWS V14.01,2013-01-19 13:58:00,
2013-01-19 08:59:00,47.9,29.2,29.99,SSW,197,22.0,33.0,48,0.00,,---,0.00,VWS V14.01,2013-01-19 13:59:00,
2013-01-19 09:00:00,47.9,30.2,29.99,SSW,195,30.0,33.0,50,0.00,,---,0.00,VWS V14.01,2013-01-19 14:00:00,
2013-01-19 09:01:00,47.9,29.7,29.99,SSW,198,34.0,34.0,49,0.00,,---,0.00,VWS V14.01,2013-01-19 14:01:00,
2013-01-19 09:02:00,47.8,29.6,29.99,SSW,207,27.0,34.0,49,0.00,,---,0.00,VWS V14.01,2013-01-19 14:02:00,
2013-01-19 09:03:00,47.9,29.7,29.99,SSW,200,29.0,34.0,49,0.00,,---,0.00,VWS V14.01,2013-01-19 14:03:00,
2013-01-19 09:05:00,47.9,30.7,29.99,South,184,23.0,34.0,51,0.00,,---,0.00,VWS V14.01,2013-01-19 14:05:00,
2013-01-19 09:06:00,47.8,29.1,29.99,SW,217,19.0,34.0,48,0.00,,---,0.00,VWS V14.01,2013-01-19 14:06:00,
2013-01-19 09:07:00,47.7,31.4,29.99,SSW,198,16.0,34.0,53,0.00,,---,0.00,VWS V14.01,2013-01-19 14:07:00,
2013-01-19 09:08:00,47.6,31.3,29.99,SSW,203,16.0,34.0,53,0.00,,---,0.00,VWS V14.01,2013-01-19 14:08:00,
2013-01-19 09:09:00,47.7,30.0,29.99,SSW,199,25.0,34.0,50,0.00,,---,0.00,VWS V14.01,2013-01-19 14:09:00,
2013-01-19 09:10:00,47.7,30.0,29.99,SSW,203,18.0,34.0,50,0.00,,---,0.00,VWS V14.01,2013-01-19 14:10:00,
2013-01-19 09:11:00,47.6,29.9,29.99,SSW,200,24.0,34.0,50,0.00,,---,0.00,VWS V14.01,2013-01-19 14:11:00,
2013-01-19 09:12:00,47.8,29.6,29.99,SSW,198,24.0,34.0,49,0.00,,---,0.00,VWS V14.01,2013-01-19 14:12:00,
2013-01-19 09:13:00,47.8,29.1,29.99,SSW,194,25.0,34.0,48,0.00,,---,0.00,VWS V14.01,2013-01-19 14:13:00,
2013-01-19 09:14:00,47.7,31.0,29.99,SSW,205,22.0,34.0,52,0.00,,---,0.00,VWS V14.01,2013-01-19 14:14:00,
2013-01-19 09:15:00,47.7,31.0,29.99,SSW,208,25.0,34.0,52,0.00,,---,0.00,VWS V14.01,2013-01-19 14:15:00,
2013-01-19 09:16:00,47.7,30.0,29.99,SSW,202,25.0,34.0,50,0.00,,---,0.00,VWS V14.01,2013-01-19 14:16:00,
2013-01-19 09:17:00,47.6,29.9,30.00,SSW,205,17.0,34.0,50,0.00,,---,0.00,VWS V14.01,2013-01-19 14:17:00,
2013-01-19 09:18:00,47.6,30.4,30.00,SSW,200,17.0,34.0,51,0.00,,---,0.00,VWS V14.01,2013-01-19 14:18:00,
2013-01-19 09:19:00,47.6,30.4,30.00,SSW,200,18.0,34.0,51,0.00,,---,0.00,VWS V14.01,2013-01-19 14:19:00,
2013-01-19 09:20:00,47.5,29.8,30.00,SSW,211,18.0,34.0,50,0.00,,---,0.00,VWS V14.01,2013-01-19 14:20:00,
2013-01-19 09:21:00,47.5,30.3,30.00,SSW,202,17.0,34.0,51,0.00,,---,0.00,VWS V14.01,2013-01-19 14:21:00,
2013-01-19 09:22:00,47.5,29.8,30.00,SSW,203,16.0,34.0,50,0.00,,---,0.00,VWS V14.01,2013-01-19 14:22:00,
2013-01-19 09:23:00,47.5,30.8,30.00,SSW,198,19.0,34.0,52,0.00,,---,0.00,VWS V14.01,2013-01-19 14:23:00,
2013-01-19 09:24:00,47.4,30.7,30.00,SSW,207,20.0,34.0,52,0.00,,---,0.00,VWS V14.01,2013-01-19 14:24:00,
2013-01-19 09:25:00,47.4,30.2,30.00,SSW,200,25.0,34.0,51,0.00,,---,0.00,VWS V14.01,2013-01-19 14:25:00,
2013-01-19 09:26:00,47.4,29.7,30.00,SSW,209,21.0,34.0,50,0.00,,---,0.00,VWS V14.01,2013-01-19 14:26:00,
2013-01-19 09:27:00,47.3,30.6,29.99,SSW,205,18.0,34.0,52,0.00,,---,0.00,VWS V14.01,2013-01-19 14:27:00,
2013-01-19 09:28:00,47.3,30.6,30.00,SSW,205,21.0,34.0,52,0.00,,---,0.00,VWS V14.01,2013-01-19 14:28:00,
2013-01-19 09:29:00,47.3,30.6,29.99,SSW,198,17.0,34.0,52,0.00,,---,0.00,VWS V14.01,2013-01-19 14:29:00,
2013-01-19 09:30:00,47.2,31.0,29.99,SSW,203,15.0,21.0,53,0.00,,---,0.00,VWS V14.01,2013-01-19 14:30:00,
2013-01-19 09:31:00,47.2,31.0,29.99,SSW,207,17.0,21.0,53,0.00,,---,0.00,VWS V14.01,2013-01-19 14:31:00,
2013-01-19 09:32:00,47.1,30.9,29.99,SSW,209,21.0,26.0,53,0.00,,---,0.00,VWS V14.01,2013-01-19 14:32:00,
2013-01-19 09:33:00,47.3,29.6,29.99,SSW,204,20.0,26.0,50,0.00,,---,0.00,VWS V14.01,2013-01-19 14:33:00,
2013-01-19 09:34:00,47.4,29.2,29.99,SSW,211,16.0,26.0,49,0.00,,---,0.00,VWS V14.01,2013-01-19 14:34:00,
2013-01-19 09:35:00,47.4,29.2,29.99,SSW,207,16.0,26.0,49,0.00,,---,0.00,VWS V14.01,2013-01-19 14:35:00,
2013-01-19 09:36:00,47.4,30.2,29.99,SSW,198,21.0,26.0,51,0.00,,---,0.00,VWS V14.01,2013-01-19 14:36:00,
2013-01-19 09:37:00,47.3,30.6,29.99,SSW,200,26.0,27.0,52,0.00,,---,0.00,VWS V14.01,2013-01-19 14:37:00,
2013-01-19 09:38:00,47.3,29.6,29.99,SSW,205,25.0,27.0,50,0.00,,---,0.00,VWS V14.01,2013-01-19 14:38:00,
2013-01-19 09:39:00,47.5,28.8,29.99,SSW,211,31.0,31.0,48,0.00,,---,0.00,VWS V14.01,2013-01-19 14:39:00,
2013-01-19 09:40:00,47.6,29.4,29.99,SSW,209,21.0,31.0,49,0.00,,---,0.00,VWS V14.01,2013-01-19 14:40:00,
2013-01-19 09:41:00,47.6,28.9,30.00,SSW,199,17.0,31.0,48,0.00,,---,0.00,VWS V14.01,2013-01-19 14:41:00,
2013-01-19 09:42:00,47.3,30.6,29.99,SSW,211,21.0,31.0,52,0.00,,---,0.00,VWS V14.01,2013-01-19 14:42:00,
2013-01-19 09:43:00,47.3,29.6,29.99,SSW,201,17.0,31.0,50,0.00,,---,0.00,VWS V14.01,2013-01-19 14:43:00,
2013-01-19 09:44:00,47.2,30.0,29.99,SSW,203,17.0,31.0,51,0.00,,---,0.00,VWS V14.01,2013-01-19 14:44:00,
2013-01-19 09:45:00,47.1,29.9,30.00,SSW,201,18.0,31.0,51,0.00,,---,0.00,VWS V14.01,2013-01-19 14:45:00,
2013-01-19 09:46:00,47.1,30.4,30.00,SSW,205,25.0,31.0,52,0.00,,---,0.00,VWS V14.01,2013-01-19 14:46:00,
2013-01-19 09:47:00,47.3,28.1,29.99,SSW,211,18.0,34.0,47,0.00,,---,0.00,VWS V14.01,2013-01-19 14:47:00,
2013-01-19 09:48:00,47.4,29.2,29.99,SSW,209,19.0,34.0,49,0.00,,---,0.00,VWS V14.01,2013-01-19 14:48:00,
2013-01-19 09:49:00,47.2,30.0,30.00,SSW,207,21.0,34.0,51,0.00,,---,0.00,VWS V14.01,2013-01-19 14:49:00,
2013-01-19 09:50:00,47.3,28.6,30.00,SSW,211,21.0,34.0,48,0.00,,---,0.00,VWS V14.01,2013-01-19 14:50:00,
2013-01-19 09:51:00,47.2,29.0,29.99,SSW,210,25.0,34.0,49,0.00,,---,0.00,VWS V14.01,2013-01-19 14:51:00,
2013-01-19 09:52:00,47.2,29.5,29.99,SW,214,20.0,34.0,50,0.00,,---,0.00,VWS V14.01,2013-01-19 14:52:00,
2013-01-19 09:53:00,47.0,29.8,29.99,SSW,205,20.0,34.0,51,0.00,,---,0.00,VWS V14.01,2013-01-19 14:53:00,
2013-01-19 09:54:00,46.9,30.7,29.99,SSW,200,18.0,34.0,53,0.00,,---,0.00,VWS V14.01,2013-01-19 14:54:00,
2013-01-19 09:55:00,46.8,30.6,29.99,SSW,205,17.0,34.0,53,0.00,,---,0.00,VWS V14.01,2013-01-19 14:55:00,
2013-01-19 09:56:00,46.6,30.4,30.00,SSW,203,22.0,34.0,53,0.00,,---,0.00,VWS V14.01,2013-01-19 14:56:00,
2013-01-19 09:57:00,46.7,29.5,29.99,SW,227,25.0,34.0,51,0.00,,---,0.00,VWS V14.01,2013-01-19 14:57:00,
2013-01-19 09:58:00,46.8,29.2,29.99,SSW,208,25.0,34.0,50,0.00,,---,0.00,VWS V14.01,2013-01-19 14:58:00,
2013-01-19 09:59:00,46.8,29.6,29.99,SSW,198,26.0,34.0,51,0.00,,---,0.00,VWS V14.01,2013-01-19 14:59:00,
2013-01-19 10:00:00,46.9,28.8,29.99,SSW,205,18.0,18.0,49,0.00,,---,0.00,VWS V14.01,2013-01-19 15:00:00,
2013-01-19 10:01:00,46.8,29.6,29.99,SSW,211,21.0,25.0,51,0.00,,---,0.00,VWS V14.01,2013-01-19 15:01:00,
2013-01-19 10:02:00,46.7,29.5,29.99,SSW,211,18.0,25.0,51,0.00,,---,0.00,VWS V14.01,2013-01-19 15:02:00,
2013-01-19 10:03:00,46.7,30.5,30.00,SSW,205,14.0,25.0,53,0.00,,---,0.00,VWS V14.01,2013-01-19 15:03:00,
2013-01-19 10:04:00,46.5,31.2,29.99,SSW,202,18.0,25.0,55,0.00,,---,0.00,VWS V14.01,2013-01-19 15:04:00,
2013-01-19 10:05:00,46.5,30.3,30.00,SSW,210,16.0,25.0,53,0.00,,---,0.00,VWS V14.01,2013-01-19 15:05:00,
2013-01-19 10:06:00,46.5,30.3,29.99,SSW,213,17.0,25.0,53,0.00,,---,0.00,VWS V14.01,2013-01-19 15:06:00,
2013-01-19 10:07:00,46.4,30.7,29.99,SSW,209,14.0,25.0,54,0.00,,---,0.00,VWS V14.01,2013-01-19 15:07:00,
2013-01-19 10:08:00,46.3,31.0,30.00,SSW,197,16.0,25.0,55,0.00,,---,0.00,VWS V14.01,2013-01-19 15:08:00,
2013-01-19 10:09:00,46.3,30.6,30.00,SSW,207,14.0,25.0,54,0.00,,---,0.00,VWS V14.01,2013-01-19 15:09:00,
2013-01-19 10:10:00,46.1,31.7,30.00,SSW,202,14.0,25.0,57,0.00,,---,0.00,VWS V14.01,2013-01-19 15:10:00,
2013-01-19 10:11:00,45.9,32.0,30.00,SSW,205,14.0,25.0,58,0.00,,---,0.00,VWS V14.01,2013-01-19 15:11:00,
2013-01-19 10:12:00,45.9,31.1,30.00,SSW,206,17.0,25.0,56,0.00,,---,0.00,VWS V14.01,2013-01-19 15:12:00,
2013-01-19 10:13:00,46.0,30.3,30.00,South,190,15.0,25.0,54,0.00,,---,0.00,VWS V14.01,2013-01-19 15:13:00,
2013-01-19 10:14:00,46.1,30.9,29.99,SSW,202,21.0,25.0,55,0.00,,---,0.00,VWS V14.01,2013-01-19 15:14:00,
2013-01-19 10:15:00,46.2,30.0,30.00,SSW,202,17.0,25.0,53,0.00,,---,0.00,VWS V14.01,2013-01-19 15:15:00,
2013-01-19 10:16:00,46.2,30.5,30.00,SSW,207,18.0,25.0,54,0.00,,---,0.00,VWS V14.01,2013-01-19 15:16:00,
2013-01-19 10:17:00,46.2,30.0,29.99,SW,220,18.0,25.0,53,0.00,,---,0.00,VWS V14.01,2013-01-19 15:17:00,
2013-01-19 10:18:00,46.1,30.9,30.00,SSW,208,14.0,25.0,55,0.00,,---,0.00,VWS V14.01,2013-01-19 15:18:00,
2013-01-19 10:19:00,46.1,30.9,30.00,SSW,198,15.0,25.0,55,0.00,,---,0.00,VWS V14.01,2013-01-19 15:19:00,
2013-01-19 10:20:00,46.0,30.8,30.00,SSW,202,13.0,25.0,55,0.00,,---,0.00,VWS V14.01,2013-01-19 15:20:00,
2013-01-19 10:21:00,45.9,30.7,30.00,SSW,200,14.0,25.0,55,0.00,,---,0.00,VWS V14.01,2013-01-19 15:21:00,
2013-01-19 10:22:00,45.8,31.0,30.00,SSW,206,12.0,25.0,56,0.00,,---,0.00,VWS V14.01,2013-01-19 15:22:00,
2013-01-19 10:23:00,45.7,31.8,30.00,SSW,206,13.0,25.0,58,0.00,,---,0.00,VWS V14.01,2013-01-19 15:23:00,
2013-01-19 10:24:00,45.5,31.6,30.00,SSW,200,12.0,25.0,58,0.00,,---,0.00,VWS V14.01,2013-01-19 15:24:00,
2013-01-19 10:25:00,45.4,31.5,30.00,SSW,198,16.0,25.0,58,0.00,,---,0.00,VWS V14.01,2013-01-19 15:25:00,
2013-01-19 10:26:00,45.4,30.6,30.00,SSW,202,16.0,25.0,56,0.00,,---,0.00,VWS V14.01,2013-01-19 15:26:00,
2013-01-19 10:27:00,45.5,31.2,30.00,SSW,202,16.0,25.0,57,0.00,,---,0.00,VWS V14.01,2013-01-19 15:27:00,
2013-01-19 10:28:00,45.5,31.2,30.00,SSW,209,19.0,25.0,57,0.00,,---,0.00,VWS V14.01,2013-01-19 15:28:00,
2013-01-19 10:29:00,45.6,30.4,30.00,SSW,211,14.0,25.0,55,0.00,,---,0.00,VWS V14.01,2013-01-19 15:29:00,
2013-01-19 10:30:00,45.6,31.3,30.00,SSW,211,14.0,25.0,57,0.00,,---,0.00,VWS V14.01,2013-01-19 15:30:00,
2013-01-19 10:31:00,45.6,30.8,30.00,SSW,211,20.0,23.0,56,0.00,,---,0.00,VWS V14.01,2013-01-19 15:31:00,
2013-01-19 10:32:00,45.8,30.1,30.00,SSW,198,19.0,24.0,54,0.00,,---,0.00,VWS V14.01,2013-01-19 15:32:00,
2013-01-19 10:33:00,46.0,29.4,30.00,SSW,207,16.0,24.0,52,0.00,,---,0.00,VWS V14.01,2013-01-19 15:33:00,
2013-01-19 10:34:00,46.0,30.3,30.00,SSW,207,14.0,24.0,54,0.00,,---,0.00,VWS V14.01,2013-01-19 15:34:00,
2013-01-19 10:35:00,45.8,31.5,30.00,SW,219,18.0,24.0,57,0.00,,---,0.00,VWS V14.01,2013-01-19 15:35:00,
2013-01-19 10:36:00,45.6,30.8,30.00,SSW,210,16.0,24.0,56,0.00,,---,0.00,VWS V14.01,2013-01-19 15:36:00,
2013-01-19 10:37:00,45.6,30.8,30.00,SSW,200,18.0,24.0,56,0.00,,---,0.00,VWS V14.01,2013-01-19 15:37:00,
2013-01-19 10:38:00,45.6,30.4,30.00,SSW,197,14.0,24.0,55,0.00,,---,0.00,VWS V14.01,2013-01-19 15:38:00,
2013-01-19 10:39:00,45.6,30.8,30.00,SSW,207,13.0,24.0,56,0.00,,---,0.00,VWS V14.01,2013-01-19 15:39:00,
2013-01-19 10:40:00,45.6,30.4,30.00,SSW,210,19.0,24.0,55,0.00,,---,0.00,VWS V14.01,2013-01-19 15:40:00,
2013-01-19 10:41:00,45.6,30.8,30.00,SSW,207,16.0,24.0,56,0.00,,---,0.00,VWS V14.01,2013-01-19 15:41:00,
2013-01-19 10:42:00,45.5,31.2,30.00,SSW,208,22.0,24.0,57,0.00,,---,0.00,VWS V14.01,2013-01-19 15:42:00,
2013-01-19 10:43:00,45.7,30.0,30.00,SSW,207,19.0,24.0,54,0.00,,---,0.00,VWS V14.01,2013-01-19 15:43:00,
2013-01-19 10:44:00,45.8,29.2,30.00,SSW,200,16.0,24.0,52,0.00,,---,0.00,VWS V14.01,2013-01-19 15:44:00,
2013-01-19 10:45:00,45.7,31.4,30.00,SSW,207,13.0,24.0,57,0.00,,---,0.00,VWS V14.01,2013-01-19 15:45:00,
2013-01-19 10:46:00,45.5,31.2,30.00,SW,215,18.0,24.0,57,0.00,,---,0.00,VWS V14.01,2013-01-19 15:46:00,
2013-01-19 10:47:00,45.4,30.2,30.00,SSW,196,15.0,24.0,55,0.00,,---,0.00,VWS V14.01,2013-01-19 15:47:00,
2013-01-19 10:48:00,45.4,31.1,30.00,SSW,213,14.0,24.0,57,0.00,,---,0.00,VWS V14.01,2013-01-19 15:48:00,
2013-01-19 10:49:00,45.3,30.5,30.00,SSW,206,15.0,24.0,56,0.00,,---,0.00,VWS V14.01,2013-01-19 15:49:00,
2013-01-19 10:50:00,45.2,30.0,30.00,SSW,202,17.0,24.0,55,0.00,,---,0.00,VWS V14.01,2013-01-19 15:50:00,
2013-01-19 10:51:00,45.3,31.0,30.00,SSW,208,17.0,24.0,57,0.00,,---,0.00,VWS V14.01,2013-01-19 15:51:00,
2013-01-19 10:52:00,45.2,30.5,30.00,SSW,205,16.0,24.0,56,0.00,,---,0.00,VWS V14.01,2013-01-19 15:52:00,
2013-01-19 10:53:00,45.2,30.5,30.00,SSW,209,14.0,24.0,56,0.00,,---,0.00,VWS V14.01,2013-01-19 15:53:00,
2013-01-19 10:54:00,45.3,30.5,30.00,SSW,202,19.0,24.0,56,0.00,,---,0.00,VWS V14.01,2013-01-19 15:54:00,
2013-01-19 10:55:00,45.3,30.5,30.00,SSW,213,19.0,24.0,56,0.00,,---,0.00,VWS V14.01,2013-01-19 15:55:00,
2013-01-19 10:56:00,45.5,29.4,30.00,SSW,209,14.0,24.0,53,0.00,,---,0.00,VWS V14.01,2013-01-19 15:56:00,
2013-01-19 10:57:00,45.5,30.3,30.00,SSW,209,18.0,24.0,55,0.00,,---,0.00,VWS V14.01,2013-01-19 15:57:00,
2013-01-19 10:58:00,45.5,29.8,30.00,SSW,210,13.0,24.0,54,0.00,,---,0.00,VWS V14.01,2013-01-19 15:58:00,
2013-01-19 10:59:00,45.5,30.3,30.00,SSW,206,15.0,24.0,55,0.00,,---,0.00,VWS V14.01,2013-01-19 15:59:00,
2013-01-19 11:00:00,45.3,31.4,30.00,SSW,207,15.0,24.0,58,0.00,,---,0.00,VWS V14.01,2013-01-19 16:00:00,
2013-01-19 11:01:00,45.2,30.9,30.00,SSW,200,15.0,17.0,57,0.00,,---,0.00,VWS V14.01,2013-01-19 16:01:00,
2013-01-19 11:02:00,45.1,30.8,30.00,SSW,203,14.0,19.0,57,0.00,,---,0.00,VWS V14.01,2013-01-19 16:02:00,
2013-01-19 11:03:00,45.0,31.5,30.00,SSW,203,14.0,19.0,59,0.00,,---,0.00,VWS V14.01,2013-01-19 16:03:00,
2013-01-19 11:04:00,44.9,31.9,30.00,SSW,202,13.0,19.0,60,0.00,,---,0.00,VWS V14.01,2013-01-19 16:04:00,
2013-01-19 11:05:00,44.8,31.8,30.00,SSW,201,18.0,19.0,60,0.00,,---,0.00,VWS V14.01,2013-01-19 16:05:00,
2013-01-19 11:06:00,44.8,30.9,30.00,SSW,205,18.0,19.0,58,0.00,,---,0.00,VWS V14.01,2013-01-19 16:06:00,
2013-01-19 11:07:00,44.9,31.0,30.00,SSW,207,13.0,21.0,58,0.00,,---,0.00,VWS V14.01,2013-01-19 16:07:00,
2013-01-19 11:08:00,45.0,30.7,30.00,SSW,207,13.0,21.0,57,0.00,,---,0.00,VWS V14.01,2013-01-19 16:08:00,
2013-01-19 11:09:00,45.0,31.1,30.00,SSW,209,16.0,21.0,58,0.00,,---,0.00,VWS V14.01,2013-01-19 16:09:00,
2013-01-19 11:10:00,44.9,31.5,30.00,SSW,202,13.0,21.0,59,0.00,,---,0.00,VWS V14.01,2013-01-19 16:10:00,
2013-01-19 11:11:00,44.9,31.9,30.00,SSW,208,16.0,21.0,60,0.00,,---,0.00,VWS V14.01,2013-01-19 16:11:00,
2013-01-19 11:12:00,44.9,31.5,30.00,SSW,205,14.0,21.0,59,0.00,,---,0.00,VWS V14.01,2013-01-19 16:12:00,
2013-01-19 11:13:00,44.8,30.9,30.00,SSW,200,17.0,21.0,58,0.00,,---,0.00,VWS V14.01,2013-01-19 16:13:00,
2013-01-19 11:14:00,44.8,31.4,30.00,SSW,204,13.0,21.0,59,0.00,,---,0.00,VWS V14.01,2013-01-19 16:14:00,
2013-01-19 11:15:00,44.8,31.8,30.00,SSW,205,12.0,21.0,60,0.00,,---,0.00,VWS V14.01,2013-01-19 16:15:00,
2013-01-19 11:16:00,44.8,31.4,30.00,SSW,203,12.0,21.0,59,0.00,,---,0.00,VWS V14.01,2013-01-19 16:16:00,
2013-01-19 11:17:00,44.7,31.3,30.00,SSW,201,11.0,21.0,59,0.00,,---,0.00,VWS V14.01,2013-01-19 16:17:00,
2013-01-19 11:18:00,44.7,31.3,30.00,SSW,202,11.0,21.0,59,0.00,,---,0.00,VWS V14.01,2013-01-19 16:18:00,
2013-01-19 11:19:00,44.7,31.3,30.00,SSW,204,12.0,21.0,59,0.00,,---,0.00,VWS V14.01,2013-01-19 16:19:00,
2013-01-19 11:20:00,44.7,30.9,30.00,SSW,210,14.0,21.0,58,0.00,,---,0.00,VWS V14.01,2013-01-19 16:20:00,
2013-01-19 11:21:00,44.8,30.5,30.00,SSW,207,12.0,21.0,57,0.00,,---,0.00,VWS V14.01,2013-01-19 16:21:00,
2013-01-19 11:22:00,44.8,31.4,30.00,SSW,206,11.0,21.0,59,0.00,,---,0.00,VWS V14.01,2013-01-19 16:22:00,
2013-01-19 11:23:00,44.7,31.7,30.00,SSW,199,13.0,21.0,60,0.00,,---,0.00,VWS V14.01,2013-01-19 16:23:00,
2013-01-19 11:24:00,44.6,31.6,30.00,SSW,204,13.0,21.0,60,0.00,,---,0.00,VWS V14.01,2013-01-19 16:24:00,
2013-01-19 11:25:00,44.7,31.3,30.01,SSW,203,11.0,21.0,59,0.00,,---,0.00,VWS V14.01,2013-01-19 16:25:00,
2013-01-19 11:26:00,44.6,32.0,30.00,SSW,207,11.0,21.0,61,0.00,,---,0.00,VWS V14.01,2013-01-19 16:26:00,
2013-01-19 11:27:00,44.5,31.9,30.00,SSW,201,13.0,21.0,61,0.00,,---,0.00,VWS V14.01,2013-01-19 16:27:00,
2013-01-19 11:28:00,44.5,31.9,30.00,SSW,204,11.0,21.0,61,0.00,,---,0.00,VWS V14.01,2013-01-19 16:28:00,
2013-01-19 11:29:00,44.4,31.8,30.00,SSW,200,13.0,21.0,61,0.00,,---,0.00,VWS V14.01,2013-01-19 16:29:00,
2013-01-19 11:30:00,44.4,31.8,30.01,SSW,209,13.0,21.0,61,0.00,,---,0.00,VWS V14.01,2013-01-19 16:30:00,
2013-01-19 11:31:00,44.5,31.1,30.01,SSW,200,13.0,16.0,59,0.00,,---,0.00,VWS V14.01,2013-01-19 16:31:00,
2013-01-19 11:32:00,44.6,31.2,30.01,SSW,201,9.0,16.0,59,0.00,,---,0.00,VWS V14.01,2013-01-19 16:32:00,
2013-01-19 11:33:00,44.6,32.0,30.01,SSW,207,12.0,16.0,61,0.00,,---,0.00,VWS V14.01,2013-01-19 16:33:00,
2013-01-19 11:34:00,44.5,31.5,30.01,SSW,207,12.0,16.0,60,0.00,,---,0.00,VWS V14.01,2013-01-19 16:34:00,
2013-01-19 11:35:00,44.4,31.8,30.01,SSW,210,14.0,16.0,61,0.00,,---,0.00,VWS V14.01,2013-01-19 16:35:00,
2013-01-19 11:36:00,44.5,31.9,30.01,SSW,202,10.0,17.0,61,0.00,,---,0.00,VWS V14.01,2013-01-19 16:36:00,
2013-01-19 11:37:00,44.4,31.8,30.01,SSW,202,11.0,17.0,61,0.00,,---,0.00,VWS V14.01,2013-01-19 16:37:00,
2013-01-19 11:38:00,44.4,31.4,30.01,SSW,207,13.0,17.0,60,0.00,,---,0.00,VWS V14.01,2013-01-19 16:38:00,
2013-01-19 11:39:00,44.5,31.5,30.01,SSW,198,11.0,17.0,60,0.00,,---,0.00,VWS V14.01,2013-01-19 16:39:00,
2013-01-19 11:40:00,44.5,31.5,30.01,SSW,204,12.0,17.0,60,0.00,,---,0.00,VWS V14.01,2013-01-19 16:40:00,
2013-01-19 11:41:00,44.5,31.5,30.01,SSW,198,12.0,17.0,60,0.00,,---,0.00,VWS V14.01,2013-01-19 16:41:00,
2013-01-19 11:42:00,44.5,31.9,30.01,SSW,205,11.0,17.0,61,0.00,,---,0.00,VWS V14.01,2013-01-19 16:42:00,
2013-01-19 11:43:00,44.4,32.2,30.01,SSW,202,11.0,17.0,62,0.00,,---,0.00,VWS V14.01,2013-01-19 16:43:00,
2013-01-19 11:44:00,44.3,31.7,30.01,SSW,197,14.0,17.0,61,0.00,,---,0.00,VWS V14.01,2013-01-19 16:44:00,
2013-01-19 11:45:00,44.4,31.0,30.00,SSW,199,15.0,18.0,59,0.00,,---,0.00,VWS V14.01,2013-01-19 16:45:00,
2013-01-19 11:46:00,44.5,31.1,30.00,SSW,196,14.0,18.0,59,0.00,,---,0.00,VWS V14.01,2013-01-19 16:46:00,
2013-01-19 11:47:00,44.6,31.2,30.00,SSW,199,11.0,18.0,59,0.00,,---,0.00,VWS V14.01,2013-01-19 16:47:00,
2013-01-19 11:48:00,44.5,31.9,30.00,SSW,204,12.0,18.0,61,0.00,,---,0.00,VWS V14.01,2013-01-19 16:48:00,
2013-01-19 11:49:00,44.5,31.9,30.00,SSW,199,14.0,18.0,61,0.00,,---,0.00,VWS V14.01,2013-01-19 16:49:00,
2013-01-19 11:50:00,44.4,31.4,30.00,SSW,201,12.0,18.0,60,0.00,,---,0.00,VWS V14.01,2013-01-19 16:50:00,
2013-01-19 11:51:00,44.4,31.8,30.00,SSW,196,14.0,18.0,61,0.00,,---,0.00,VWS V14.01,2013-01-19 16:51:00,
2013-01-19 11:52:00,44.4,31.0,30.00,SSW,199,13.0,18.0,59,0.00,,---,0.00,VWS V14.01,2013-01-19 16:52:00,
2013-01-19 11:54:00,44.2,31.6,30.01,SSW,200,10.0,18.0,61,0.00,,---,0.00,VWS V14.01,2013-01-19 16:54:00,
2013-01-19 11:55:00,44.2,31.6,30.01,SSW,198,10.0,18.0,61,0.00,,---,0.00,VWS V14.01,2013-01-19 16:55:00,
2013-01-19 11:56:00,44.2,31.2,30.00,SSW,195,14.0,18.0,60,0.00,,---,0.00,VWS V14.01,2013-01-19 16:56:00,
2013-01-19 11:58:00,44.2,31.2,30.00,SSW,202,12.0,18.0,60,0.00,,---,0.00,VWS V14.01,2013-01-19 16:58:00,
2013-01-19 11:59:00,44.2,31.2,30.00,SSW,200,11.0,18.0,60,0.00,,---,0.00,VWS V14.01,2013-01-19 16:59:00,
2013-01-19 12:00:00,44.2,30.8,30.00,SSW,198,10.0,18.0,59,0.00,,---,0.00,VWS V14.01,2013-01-19 17:00:00,
2013-01-19 12:01:00,44.2,31.6,30.00,SSW,198,11.0,14.0,61,0.00,,---,0.00,VWS V14.01,2013-01-19 17:01:00,
2013-01-19 12:02:00,44.1,31.5,30.00,SSW,196,12.0,14.0,61,0.00,,---,0.00,VWS V14.01,2013-01-19 17:02:00,
2013-01-19 12:03:00,44.1,31.5,30.00,SSW,198,12.0,14.0,61,0.00,,---,0.00,VWS V14.01,2013-01-19 17:03:00,
2013-01-19 12:04:00,44.1,31.9,30.00,SSW,196,10.0,16.0,62,0.00,,---,0.00,VWS V14.01,2013-01-19 17:04:00,
2013-01-19 12:05:00,44.1,31.9,30.00,SSW,197,11.0,16.0,62,0.00,,---,0.00,VWS V14.01,2013-01-19 17:05:00,
2013-01-19 12:06:00,44.1,31.9,30.00,SSW,198,10.0,16.0,62,0.00,,---,0.00,VWS V14.01,2013-01-19 17:06:00,
2013-01-19 12:07:00,44.0,32.2,30.01,SSW,199,12.0,16.0,63,0.00,,---,0.00,VWS V14.01,2013-01-19 17:07:00,
2013-01-19 12:08:00,43.9,31.3,30.01,SSW,198,11.0,16.0,61,0.00,,---,0.00,VWS V14.01,2013-01-19 17:08:00,
2013-01-19 12:09:00,43.9,31.7,30.01,SSW,198,8.0,16.0,62,0.00,,---,0.00,VWS V14.01,2013-01-19 17:09:00,
2013-01-19 12:10:00,43.8,32.0,30.01,SSW,198,9.0,16.0,63,0.00,,---,0.00,VWS V14.01,2013-01-19 17:10:00,
2013-01-19 12:11:00,43.8,32.0,30.01,SSW,198,11.0,16.0,63,0.00,,---,0.00,VWS V14.01,2013-01-19 17:11:00,
2013-01-19 12:12:00,43.7,32.3,30.00,SSW,199,9.0,16.0,64,0.00,,---,0.00,VWS V14.01,2013-01-19 17:12:00,
2013-01-19 12:13:00,43.6,31.5,30.01,SSW,196,9.0,16.0,62,0.00,,---,0.00,VWS V14.01,2013-01-19 17:13:00,
2013-01-19 12:14:00,43.6,31.9,30.01,SSW,195,10.0,16.0,63,0.00,,---,0.00,VWS V14.01,2013-01-19 17:14:00,
2013-01-19 12:15:00,43.6,32.6,30.01,SSW,194,9.0,16.0,65,0.00,,---,0.00,VWS V14.01,2013-01-19 17:15:00,
2013-01-19 12:16:00,43.5,32.9,30.01,SSW,194,8.0,16.0,66,0.00,,---,0.00,VWS V14.01,2013-01-19 17:16:00,
2013-01-19 12:17:00,43.4,32.8,30.01,SSW,192,9.0,16.0,66,0.00,,---,0.00,VWS V14.01,2013-01-19 17:17:00,
2013-01-19 12:18:00,43.4,32.8,30.01,SSW,192,9.0,16.0,66,0.00,,---,0.00,VWS V14.01,2013-01-19 17:18:00,
2013-01-19 12:19:00,43.3,33.1,30.01,SSW,192,8.0,16.0,67,0.00,,---,0.00,VWS V14.01,2013-01-19 17:19:00,
2013-01-19 12:20:00,43.2,33.4,30.01,SSW,192,9.0,16.0,68,0.00,,---,0.00,VWS V14.01,2013-01-19 17:20:00,
2013-01-19 12:21:00,43.1,33.3,30.01,SSW,192,8.0,16.0,68,0.00,,---,0.00,VWS V14.01,2013-01-19 17:21:00,
2013-01-19 12:22:00,43.1,33.3,30.01,SSW,192,7.0,16.0,68,0.00,,---,0.00,VWS V14.01,2013-01-19 17:22:00,
2013-01-19 12:23:00,43.0,33.2,30.01,SSW,192,8.0,16.0,68,0.00,,---,0.00,VWS V14.01,2013-01-19 17:23:00,
2013-01-19 12:24:00,43.0,33.5,30.01,SSW,192,8.0,16.0,69,0.00,,---,0.00,VWS V14.01,2013-01-19 17:24:00,
2013-01-19 12:25:00,42.9,33.4,30.01,SSW,194,7.0,16.0,69,0.00,,---,0.00,VWS V14.01,2013-01-19 17:25:00,
2013-01-19 12:26:00,42.9,33.4,30.01,SSW,192,8.0,16.0,69,0.00,,---,0.00,VWS V14.01,2013-01-19 17:26:00,
2013-01-19 12:27:00,42.9,33.4,30.01,SSW,194,10.0,16.0,69,0.00,,---,0.00,VWS V14.01,2013-01-19 17:27:00,
2013-01-19 12:28:00,42.9,33.4,30.01,SSW,194,10.0,16.0,69,0.00,,---,0.00,VWS V14.01,2013-01-19 17:28:00,
2013-01-19 12:29:00,42.9,33.4,30.01,SSW,195,10.0,16.0,69,0.00,,---,0.00,VWS V14.01,2013-01-19 17:29:00,
2013-01-19 12:30:00,42.8,33.0,30.01,SSW,196,11.0,16.0,68,0.00,,---,0.00,VWS V14.01,2013-01-19 17:30:00,
2013-01-19 12:31:00,42.8,33.3,30.01,SSW,196,10.0,11.0,69,0.00,,---,0.00,VWS V14.01,2013-01-19 17:31:00,
2013-01-19 12:32:00,42.8,33.3,30.01,SSW,194,11.0,12.0,69,0.00,,---,0.00,VWS V14.01,2013-01-19 17:32:00,
2013-01-19 12:33:00,42.8,33.0,30.01,SSW,194,10.0,12.0,68,0.00,,---,0.00,VWS V14.01,2013-01-19 17:33:00,
2013-01-19 12:34:00,42.9,33.1,30.01,SSW,196,9.0,12.0,68,0.00,,---,0.00,VWS V14.01,2013-01-19 17:34:00,
2013-01-19 12:35:00,42.9,32.7,30.01,SSW,194,10.0,14.0,67,0.00,,---,0.00,VWS V14.01,2013-01-19 17:35:00,
2013-01-19 12:36:00,42.9,33.1,30.01,SSW,198,9.0,14.0,68,0.00,,---,0.00,VWS V14.01,2013-01-19 17:36:00,
2013-01-19 12:38:00,42.9,32.7,30.01,SSW,196,11.0,14.0,67,0.00,,---,0.00,VWS V14.01,2013-01-19 17:38:00,
2013-01-19 12:39:00,43.0,32.8,30.01,SSW,194,14.0,16.0,67,0.00,,---,0.00,VWS V14.01,2013-01-19 17:39:00,
2013-01-19 12:40:00,43.1,32.5,30.01,SSW,196,12.0,16.0,66,0.00,,---,0.00,VWS V14.01,2013-01-19 17:40:00,
2013-01-19 12:41:00,43.1,32.5,30.01,SSW,198,11.0,16.0,66,0.00,,---,0.00,VWS V14.01,2013-01-19 17:41:00,
2013-01-19 12:42:00,43.1,32.9,30.01,SSW,195,11.0,16.0,67,0.00,,---,0.00,VWS V14.01,2013-01-19 17:42:00,
2013-01-19 12:43:00,43.1,33.3,30.01,SSW,194,12.0,16.0,68,0.00,,---,0.00,VWS V14.01,2013-01-19 17:43:00,
2013-01-19 12:44:00,43.0,33.2,30.01,SSW,194,11.0,16.0,68,0.00,,---,0.00,VWS V14.01,2013-01-19 17:44:00,
2013-01-19 12:45:00,43.0,33.2,30.01,SSW,194,10.0,16.0,68,0.00,,---,0.00,VWS V14.01,2013-01-19 17:45:00,
2013-01-19 12:47:00,42.8,33.7,30.01,SSW,194,11.0,16.0,70,0.00,,---,0.00,VWS V14.01,2013-01-19 17:47:00,
2013-01-19 12:48:00,42.8,33.7,30.01,SSW,195,11.0,16.0,70,0.00,,---,0.00,VWS V14.01,2013-01-19 17:48:00,
2013-01-19 12:49:00,42.7,33.6,30.01,SSW,196,9.0,16.0,70,0.00,,---,0.00,VWS V14.01,2013-01-19 17:49:00,
2013-01-19 12:50:00,42.7,34.0,30.01,SSW,197,9.0,16.0,71,0.00,,---,0.00,VWS V14.01,2013-01-19 17:50:00,
2013-01-19 12:51:00,42.6,33.9,30.01,SSW,196,9.0,16.0,71,0.00,,---,0.00,VWS V14.01,2013-01-19 17:51:00,
2013-01-19 12:52:00,42.6,33.9,30.01,SSW,195,9.0,16.0,71,0.00,,---,0.00,VWS V14.01,2013-01-19 17:52:00,
2013-01-19 12:53:00,42.5,33.8,30.01,SSW,196,8.0,16.0,71,0.00,,---,0.00,VWS V14.01,2013-01-19 17:53:00,
2013-01-19 12:54:00,42.5,33.8,30.01,SSW,195,8.0,16.0,71,0.00,,---,0.00,VWS V14.01,2013-01-19 17:54:00,
2013-01-19 12:55:00,42.4,34.0,30.01,SSW,194,9.0,16.0,72,0.00,,---,0.00,VWS V14.01,2013-01-19 17:55:00,
2013-01-19 12:56:00,42.4,33.7,30.01,SSW,195,8.0,16.0,71,0.00,,---,0.00,VWS V14.01,2013-01-19 17:56:00,
2013-01-19 12:57:00,42.4,33.7,30.01,SSW,196,9.0,16.0,71,0.00,,---,0.00,VWS V14.01,2013-01-19 17:57:00,
2013-01-19 12:58:00,42.4,33.7,30.01,SSW,198,9.0,16.0,71,0.00,,---,0.00,VWS V14.01,2013-01-19 17:58:00,
2013-01-19 12:59:00,42.4,33.7,30.01,SSW,196,7.0,16.0,71,0.00,,---,0.00,VWS V14.01,2013-01-19 17:59:00,
2013-01-19 13:00:00,42.4,33.3,30.01,SSW,198,10.0,16.0,70,0.00,,---,0.00,VWS V14.01,2013-01-19 18:00:00,
2013-01-19 13:01:00,42.5,33.4,30.01,SSW,198,10.0,11.0,70,0.00,,---,0.00,VWS V14.01,2013-01-19 18:01:00,
2013-01-19 13:02:00,42.5,33.4,30.01,SSW,196,11.0,11.0,70,0.00,,---,0.00,VWS V14.01,2013-01-19 18:02:00,
2013-01-19 13:03:00,42.5,33.4,30.01,SSW,197,10.0,12.0,70,0.00,,---,0.00,VWS V14.01,2013-01-19 18:03:00,
2013-01-19 13:04:00,42.6,33.5,30.00,SSW,196,9.0,12.0,70,0.00,,---,0.00,VWS V14.01,2013-01-19 18:04:00,
2013-01-19 13:05:00,42.5,33.4,30.00,SSW,194,10.0,12.0,70,0.00,,---,0.00,VWS V14.01,2013-01-19 18:05:00,
2013-01-19 13:06:00,42.5,33.1,30.01,SSW,198,11.0,13.0,69,0.00,,---,0.00,VWS V14.01,2013-01-19 18:06:00,
2013-01-19 13:07:00,42.5,33.1,30.00,SSW,198,13.0,14.0,69,0.00,,---,0.00,VWS V14.01,2013-01-19 18:07:00,
2013-01-19 13:08:00,42.6,33.2,30.01,SSW,199,10.0,14.0,69,0.00,,---,0.00,VWS V14.01,2013-01-19 18:08:00,
2013-01-19 13:09:00,42.6,33.2,30.01,SSW,198,11.0,14.0,69,0.00,,---,0.00,VWS V14.01,2013-01-19 18:09:00,
2013-01-19 13:10:00,42.6,33.2,30.00,SSW,198,10.0,14.0,69,0.00,,---,0.00,VWS V14.01,2013-01-19 18:10:00,
2013-01-19 13:11:00,42.7,33.2,30.00,SSW,198,12.0,14.0,69,0.00,,---,0.00,VWS V14.01,2013-01-19 18:11:00,
2013-01-19 13:12:00,42.7,33.2,30.00,SSW,196,10.0,15.0,69,0.00,,---,0.00,VWS V14.01,2013-01-19 18:12:00,
2013-01-19 13:13:00,42.7,33.2,30.00,SSW,196,13.0,15.0,69,0.00,,---,0.00,VWS V14.01,2013-01-19 18:13:00,
2013-01-19 13:14:00,42.7,33.2,30.00,SSW,198,10.0,15.0,69,0.00,,---,0.00,VWS V14.01,2013-01-19 18:14:00,
2013-01-19 13:15:00,42.7,32.9,30.00,SSW,195,11.0,15.0,68,0.00,,---,0.00,VWS V14.01,2013-01-19 18:15:00,
2013-01-19 13:16:00,42.7,33.2,30.00,SSW,194,11.0,15.0,69,0.00,,---,0.00,VWS V14.01,2013-01-19 18:16:00,
2013-01-19 13:17:00,42.7,33.6,30.00,SSW,197,10.0,15.0,70,0.00,,---,0.00,VWS V14.01,2013-01-19 18:17:00,
2013-01-19 13:18:00,42.6,33.5,30.00,SSW,194,9.0,15.0,70,0.00,,---,0.00,VWS V14.01,2013-01-19 18:18:00,
2013-01-19 13:19:00,42.6,33.5,30.00,SSW,195,10.0,15.0,70,0.00,,---,0.00,VWS V14.01,2013-01-19 18:19:00,
2013-01-19 13:20:00,42.5,33.4,30.00,SSW,196,9.0,15.0,70,0.00,,---,0.00,VWS V14.01,2013-01-19 18:20:00,
2013-01-19 13:21:00,42.5,33.4,30.00,SSW,197,9.0,15.0,70,0.00,,---,0.00,VWS V14.01,2013-01-19 18:21:00,
2013-01-19 13:22:00,42.4,33.7,30.00,SSW,197,8.0,15.0,71,0.00,,---,0.00,VWS V14.01,2013-01-19 18:22:00,
2013-01-19 13:23:00,42.3,33.9,30.00,SSW,196,7.0,15.0,72,0.00,,---,0.00,VWS V14.01,2013-01-19 18:23:00,
2013-01-19 13:24:00,42.3,33.9,30.00,SSW,195,7.0,15.0,72,0.00,,---,0.00,VWS V14.01,2013-01-19 18:24:00,
2013-01-19 13:25:00,42.2,33.8,30.00,SSW,194,8.0,15.0,72,0.00,,---,0.00,VWS V14.01,2013-01-19 18:25:00,
2013-01-19 13:26:00,42.2,33.8,30.00,SSW,193,8.0,15.0,72,0.00,,---,0.00,VWS V14.01,2013-01-19 18:26:00,
2013-01-19 13:27:00,42.2,34.2,30.00,SSW,194,8.0,15.0,73,0.00,,---,0.00,VWS V14.01,2013-01-19 18:27:00,
2013-01-19 13:28:00,42.1,34.1,30.00,SSW,194,7.0,15.0,73,0.00,,---,0.00,VWS V14.01,2013-01-19 18:28:00,
2013-01-19 13:29:00,42.1,34.1,30.00,SSW,194,10.0,15.0,73,0.00,,---,0.00,VWS V14.01,2013-01-19 18:29:00,
2013-01-19 13:30:00,42.1,34.1,30.00,SSW,192,9.0,15.0,73,0.00,,---,0.00,VWS V14.01,2013-01-19 18:30:00,
2013-01-19 13:31:00,42.1,34.1,30.00,SSW,193,10.0,12.0,73,0.00,,---,0.00,VWS V14.01,2013-01-19 18:31:00,
2013-01-19 13:32:00,42.1,34.1,30.00,SSW,195,7.0,12.0,73,0.00,,---,0.00,VWS V14.01,2013-01-19 18:32:00,
2013-01-19 13:33:00,42.1,34.1,30.00,SSW,195,10.0,13.0,73,0.00,,---,0.00,VWS V14.01,2013-01-19 18:33:00,
2013-01-19 13:34:00,42.1,34.1,30.00,SSW,194,11.0,13.0,73,0.00,,---,0.00,VWS V14.01,2013-01-19 18:34:00,
2013-01-19 13:35:00,42.1,33.7,30.00,SSW,196,9.0,13.0,72,0.00,,---,0.00,VWS V14.01,2013-01-19 18:35:00,
2013-01-19 13:36:00,42.1,34.1,30.00,SSW,196,10.0,13.0,73,0.00,,---,0.00,VWS V14.01,2013-01-19 18:36:00,
2013-01-19 13:37:00,42.2,33.8,30.00,SSW,196,10.0,13.0,72,0.00,,---,0.00,VWS V14.01,2013-01-19 18:37:00,
2013-01-19 13:38:00,42.1,34.1,30.00,SSW,200,11.0,14.0,73,0.00,,---,0.00,VWS V14.01,2013-01-19 18:38:00,
2013-01-19 13:39:00,42.2,33.8,30.00,SSW,194,11.0,14.0,72,0.00,,---,0.00,VWS V14.01,2013-01-19 18:39:00,
2013-01-19 13:40:00,42.2,33.5,30.00,SSW,196,10.0,15.0,71,0.00,,---,0.00,VWS V14.01,2013-01-19 18:40:00,
2013-01-19 13:41:00,42.2,33.8,30.00,SSW,196,12.0,15.0,72,0.00,,---,0.00,VWS V14.01,2013-01-19 18:41:00,
2013-01-19 13:42:00,42.3,33.6,30.00,SSW,194,11.0,15.0,71,0.00,,---,0.00,VWS V14.01,2013-01-19 18:42:00,
2013-01-19 13:43:00,42.2,33.8,30.00,SSW,198,11.0,15.0,72,0.00,,---,0.00,VWS V14.01,2013-01-19 18:43:00,
2013-01-19 13:44:00,42.3,33.9,30.00,SSW,198,11.0,15.0,72,0.00,,---,0.00,VWS V14.01,2013-01-19 18:44:00,
2013-01-19 13:45:00,42.3,33.9,29.99,SSW,195,14.0,15.0,72,0.00,,---,0.00,VWS V14.01,2013-01-19 18:45:00,
2013-01-19 13:46:00,42.3,33.6,29.99,SSW,198,12.0,15.0,71,0.00,,---,0.00,VWS V14.01,2013-01-19 18:46:00,
2013-01-19 13:47:00,42.4,33.3,29.99,SSW,197,12.0,15.0,70,0.00,,---,0.00,VWS V14.01,2013-01-19 18:47:00,
2013-01-19 13:48:00,42.4,33.7,29.99,SSW,198,13.0,15.0,71,0.00,,---,0.00,VWS V14.01,2013-01-19 18:48:00,
2013-01-19 13:49:00,42.4,33.3,29.99,SSW,197,13.0,16.0,70,0.00,,---,0.00,VWS V14.01,2013-01-19 18:49:00,
2013-01-19 13:50:00,42.5,33.4,29.99,SSW,196,12.0,16.0,70,0.00,,---,0.00,VWS V14.01,2013-01-19 18:50:00,
2013-01-19 13:51:00,42.4,33.7,29.99,SSW,196,12.0,16.0,71,0.00,,---,0.00,VWS V14.01,2013-01-19 18:51:00,
2013-01-19 13:52:00,42.4,33.3,29.99,SSW,196,12.0,16.0,70,0.00,,---,0.00,VWS V14.01,2013-01-19 18:52:00,
2013-01-19 13:53:00,42.4,33.7,29.99,SSW,194,13.0,16.0,71,0.00,,---,0.00,VWS V14.01,2013-01-19 18:53:00,
2013-01-19 13:54:00,42.4,33.7,29.99,SSW,196,10.0,16.0,71,0.00,,---,0.00,VWS V14.01,2013-01-19 18:54:00,
2013-01-19 13:56:00,42.3,33.6,29.99,SSW,192,12.0,16.0,71,0.00,,---,0.00,VWS V14.01,2013-01-19 18:56:00,
2013-01-19 13:57:00,42.3,33.6,29.99,SSW,196,12.0,16.0,71,0.00,,---,0.00,VWS V14.01,2013-01-19 18:57:00,
2013-01-19 13:58:00,42.3,33.9,29.99,SSW,197,14.0,16.0,72,0.00,,---,0.00,VWS V14.01,2013-01-19 18:58:00,
2013-01-19 13:59:00,42.3,33.9,29.99,SSW,196,13.0,16.0,72,0.00,,---,0.00,VWS V14.01,2013-01-19 18:59:00,
2013-01-19 14:00:00,42.3,33.9,29.99,SSW,196,12.0,16.0,72,0.00,,---,0.00,VWS V14.01,2013-01-19 19:00:00,
2013-01-19 14:01:00,42.3,33.9,29.99,SSW,195,13.0,13.0,72,0.00,,---,0.00,VWS V14.01,2013-01-19 19:01:00,
2013-01-19 14:02:00,42.2,33.8,29.99,SSW,196,12.0,14.0,72,0.00,,---,0.00,VWS V14.01,2013-01-19 19:02:00,
2013-01-19 14:03:00,42.2,33.8,29.99,SSW,195,12.0,14.0,72,0.00,,---,0.00,VWS V14.01,2013-01-19 19:03:00,
2013-01-19 14:04:00,42.2,33.8,29.99,SSW,197,12.0,14.0,72,0.00,,---,0.00,VWS V14.01,2013-01-19 19:04:00,
2013-01-19 14:05:00,42.1,33.7,29.99,SSW,193,13.0,14.0,72,0.00,,---,0.00,VWS V14.01,2013-01-19 19:05:00,
2013-01-19 14:06:00,42.1,33.7,29.99,SSW,194,14.0,14.0,72,0.00,,---,0.00,VWS V14.01,2013-01-19 19:06:00,
2013-01-19 14:07:00,42.1,33.7,29.99,South,190,12.0,15.0,72,0.00,,---,0.00,VWS V14.01,2013-01-19 19:07:00,
2013-01-19 14:08:00,42.1,33.7,29.99,SSW,195,8.0,15.0,72,0.00,,---,0.00,VWS V14.01,2013-01-19 19:08:00,
2013-01-19 14:09:00,42.1,34.1,29.99,SSW,192,13.0,15.0,73,0.00,,---,0.00,VWS V14.01,2013-01-19 19:09:00,
2013-01-19 14:10:00,42.0,34.0,29.99,SSW,194,13.0,16.0,73,0.00,,---,0.00,VWS V14.01,2013-01-19 19:10:00,
2013-01-19 14:11:00,42.0,34.3,29.99,SSW,192,11.0,16.0,74,0.00,,---,0.00,VWS V14.01,2013-01-19 19:11:00,
2013-01-19 14:12:00,42.0,34.0,29.99,SSW,195,12.0,16.0,73,0.00,,---,0.00,VWS V14.01,2013-01-19 19:12:00,
2013-01-19 14:13:00,42.0,34.3,29.99,SSW,192,12.0,16.0,74,0.00,,---,0.00,VWS V14.01,2013-01-19 19:13:00,
2013-01-19 14:14:00,41.9,34.2,29.99,SSW,192,11.0,16.0,74,0.00,,---,0.00,VWS V14.01,2013-01-19 19:14:00,
2013-01-19 14:15:00,41.9,34.2,29.99,SSW,194,12.0,16.0,74,0.00,,---,0.00,VWS V14.01,2013-01-19 19:15:00,
2013-01-19 14:16:00,41.9,34.2,29.99,SSW,193,11.0,16.0,74,0.00,,---,0.00,VWS V14.01,2013-01-19 19:16:00,
2013-01-19 14:17:00,41.9,34.2,29.99,SSW,195,13.0,16.0,74,0.00,,---,0.00,VWS V14.01,2013-01-19 19:17:00,
2013-01-19 14:18:00,41.8,34.1,29.99,SSW,196,14.0,16.0,74,0.00,,---,0.00,VWS V14.01,2013-01-19 19:18:00,
2013-01-19 14:19:00,41.8,34.1,29.99,South,190,14.0,16.0,74,0.00,,---,0.00,VWS V14.01,2013-01-19 19:19:00,
2013-01-19 14:20:00,41.8,34.1,29.99,SSW,192,13.0,16.0,74,0.00,,---,0.00,VWS V14.01,2013-01-19 19:20:00,
2013-01-19 14:21:00,41.8,34.1,29.99,SSW,192,14.0,16.0,74,0.00,,---,0.00,VWS V14.01,2013-01-19 19:21:00,
2013-01-19 14:22:00,41.8,34.5,29.99,SSW,192,10.0,16.0,75,0.00,,---,0.00,VWS V14.01,2013-01-19 19:22:00,
2013-01-19 14:23:00,41.8,34.5,29.99,South,189,15.0,17.0,75,0.00,,---,0.00,VWS V14.01,2013-01-19 19:23:00,
2013-01-19 14:24:00,41.8,34.5,29.99,South,188,16.0,17.0,75,0.00,,---,0.00,VWS V14.01,2013-01-19 19:24:00,
2013-01-19 14:25:00,41.7,34.4,29.99,South,188,13.0,17.0,75,0.00,,---,0.00,VWS V14.01,2013-01-19 19:25:00,
2013-01-19 14:26:00,41.7,34.4,29.99,South,190,17.0,17.0,75,0.00,,---,0.00,VWS V14.01,2013-01-19 19:26:00,
2013-01-19 14:27:00,41.7,34.7,29.98,South,189,13.0,17.0,76,0.00,,---,0.00,VWS V14.01,2013-01-19 19:27:00,
2013-01-19 14:28:00,41.7,34.7,29.98,South,190,15.0,17.0,76,0.00,,---,0.00,VWS V14.01,2013-01-19 19:28:00,
2013-01-19 14:29:00,41.7,34.4,29.98,SSW,192,12.0,18.0,75,0.00,,---,0.00,VWS V14.01,2013-01-19 19:29:00,
2013-01-19 14:30:00,41.7,34.4,29.98,SSW,192,12.0,18.0,75,0.00,,---,0.00,VWS V14.01,2013-01-19 19:30:00,
2013-01-19 14:31:00,41.7,34.4,29.98,SSW,192,14.0,18.0,75,0.00,,---,0.00,VWS V14.01,2013-01-19 19:31:00,
2013-01-19 14:32:00,41.7,34.4,29.98,SSW,192,15.0,18.0,75,0.00,,---,0.00,VWS V14.01,2013-01-19 19:32:00,
2013-01-19 14:33:00,41.7,34.7,29.98,South,190,18.0,18.0,76,0.00,,---,0.00,VWS V14.01,2013-01-19 19:33:00,
2013-01-19 14:34:00,41.7,34.7,29.98,SSW,192,15.0,18.0,76,0.00,,---,0.00,VWS V14.01,2013-01-19 19:34:00,
2013-01-19 14:35:00,41.7,34.7,29.98,SSW,192,13.0,18.0,76,0.00,,---,0.00,VWS V14.01,2013-01-19 19:35:00,
2013-01-19 14:36:00,41.7,34.4,29.98,South,191,17.0,18.0,75,0.00,,---,0.00,VWS V14.01,2013-01-19 19:36:00,
2013-01-19 14:37:00,41.7,34.4,29.98,SSW,195,11.0,18.0,75,0.00,,---,0.00,VWS V14.01,2013-01-19 19:37:00,
2013-01-19 14:38:00,41.7,34.4,29.98,SSW,192,14.0,18.0,75,0.00,,---,0.00,VWS V14.01,2013-01-19 19:38:00,
2013-01-19 14:39:00,41.7,34.7,29.98,SSW,194,13.0,18.0,76,0.00,,---,0.00,VWS V14.01,2013-01-19 19:39:00,
2013-01-19 14:40:00,41.7,34.7,29.98,SSW,195,13.0,18.0,76,0.00,,---,0.00,VWS V14.01,2013-01-19 19:40:00,
2013-01-19 14:42:00,41.6,34.6,29.98,SSW,194,11.0,18.0,76,0.00,,---,0.00,VWS V14.01,2013-01-19 19:42:00,
2013-01-19 14:43:00,41.6,34.6,29.98,SSW,194,12.0,18.0,76,0.00,,---,0.00,VWS V14.01,2013-01-19 19:43:00,
2013-01-19 14:44:00,41.6,34.6,29.98,SSW,193,13.0,18.0,76,0.00,,---,0.00,VWS V14.01,2013-01-19 19:44:00,
2013-01-19 14:45:00,41.6,34.6,29.98,SSW,196,11.0,18.0,76,0.00,,---,0.00,VWS V14.01,2013-01-19 19:45:00,
2013-01-19 14:46:00,41.5,34.8,29.98,South,191,16.0,18.0,77,0.00,,---,0.00,VWS V14.01,2013-01-19 19:46:00,
2013-01-19 14:47:00,41.5,34.5,29.98,SSW,192,13.0,18.0,76,0.00,,---,0.00,VWS V14.01,2013-01-19 19:47:00,
2013-01-19 14:48:00,41.5,34.5,29.98,SSW,197,10.0,18.0,76,0.00,,---,0.00,VWS V14.01,2013-01-19 19:48:00,
2013-01-19 14:49:00,41.5,34.5,29.98,SSW,192,16.0,18.0,76,0.00,,---,0.00,VWS V14.01,2013-01-19 19:49:00,
2013-01-19 14:50:00,41.5,34.5,29.98,South,190,14.0,18.0,76,0.00,,---,0.00,VWS V14.01,2013-01-19 19:50:00,
2013-01-19 14:51:00,41.5,34.5,29.98,South,190,15.0,18.0,76,0.00,,---,0.00,VWS V14.01,2013-01-19 19:51:00,
2013-01-19 14:52:00,41.5,34.8,29.98,SSW,192,12.0,18.0,77,0.00,,---,0.00,VWS V14.01,2013-01-19 19:52:00,
2013-01-19 14:53:00,41.5,34.5,29.98,SSW,196,14.0,18.0,76,0.00,,---,0.00,VWS V14.01,2013-01-19 19:53:00,
2013-01-19 14:54:00,41.5,34.5,29.98,SSW,193,9.0,18.0,76,0.00,,---,0.00,VWS V14.01,2013-01-19 19:54:00,
2013-01-19 14:55:00,41.5,34.5,29.98,SSW,194,10.0,18.0,76,0.00,,---,0.00,VWS V14.01,2013-01-19 19:55:00,
2013-01-19 14:56:00,41.5,34.8,29.98,SSW,196,11.0,18.0,77,0.00,,---,0.00,VWS V14.01,2013-01-19 19:56:00,
2013-01-19 14:57:00,41.5,34.8,29.97,SSW,192,14.0,18.0,77,0.00,,---,0.00,VWS V14.01,2013-01-19 19:57:00,
2013-01-19 14:58:00,41.5,34.8,29.98,SSW,194,13.0,18.0,77,0.00,,---,0.00,VWS V14.01,2013-01-19 19:58:00,
2013-01-19 14:59:00,41.5,34.8,29.98,SSW,194,10.0,18.0,77,0.00,,---,0.00,VWS V14.01,2013-01-19 19:59:00,
2013-01-19 15:00:00,41.5,34.8,29.97,SSW,193,14.0,18.0,77,0.00,,---,0.00,VWS V14.01,2013-01-19 20:00:00,
2013-01-19 15:01:00,41.5,34.8,29.97,SSW,193,14.0,15.0,77,0.00,,---,0.00,VWS V14.01,2013-01-19 20:01:00,
2013-01-19 15:02:00,41.5,34.8,29.97,SSW,194,10.0,15.0,77,0.00,,---,0.00,VWS V14.01,2013-01-19 20:02:00,
2013-01-19 15:03:00,41.5,34.8,29.97,SSW,192,13.0,15.0,77,0.00,,---,0.00,VWS V14.01,2013-01-19 20:03:00,
2013-01-19 15:04:00,41.5,34.8,29.97,SSW,194,12.0,15.0,77,0.00,,---,0.00,VWS V14.01,2013-01-19 20:04:00,
2013-01-19 15:05:00,41.5,34.8,29.97,SSW,194,14.0,15.0,77,0.00,,---,0.00,VWS V14.01,2013-01-19 20:05:00,
2013-01-19 15:06:00,41.5,34.8,29.97,South,189,9.0,15.0,77,0.00,,---,0.00,VWS V14.01,2013-01-19 20:06:00,
2013-01-19 15:07:00,41.5,34.8,29.97,SSW,192,13.0,16.0,77,0.00,,---,0.00,VWS V14.01,2013-01-19 20:07:00,
2013-01-19 15:08:00,41.5,34.5,29.97,SSW,192,14.0,16.0,76,0.00,,---,0.00,VWS V14.01,2013-01-19 20:08:00,
2013-01-19 15:09:00,41.5,34.5,29.97,SSW,194,12.0,16.0,76,0.00,,---,0.00,VWS V14.01,2013-01-19 20:09:00,
2013-01-19 15:10:00,41.5,34.8,29.97,SSW,193,13.0,16.0,77,0.00,,---,0.00,VWS V14.01,2013-01-19 20:10:00,
2013-01-19 15:11:00,41.5,34.8,29.97,SSW,193,11.0,16.0,77,0.00,,---,0.00,VWS V14.01,2013-01-19 20:11:00,
2013-01-19 15:12:00,41.5,34.8,29.97,SSW,194,10.0,16.0,77,0.00,,---,0.00,VWS V14.01,2013-01-19 20:12:00,
2013-01-19 15:13:00,41.5,34.8,29.97,SSW,195,9.0,16.0,77,0.00,,---,0.00,VWS V14.01,2013-01-19 20:13:00,
2013-01-19 15:14:00,41.5,34.8,29.97,SSW,196,10.0,16.0,77,0.00,,---,0.00,VWS V14.01,2013-01-19 20:14:00,
2013-01-19 15:15:00,41.5,35.2,29.97,SSW,196,8.0,16.0,78,0.00,,---,0.00,VWS V14.01,2013-01-19 20:15:00,
2013-01-19 15:16:00,41.4,35.1,29.96,SSW,194,9.0,16.0,78,0.00,,---,0.00,VWS V14.01,2013-01-19 20:16:00,
2013-01-19 15:17:00,41.4,34.7,29.97,SSW,194,10.0,16.0,77,0.00,,---,0.00,VWS V14.01,2013-01-19 20:17:00,
2013-01-19 15:18:00,41.4,34.7,29.97,South,191,11.0,16.0,77,0.00,,---,0.00,VWS V14.01,2013-01-19 20:18:00,
2013-01-19 15:19:00,41.3,34.7,29.97,SSW,192,11.0,16.0,77,0.00,,---,0.00,VWS V14.01,2013-01-19 20:19:00,
2013-01-19 15:20:00,41.4,34.7,29.97,SSW,192,9.0,16.0,77,0.00,,---,0.00,VWS V14.01,2013-01-19 20:20:00,
2013-01-19 15:21:00,41.3,35.0,29.97,SSW,192,12.0,16.0,78,0.00,,---,0.00,VWS V14.01,2013-01-19 20:21:00,
2013-01-19 15:22:00,41.3,34.7,29.97,SSW,193,10.0,16.0,77,0.00,,---,0.00,VWS V14.01,2013-01-19 20:22:00,
2013-01-19 15:23:00,41.3,35.0,29.97,SSW,192,10.0,16.0,78,0.00,,---,0.00,VWS V14.01,2013-01-19 20:23:00,
2013-01-19 15:24:00,41.3,35.0,29.97,SSW,192,9.0,16.0,78,0.00,,---,0.00,VWS V14.01,2013-01-19 20:24:00,
2013-01-19 15:25:00,41.3,35.0,29.97,SSW,194,9.0,16.0,78,0.00,,---,0.00,VWS V14.01,2013-01-19 20:25:00,
2013-01-19 15:26:00,41.3,35.0,29.96,SSW,193,8.0,16.0,78,0.00,,---,0.00,VWS V14.01,2013-01-19 20:26:00,
2013-01-19 15:27:00,41.3,35.0,29.96,SSW,193,8.0,16.0,78,0.00,,---,0.00,VWS V14.01,2013-01-19 20:27:00,
2013-01-19 15:28:00,41.3,35.0,29.96,SSW,192,11.0,16.0,78,0.00,,---,0.00,VWS V14.01,2013-01-19 20:28:00,
2013-01-19 15:29:00,41.3,35.0,29.96,South,189,12.0,16.0,78,0.00,,---,0.00,VWS V14.01,2013-01-19 20:29:00,
2013-01-19 15:30:00,41.3,35.0,29.96,South,191,12.0,13.0,78,0.00,,---,0.00,VWS V14.01,2013-01-19 20:30:00,
2013-01-19 15:31:00,41.3,35.0,29.96,South,191,12.0,14.0,78,0.00,,---,0.00,VWS V14.01,2013-01-19 20:31:00,
2013-01-19 15:32:00,41.4,35.1,29.96,South,190,10.0,14.0,78,0.00,,---,0.00,VWS V14.01,2013-01-19 20:32:00,
2013-01-19 15:33:00,41.4,35.1,29.96,South,190,6.0,14.0,78,0.00,,---,0.00,VWS V14.01,2013-01-19 20:33:00,
2013-01-19 15:34:00,41.4,35.1,29.96,South,191,10.0,14.0,78,0.00,,---,0.00,VWS V14.01,2013-01-19 20:34:00,
2013-01-19 15:35:00,41.4,35.4,29.96,South,191,7.0,14.0,79,0.00,,---,0.00,VWS V14.01,2013-01-19 20:35:00,
2013-01-19 15:36:00,41.4,35.4,29.96,South,190,8.0,14.0,79,0.00,,---,0.00,VWS V14.01,2013-01-19 20:36:00,
2013-01-19 15:37:00,41.3,35.0,29.96,North,360,13.0,14.0,78,0.00,,---,0.00,VWS V14.01,2013-01-19 20:37:00,
2013-01-19 15:38:00,41.3,35.0,29.96,South,189,11.0,14.0,78,0.00,,---,0.00,VWS V14.01,2013-01-19 20:38:00,
2013-01-19 15:39:00,41.3,35.3,29.96,South,188,9.0,14.0,79,0.00,,---,0.00,VWS V14.01,2013-01-19 20:39:00,
2013-01-19 15:40:00,41.2,35.2,29.96,South,188,9.0,14.0,79,0.00,,---,0.00,VWS V14.01,2013-01-19 20:40:00,
2013-01-19 15:41:00,41.2,35.2,29.96,South,188,10.0,14.0,79,0.00,,---,0.00,VWS V14.01,2013-01-19 20:41:00,
2013-01-19 15:42:00,41.2,35.2,29.96,South,188,9.0,14.0,79,0.00,,---,0.00,VWS V14.01,2013-01-19 20:42:00,
2013-01-19 15:43:00,41.2,35.2,29.96,South,188,10.0,14.0,79,0.00,,---,0.00,VWS V14.01,2013-01-19 20:43:00,
2013-01-19 15:44:00,41.1,35.1,29.96,South,187,10.0,14.0,79,0.00,,---,0.00,VWS V14.01,2013-01-19 20:44:00,
2013-01-19 15:45:00,41.1,35.1,29.96,South,186,7.0,14.0,79,0.00,,---,0.00,VWS V14.01,2013-01-19 20:45:00,
2013-01-19 15:46:00,41.1,35.1,29.96,South,188,10.0,14.0,79,0.00,,---,0.00,VWS V14.01,2013-01-19 20:46:00,
2013-01-19 15:47:00,41.0,35.0,29.95,South,188,9.0,14.0,79,0.00,,---,0.00,VWS V14.01,2013-01-19 20:47:00,
2013-01-19 15:48:00,41.0,35.0,29.95,South,188,10.0,14.0,79,0.00,,---,0.00,VWS V14.01,2013-01-19 20:48:00,
2013-01-19 15:49:00,41.0,35.0,29.95,South,187,11.0,14.0,79,0.00,,---,0.00,VWS V14.01,2013-01-19 20:49:00,
2013-01-19 15:50:00,41.0,35.0,29.95,South,188,11.0,14.0,79,0.00,,---,0.00,VWS V14.01,2013-01-19 20:50:00,
2013-01-19 15:51:00,41.0,35.0,29.95,South,189,7.0,14.0,79,0.00,,---,0.00,VWS V14.01,2013-01-19 20:51:00,
2013-01-19 15:52:00,41.0,35.0,29.95,South,188,8.0,14.0,79,0.00,,---,0.00,VWS V14.01,2013-01-19 20:52:00,
2013-01-19 15:53:00,41.0,35.3,29.95,South,189,10.0,14.0,80,0.00,,---,0.00,VWS V14.01,2013-01-19 20:53:00,
2013-01-19 15:54:00,40.9,35.2,29.95,South,189,12.0,14.0,80,0.00,,---,0.00,VWS V14.01,2013-01-19 20:54:00,
2013-01-19 15:55:00,40.9,35.2,29.95,South,190,9.0,14.0,80,0.00,,---,0.00,VWS V14.01,2013-01-19 20:55:00,
2013-01-19 15:56:00,40.9,35.2,29.95,South,189,13.0,14.0,80,0.00,,---,0.00,VWS V14.01,2013-01-19 20:56:00,
2013-01-19 15:57:00,40.9,35.2,29.95,South,186,15.0,15.0,80,0.00,,---,0.00,VWS V14.01,2013-01-19 20:57:00,
2013-01-19 15:58:00,40.9,34.9,29.95,South,190,12.0,15.0,79,0.00,,---,0.00,VWS V14.01,2013-01-19 20:58:00,
2013-01-19 15:59:00,40.9,35.2,29.95,South,189,13.0,15.0,80,0.00,,---,0.00,VWS V14.01,2013-01-19 20:59:00,
2013-01-19 16:00:00,40.9,35.2,29.95,South,189,16.0,16.0,80,0.00,,---,0.00,VWS V14.01,2013-01-19 21:00:00,
2013-01-19 16:01:00,40.9,34.9,29.95,South,188,13.0,16.0,79,0.00,,---,0.00,VWS V14.01,2013-01-19 21:01:00,
2013-01-19 16:02:00,41.0,35.0,29.95,South,185,11.0,16.0,79,0.00,,---,0.00,VWS V14.01,2013-01-19 21:02:00,
2013-01-19 16:03:00,41.0,35.3,29.95,South,187,11.0,16.0,80,0.00,,---,0.00,VWS V14.01,2013-01-19 21:03:00,
2013-01-19 16:04:00,41.0,35.0,29.95,South,185,13.0,16.0,79,0.00,,---,0.00,VWS V14.01,2013-01-19 21:04:00,
2013-01-19 16:05:00,41.0,35.0,29.95,South,184,11.0,16.0,79,0.00,,---,0.00,VWS V14.01,2013-01-19 21:05:00,
2013-01-19 16:06:00,41.0,35.0,29.95,South,185,14.0,16.0,79,0.00,,---,0.00,VWS V14.01,2013-01-19 21:06:00,
2013-01-19 16:07:00,41.0,35.0,29.94,South,184,14.0,16.0,79,0.00,,---,0.00,VWS V14.01,2013-01-19 21:07:00,
2013-01-19 16:08:00,41.0,35.0,29.95,South,189,14.0,18.0,79,0.00,,---,0.00,VWS V14.01,2013-01-19 21:08:00,
2013-01-19 16:09:00,41.0,35.0,29.94,South,186,17.0,18.0,79,0.00,,---,0.00,VWS V14.01,2013-01-19 21:09:00,
2013-01-19 16:10:00,41.0,35.0,29.94,South,186,17.0,18.0,79,0.00,,---,0.00,VWS V14.01,2013-01-19 21:10:00,
2013-01-19 16:11:00,41.0,35.0,29.94,South,190,12.0,18.0,79,0.00,,---,0.00,VWS V14.01,2013-01-19 21:11:00,
2013-01-19 16:12:00,41.0,35.0,29.94,South,187,16.0,18.0,79,0.00,,---,0.00,VWS V14.01,2013-01-19 21:12:00,
2013-01-19 16:13:00,41.0,35.0,29.94,South,187,14.0,18.0,79,0.00,,---,0.00,VWS V14.01,2013-01-19 21:13:00,
2013-01-19 16:14:00,41.0,35.0,29.94,South,189,12.0,18.0,79,0.00,,---,0.00,VWS V14.01,2013-01-19 21:14:00,
2013-01-19 16:15:00,41.0,35.0,29.94,South,186,14.0,18.0,79,0.00,,---,0.00,VWS V14.01,2013-01-19 21:15:00,
2013-01-19 16:16:00,41.0,35.0,29.94,South,186,15.0,18.0,79,0.00,,---,0.00,VWS V14.01,2013-01-19 21:16:00,
2013-01-19 16:17:00,40.9,34.9,29.94,South,189,13.0,18.0,79,0.00,,---,0.00,VWS V14.01,2013-01-19 21:17:00,
2013-01-19 16:18:00,41.0,35.0,29.94,South,190,14.0,18.0,79,0.00,,---,0.00,VWS V14.01,2013-01-19 21:18:00,
2013-01-19 16:19:00,41.0,35.0,29.94,South,188,16.0,18.0,79,0.00,,---,0.00,VWS V14.01,2013-01-19 21:19:00,
2013-01-19 16:20:00,41.0,35.0,29.94,South,191,16.0,18.0,79,0.00,,---,0.00,VWS V14.01,2013-01-19 21:20:00,
2013-01-19 16:21:00,41.0,35.3,29.94,South,190,11.0,18.0,80,0.00,,---,0.00,VWS V14.01,2013-01-19 21:21:00,
2013-01-19 16:22:00,41.0,35.3,29.94,South,186,14.0,18.0,80,0.00,,---,0.00,VWS V14.01,2013-01-19 21:22:00,
2013-01-19 16:23:00,40.9,35.2,29.94,South,191,17.0,18.0,80,0.00,,---,0.00,VWS V14.01,2013-01-19 21:23:00,
2013-01-19 16:24:00,41.0,35.3,29.93,South,185,11.0,18.0,80,0.00,,---,0.00,VWS V14.01,2013-01-19 21:24:00,
2013-01-19 16:25:00,40.9,35.2,29.93,South,190,16.0,18.0,80,0.00,,---,0.00,VWS V14.01,2013-01-19 21:25:00,
2013-01-19 16:26:00,41.0,35.3,29.93,South,188,13.0,18.0,80,0.00,,---,0.00,VWS V14.01,2013-01-19 21:26:00,
2013-01-19 16:27:00,41.0,35.3,29.93,South,190,11.0,18.0,80,0.00,,---,0.00,VWS V14.01,2013-01-19 21:27:00,
2013-01-19 16:28:00,41.0,35.3,29.93,South,190,14.0,18.0,80,0.00,,---,0.00,VWS V14.01,2013-01-19 21:28:00,
2013-01-19 16:29:00,40.9,35.2,29.93,South,190,13.0,18.0,80,0.00,,---,0.00,VWS V14.01,2013-01-19 21:29:00,
2013-01-19 16:30:00,41.0,35.3,29.93,South,190,13.0,13.0,80,0.00,,---,0.00,VWS V14.01,2013-01-19 21:30:00,
2013-01-19 16:31:00,41.0,35.3,29.93,South,190,12.0,16.0,80,0.00,,---,0.00,VWS V14.01,2013-01-19 21:31:00,
2013-01-19 16:32:00,41.0,35.3,29.93,South,191,14.0,16.0,80,0.00,,---,0.00,VWS V14.01,2013-01-19 21:32:00,
2013-01-19 16:33:00,41.0,35.3,29.93,South,189,12.0,16.0,80,0.00,,---,0.00,VWS V14.01,2013-01-19 21:33:00,
2013-01-19 16:34:00,40.9,35.2,29.93,South,185,15.0,17.0,80,0.00,,---,0.00,VWS V14.01,2013-01-19 21:34:00,
2013-01-19 16:35:00,41.0,35.3,29.93,SSW,193,13.0,18.0,80,0.00,,---,0.00,VWS V14.01,2013-01-19 21:35:00,
2013-01-19 16:36:00,41.0,35.3,29.93,SSW,192,12.0,18.0,80,0.00,,---,0.00,VWS V14.01,2013-01-19 21:36:00,
2013-01-19 16:37:00,41.0,35.3,29.93,South,191,11.0,18.0,80,0.00,,---,0.00,VWS V14.01,2013-01-19 21:37:00,
2013-01-19 16:38:00,41.0,35.3,29.93,South,190,15.0,18.0,80,0.00,,---,0.00,VWS V14.01,2013-01-19 21:38:00,
2013-01-19 16:39:00,41.0,35.3,29.93,SSW,192,13.0,18.0,80,0.00,,---,0.00,VWS V14.01,2013-01-19 21:39:00,
2013-01-19 16:40:00,41.0,35.3,29.93,SSW,193,8.0,18.0,80,0.00,,---,0.00,VWS V14.01,2013-01-19 21:40:00,
2013-01-19 16:41:00,41.0,35.3,29.93,South,188,13.0,18.0,80,0.00,,---,0.00,VWS V14.01,2013-01-19 21:41:00,
2013-01-19 16:42:00,41.0,35.3,29.93,South,189,10.0,18.0,80,0.00,,---,0.00,VWS V14.01,2013-01-19 21:42:00,
2013-01-19 16:43:00,41.0,35.3,29.93,SSW,192,13.0,18.0,80,0.00,,---,0.00,VWS V14.01,2013-01-19 21:43:00,
2013-01-19 16:44:00,41.0,35.6,29.93,South,188,13.0,18.0,81,0.00,,---,0.00,VWS V14.01,2013-01-19 21:44:00,
2013-01-19 16:45:00,41.0,35.6,29.92,South,188,14.0,18.0,81,0.00,,---,0.00,VWS V14.01,2013-01-19 21:45:00,
2013-01-19 16:46:00,41.0,35.3,29.92,South,190,12.0,18.0,80,0.00,,---,0.00,VWS V14.01,2013-01-19 21:46:00,
2013-01-19 16:47:00,41.0,35.3,29.92,SSW,193,12.0,18.0,80,0.00,,---,0.00,VWS V14.01,2013-01-19 21:47:00,
2013-01-19 16:48:00,41.1,35.7,29.93,SSW,192,12.0,18.0,81,0.00,,---,0.00,VWS V14.01,2013-01-19 21:48:00,
2013-01-19 16:49:00,41.1,35.7,29.92,SSW,192,12.0,18.0,81,0.00,,---,0.00,VWS V14.01,2013-01-19 21:49:00,
2013-01-19 16:50:00,41.1,35.7,29.92,South,191,11.0,18.0,81,0.00,,---,0.00,VWS V14.01,2013-01-19 21:50:00,
2013-01-19 16:51:00,41.1,35.4,29.92,SSW,193,12.0,18.0,80,0.00,,---,0.00,VWS V14.01,2013-01-19 21:51:00,
2013-01-19 16:52:00,41.2,35.5,29.92,SSW,192,13.0,18.0,80,0.00,,---,0.00,VWS V14.01,2013-01-19 21:52:00,
2013-01-19 16:53:00,41.2,35.8,29.92,SSW,193,12.0,18.0,81,0.00,,---,0.00,VWS V14.01,2013-01-19 21:53:00,
2013-01-19 16:54:00,41.3,35.9,29.92,South,190,13.0,18.0,81,0.00,,---,0.00,VWS V14.01,2013-01-19 21:54:00,
2013-01-19 16:55:00,41.3,35.6,29.92,SSW,194,10.0,18.0,80,0.00,,---,0.00,VWS V14.01,2013-01-19 21:55:00,
2013-01-19 16:56:00,41.3,35.6,29.92,SSW,192,11.0,18.0,80,0.00,,---,0.00,VWS V14.01,2013-01-19 21:56:00,
2013-01-19 16:57:00,41.4,35.7,29.92,SSW,194,11.0,18.0,80,0.00,,---,0.00,VWS V14.01,2013-01-19 21:57:00,
2013-01-19 16:58:00,41.4,35.7,29.92,SSW,192,10.0,18.0,80,0.00,,---,0.00,VWS V14.01,2013-01-19 21:58:00,
2013-01-19 16:59:00,41.5,35.8,29.92,SSW,192,12.0,18.0,80,0.00,,---,0.00,VWS V14.01,2013-01-19 21:59:00,
2013-01-19 17:00:00,41.5,35.8,29.92,SSW,194,10.0,18.0,80,0.00,,---,0.00,VWS V14.01,2013-01-19 22:00:00,
2013-01-19 17:01:00,41.5,35.8,29.92,SSW,194,14.0,15.0,80,0.00,,---,0.00,VWS V14.01,2013-01-19 22:01:00,
2013-01-19 17:02:00,41.6,35.9,29.92,SSW,196,11.0,15.0,80,0.00,,---,0.00,VWS V14.01,2013-01-19 22:02:00,
2013-01-19 17:03:00,41.6,35.9,29.91,SSW,194,12.0,15.0,80,0.00,,---,0.00,VWS V14.01,2013-01-19 22:03:00,
2013-01-19 17:04:00,41.6,35.9,29.91,SSW,195,13.0,18.0,80,0.00,,---,0.00,VWS V14.01,2013-01-19 22:04:00,
2013-01-19 17:05:00,41.7,35.7,29.91,South,190,14.0,18.0,79,0.00,,---,0.00,VWS V14.01,2013-01-19 22:05:00,
2013-01-19 17:06:00,41.8,35.8,29.91,SSW,194,14.0,18.0,79,0.00,,---,0.00,VWS V14.01,2013-01-19 22:06:00,
2013-01-19 17:07:00,41.8,35.8,29.91,SSW,194,10.0,18.0,79,0.00,,---,0.00,VWS V14.01,2013-01-19 22:07:00,
2013-01-19 17:08:00,41.9,35.9,29.91,SSW,192,16.0,18.0,79,0.00,,---,0.00,VWS V14.01,2013-01-19 22:08:00,
2013-01-19 17:09:00,41.9,35.9,29.91,SSW,194,16.0,20.0,79,0.00,,---,0.00,VWS V14.01,2013-01-19 22:09:00,
2013-01-19 17:10:00,41.9,35.9,29.91,SSW,192,15.0,20.0,79,0.00,,---,0.00,VWS V14.01,2013-01-19 22:10:00,
2013-01-19 17:11:00,42.0,36.0,29.91,SSW,195,16.0,20.0,79,0.00,,---,0.00,VWS V14.01,2013-01-19 22:11:00,
2013-01-19 17:12:00,42.0,35.7,29.91,South,191,13.0,20.0,78,0.00,,---,0.00,VWS V14.01,2013-01-19 22:12:00,
2013-01-19 17:13:00,42.1,36.1,29.91,South,188,16.0,20.0,79,0.00,,---,0.00,VWS V14.01,2013-01-19 22:13:00,
2013-01-19 17:14:00,42.1,35.8,29.91,SSW,194,14.0,20.0,78,0.00,,---,0.00,VWS V14.01,2013-01-19 22:14:00,
2013-01-19 17:15:00,42.1,36.1,29.91,SSW,192,13.0,20.0,79,0.00,,---,0.00,VWS V14.01,2013-01-19 22:15:00,
2013-01-19 17:16:00,42.2,36.2,29.90,South,191,13.0,20.0,79,0.00,,---,0.00,VWS V14.01,2013-01-19 22:16:00,
2013-01-19 17:17:00,42.1,35.8,29.91,SSW,197,13.0,20.0,78,0.00,,---,0.00,VWS V14.01,2013-01-19 22:17:00,
2013-01-19 17:18:00,42.1,36.1,29.90,SSW,193,14.0,20.0,79,0.00,,---,0.00,VWS V14.01,2013-01-19 22:18:00,
2013-01-19 17:19:00,42.1,36.1,29.90,South,187,12.0,20.0,79,0.00,,---,0.00,VWS V14.01,2013-01-19 22:19:00,
2013-01-19 17:20:00,42.2,36.2,29.90,South,185,13.0,20.0,79,0.00,,---,0.00,VWS V14.01,2013-01-19 22:20:00,
2013-01-19 17:21:00,42.2,36.2,29.90,South,185,13.0,20.0,79,0.00,,---,0.00,VWS V14.01,2013-01-19 22:21:00,
2013-01-19 17:22:00,42.2,36.2,29.90,South,186,13.0,20.0,79,0.00,,---,0.00,VWS V14.01,2013-01-19 22:22:00,
2013-01-19 17:23:00,42.2,35.8,29.90,South,187,14.0,20.0,78,0.00,,---,0.00,VWS V14.01,2013-01-19 22:23:00,
2013-01-19 17:24:00,42.2,35.8,29.90,South,187,15.0,20.0,78,0.00,,---,0.00,VWS V14.01,2013-01-19 22:24:00,
2013-01-19 17:25:00,42.2,35.8,29.90,South,191,13.0,20.0,78,0.00,,---,0.00,VWS V14.01,2013-01-19 22:25:00,
2013-01-19 17:26:00,42.2,35.8,29.90,South,189,17.0,20.0,78,0.00,,---,0.00,VWS V14.01,2013-01-19 22:26:00,
2013-01-19 17:27:00,42.3,35.9,29.90,SSW,192,14.0,20.0,78,0.00,,---,0.00,VWS V14.01,2013-01-19 22:27:00,
2013-01-19 17:28:00,42.3,35.9,29.90,South,188,16.0,20.0,78,0.00,,---,0.00,VWS V14.01,2013-01-19 22:28:00,
2013-01-19 17:29:00,42.3,35.9,29.90,South,186,17.0,20.0,78,0.00,,---,0.00,VWS V14.01,2013-01-19 22:29:00,
2013-01-19 17:30:00,42.3,35.9,29.90,SSW,192,12.0,20.0,78,0.00,,---,0.00,VWS V14.01,2013-01-19 22:30:00,
2013-01-19 17:31:00,42.3,35.9,29.90,South,186,17.0,17.0,78,0.00,,---,0.00,VWS V14.01,2013-01-19 22:31:00,
2013-01-19 17:32:00,42.3,35.9,29.90,South,187,15.0,17.0,78,0.00,,---,0.00,VWS V14.01,2013-01-19 22:32:00,
2013-01-19 17:33:00,42.3,35.9,29.90,South,186,13.0,17.0,78,0.00,,---,0.00,VWS V14.01,2013-01-19 22:33:00,
2013-01-19 17:34:00,42.4,36.0,29.90,South,185,16.0,17.0,78,0.00,,---,0.00,VWS V14.01,2013-01-19 22:34:00,
2013-01-19 17:35:00,42.3,35.9,29.90,South,190,14.0,18.0,78,0.00,,---,0.00,VWS V14.01,2013-01-19 22:35:00,
2013-01-19 17:36:00,42.3,35.9,29.90,SSW,194,12.0,18.0,78,0.00,,---,0.00,VWS V14.01,2013-01-19 22:36:00,
2013-01-19 17:37:00,42.3,35.9,29.90,South,191,17.0,18.0,78,0.00,,---,0.00,VWS V14.01,2013-01-19 22:37:00,
2013-01-19 17:38:00,42.3,35.9,29.90,South,186,14.0,18.0,78,0.00,,---,0.00,VWS V14.01,2013-01-19 22:38:00,
2013-01-19 17:39:00,42.3,35.9,29.90,South,188,17.0,18.0,78,0.00,,---,0.00,VWS V14.01,2013-01-19 22:39:00,
2013-01-19 17:40:00,42.2,35.8,29.90,SSW,192,11.0,18.0,78,0.00,,---,0.00,VWS V14.01,2013-01-19 22:40:00,
2013-01-19 17:41:00,42.3,36.3,29.90,South,191,11.0,18.0,79,0.00,,---,0.00,VWS V14.01,2013-01-19 22:41:00,
2013-01-19 17:42:00,42.2,36.2,29.90,SSW,192,12.0,18.0,79,0.00,,---,0.00,VWS V14.01,2013-01-19 22:42:00,
2013-01-19 17:43:00,42.2,36.2,29.90,South,190,14.0,18.0,79,0.00,,---,0.00,VWS V14.01,2013-01-19 22:43:00,
2013-01-19 17:44:00,42.2,36.2,29.90,SSW,193,11.0,18.0,79,0.00,,---,0.00,VWS V14.01,2013-01-19 22:44:00,
2013-01-19 17:45:00,42.2,36.2,29.89,SSW,193,12.0,18.0,79,0.00,,---,0.00,VWS V14.01,2013-01-19 22:45:00,
2013-01-19 17:46:00,42.2,36.2,29.89,SSW,194,15.0,18.0,79,0.00,,---,0.00,VWS V14.01,2013-01-19 22:46:00,
2013-01-19 17:47:00,42.2,36.2,29.89,SSW,193,11.0,18.0,79,0.00,,---,0.00,VWS V14.01,2013-01-19 22:47:00,
2013-01-19 17:48:00,42.2,36.2,29.89,SSW,194,14.0,18.0,79,0.00,,---,0.00,VWS V14.01,2013-01-19 22:48:00,
2013-01-19 17:49:00,42.2,36.2,29.89,SSW,192,15.0,18.0,79,0.00,,---,0.00,VWS V14.01,2013-01-19 22:49:00,
2013-01-19 17:50:00,42.2,36.2,29.89,South,188,15.0,18.0,79,0.00,,---,0.00,VWS V14.01,2013-01-19 22:50:00,
2013-01-19 17:51:00,42.2,36.2,29.89,SSW,195,12.0,18.0,79,0.00,,---,0.00,VWS V14.01,2013-01-19 22:51:00,
2013-01-19 17:52:00,42.2,36.2,29.89,South,190,17.0,18.0,79,0.00,,---,0.00,VWS V14.01,2013-01-19 22:52:00,
2013-01-19 17:53:00,42.2,35.8,29.89,SSW,192,14.0,18.0,78,0.00,,---,0.00,VWS V14.01,2013-01-19 22:53:00,
2013-01-19 17:54:00,42.2,35.8,29.89,SSW,192,13.0,18.0,78,0.00,,---,0.00,VWS V14.01,2013-01-19 22:54:00,
2013-01-19 17:55:00,42.3,35.9,29.89,South,190,14.0,18.0,78,0.00,,---,0.00,VWS V14.01,2013-01-19 22:55:00,
2013-01-19 17:56:00,42.3,35.9,29.89,SSW,192,14.0,18.0,78,0.00,,---,0.00,VWS V14.01,2013-01-19 22:56:00,
2013-01-19 17:57:00,42.3,36.3,29.88,SSW,192,15.0,18.0,79,0.00,,---,0.00,VWS V14.01,2013-01-19 22:57:00,
2013-01-19 17:58:00,42.3,35.9,29.88,SSW,192,14.0,18.0,78,0.00,,---,0.00,VWS V14.01,2013-01-19 22:58:00,
2013-01-19 17:59:00,42.3,35.9,29.88,SSW,196,17.0,18.0,78,0.00,,---,0.00,VWS V14.01,2013-01-19 22:59:00,
2013-01-19 18:00:00,42.3,35.9,29.88,South,185,17.0,18.0,78,0.00,,---,0.00,VWS V14.01,2013-01-19 23:00:00,
2013-01-19 18:01:00,42.3,35.9,29.88,South,182,12.0,18.0,78,0.00,,---,0.00,VWS V14.01,2013-01-19 23:01:00,
2013-01-19 18:02:00,42.3,35.9,29.88,South,187,18.0,18.0,78,0.00,,---,0.00,VWS V14.01,2013-01-19 23:02:00,
2013-01-19 18:03:00,42.3,35.9,29.88,SSW,193,12.0,18.0,78,0.00,,---,0.00,VWS V14.01,2013-01-19 23:03:00,
2013-01-19 18:04:00,42.4,36.0,29.88,SSW,193,11.0,18.0,78,0.00,,---,0.00,VWS V14.01,2013-01-19 23:04:00,
2013-01-19 18:05:00,42.4,36.0,29.88,SSW,194,10.0,18.0,78,0.00,,---,0.00,VWS V14.01,2013-01-19 23:05:00,
2013-01-19 18:06:00,42.4,36.0,29.88,SSW,194,13.0,18.0,78,0.00,,---,0.00,VWS V14.01,2013-01-19 23:06:00,
2013-01-19 18:07:00,42.4,36.0,29.88,SSW,195,14.0,18.0,78,0.00,,---,0.00,VWS V14.01,2013-01-19 23:07:00,
2013-01-19 18:08:00,42.4,36.0,29.88,SSW,197,10.0,18.0,78,0.00,,---,0.00,VWS V14.01,2013-01-19 23:08:00,
2013-01-19 18:09:00,42.3,35.9,29.88,SSW,196,14.0,18.0,78,0.00,,---,0.00,VWS V14.01,2013-01-19 23:09:00,
2013-01-19 18:10:00,42.4,36.0,29.87,South,190,15.0,18.0,78,0.00,,---,0.00,VWS V14.01,2013-01-19 23:10:00,
2013-01-19 18:11:00,42.4,36.0,29.87,SSW,195,13.0,18.0,78,0.00,,---,0.00,VWS V14.01,2013-01-19 23:11:00,
2013-01-19 18:12:00,42.4,36.0,29.87,SSW,194,13.0,18.0,78,0.00,,---,0.00,VWS V14.01,2013-01-19 23:12:00,
2013-01-19 18:13:00,42.4,36.0,29.87,SSW,196,13.0,18.0,78,0.00,,---,0.00,VWS V14.01,2013-01-19 23:13:00,
2013-01-19 18:14:00,42.4,36.0,29.87,SSW,197,12.0,18.0,78,0.00,,---,0.00,VWS V14.01,2013-01-19 23:14:00,
2013-01-19 18:15:00,42.4,36.4,29.87,SSW,193,12.0,18.0,79,0.00,,---,0.00,VWS V14.01,2013-01-19 23:15:00,
2013-01-19 18:16:00,42.4,36.0,29.87,SSW,192,14.0,18.0,78,0.00,,---,0.00,VWS V14.01,2013-01-19 23:16:00,
2013-01-19 18:17:00,42.3,35.9,29.87,SSW,193,10.0,18.0,78,0.00,,---,0.00,VWS V14.01,2013-01-19 23:17:00,
2013-01-19 18:18:00,42.4,36.0,29.87,SSW,192,11.0,18.0,78,0.00,,---,0.00,VWS V14.01,2013-01-19 23:18:00,
2013-01-19 18:19:00,42.4,36.0,29.87,South,190,18.0,18.0,78,0.00,,---,0.00,VWS V14.01,2013-01-19 23:19:00,
2013-01-19 18:20:00,42.4,36.0,29.87,SSW,196,11.0,18.0,78,0.00,,---,0.00,VWS V14.01,2013-01-19 23:20:00,
2013-01-19 18:21:00,42.4,36.0,29.87,SSW,194,13.0,18.0,78,0.00,,---,0.00,VWS V14.01,2013-01-19 23:21:00,
2013-01-19 18:22:00,42.4,36.0,29.87,SSW,192,15.0,18.0,78,0.00,,---,0.00,VWS V14.01,2013-01-19 23:22:00,
2013-01-19 18:23:00,42.5,36.1,29.87,SSW,192,14.0,18.0,78,0.00,,---,0.00,VWS V14.01,2013-01-19 23:23:00,
2013-01-19 18:24:00,42.5,36.1,29.87,SSW,194,16.0,18.0,78,0.00,,---,0.00,VWS V14.01,2013-01-19 23:24:00,
2013-01-19 18:25:00,42.5,36.1,29.87,SSW,197,13.0,18.0,78,0.00,,---,0.00,VWS V14.01,2013-01-19 23:25:00,
2013-01-19 18:26:00,42.5,36.1,29.86,South,188,12.0,18.0,78,0.00,,---,0.00,VWS V14.01,2013-01-19 23:26:00,
2013-01-19 18:27:00,42.5,36.1,29.86,SSW,192,13.0,18.0,78,0.00,,---,0.00,VWS V14.01,2013-01-19 23:27:00,
2013-01-19 18:28:00,42.6,36.2,29.86,SSW,193,13.0,18.0,78,0.00,,---,0.00,VWS V14.01,2013-01-19 23:28:00,
2013-01-19 18:29:00,42.5,36.1,29.86,SSW,192,15.0,18.0,78,0.00,,---,0.00,VWS V14.01,2013-01-19 23:29:00,
2013-01-19 18:30:00,42.6,36.2,29.86,SSW,202,13.0,18.0,78,0.00,,---,0.00,VWS V14.01,2013-01-19 23:30:00,
2013-01-19 18:31:00,42.6,36.2,29.86,SSW,199,13.0,18.0,78,0.00,,---,0.00,VWS V14.01,2013-01-19 23:31:00,
2013-01-19 18:32:00,42.6,35.9,29.86,SSW,196,13.0,18.0,77,0.00,,---,0.00,VWS V14.01,2013-01-19 23:32:00,
2013-01-19 18:33:00,42.7,36.3,29.86,SSW,192,15.0,18.0,78,0.00,,---,0.00,VWS V14.01,2013-01-19 23:33:00,
2013-01-19 18:34:00,42.7,36.0,29.86,SSW,196,16.0,18.0,77,0.00,,---,0.00,VWS V14.01,2013-01-19 23:34:00,
2013-01-19 18:35:00,42.7,36.0,29.86,SSW,196,15.0,19.0,77,0.00,,---,0.00,VWS V14.01,2013-01-19 23:35:00,
2013-01-19 18:36:00,42.7,36.0,29.86,SSW,196,10.0,19.0,77,0.00,,---,0.00,VWS V14.01,2013-01-19 23:36:00,
2013-01-19 18:37:00,42.7,36.0,29.86,SSW,195,16.0,19.0,77,0.00,,---,0.00,VWS V14.01,2013-01-19 23:37:00,
2013-01-19 18:38:00,42.7,36.0,29.86,SSW,196,11.0,19.0,77,0.00,,---,0.00,VWS V14.01,2013-01-19 23:38:00,
2013-01-19 18:39:00,42.7,36.0,29.86,SSW,198,12.0,19.0,77,0.00,,---,0.00,VWS V14.01,2013-01-19 23:39:00,
2013-01-19 18:40:00,42.7,36.0,29.86,SSW,198,13.0,19.0,77,0.00,,---,0.00,VWS V14.01,2013-01-19 23:40:00,
2013-01-19 18:41:00,42.7,36.3,29.86,SSW,193,16.0,19.0,78,0.00,,---,0.00,VWS V14.01,2013-01-19 23:41:00,
2013-01-19 18:42:00,42.7,36.3,29.86,SSW,192,13.0,19.0,78,0.00,,---,0.00,VWS V14.01,2013-01-19 23:42:00,
2013-01-19 18:43:00,42.7,36.3,29.86,SSW,196,12.0,19.0,78,0.00,,---,0.00,VWS V14.01,2013-01-19 23:43:00,
2013-01-19 18:44:00,42.8,36.1,29.85,SSW,199,15.0,19.0,77,0.00,,---,0.00,VWS V14.01,2013-01-19 23:44:00,
2013-01-19 18:45:00,42.8,36.1,29.85,SSW,196,12.0,19.0,77,0.00,,---,0.00,VWS V14.01,2013-01-19 23:45:00,
2013-01-19 18:46:00,42.8,36.1,29.85,SSW,192,15.0,19.0,77,0.00,,---,0.00,VWS V14.01,2013-01-19 23:46:00,
2013-01-19 18:47:00,42.9,35.9,29.85,SSW,198,13.0,19.0,76,0.00,,---,0.00,VWS V14.01,2013-01-19 23:47:00,
2013-01-19 18:48:00,42.9,35.9,29.85,SSW,194,15.0,19.0,76,0.00,,---,0.00,VWS V14.01,2013-01-19 23:48:00,
2013-01-19 18:49:00,42.9,35.9,29.85,SSW,194,11.0,19.0,76,0.00,,---,0.00,VWS V14.01,2013-01-19 23:49:00,
2013-01-19 18:50:00,42.9,35.9,29.85,SSW,196,15.0,19.0,76,0.00,,---,0.00,VWS V14.01,2013-01-19 23:50:00,
2013-01-19 18:51:00,42.9,35.9,29.85,SSW,196,15.0,19.0,76,0.00,,---,0.00,VWS V14.01,2013-01-19 23:51:00,
2013-01-19 18:52:00,42.9,35.9,29.85,SSW,194,11.0,20.0,76,0.00,,---,0.00,VWS V14.01,2013-01-19 23:52:00,
2013-01-19 18:53:00,43.0,36.0,29.85,SSW,196,12.0,20.0,76,0.00,,---,0.00,VWS V14.01,2013-01-19 23:53:00,
2013-01-19 18:54:00,43.0,36.0,29.85,SSW,200,13.0,20.0,76,0.00,,---,0.00,VWS V14.01,2013-01-19 23:54:00,
2013-01-19 18:55:00,43.0,36.3,29.85,SSW,196,13.0,20.0,77,0.00,,---,0.00,VWS V14.01,2013-01-19 23:55:00,
2013-01-19 18:56:00,42.9,36.2,29.85,SSW,198,14.0,20.0,77,0.00,,---,0.00,VWS V14.01,2013-01-19 23:56:00,
2013-01-19 18:57:00,42.9,36.2,29.85,SSW,198,13.0,20.0,77,0.00,,---,0.00,VWS V14.01,2013-01-19 23:57:00,
2013-01-19 18:58:00,42.9,35.9,29.85,SSW,198,12.0,20.0,76,0.00,,---,0.00,VWS V14.01,2013-01-19 23:58:00,
2013-01-19 18:59:00,42.9,35.9,29.85,SSW,201,14.0,20.0,76,0.00,,---,0.00,VWS V14.01,2013-01-19 23:59:00,
2013-01-19 19:00:00,42.9,35.9,29.85,SSW,196,18.0,20.0,76,0.00,,---,0.00,VWS V14.01,2013-01-20 00:00:00,
2013-01-19 19:01:00,43.0,35.6,29.85,SSW,200,10.0,19.0,75,0.00,,---,0.00,VWS V14.01,2013-01-20 00:01:00,
2013-01-19 19:02:00,43.1,35.7,29.85,SSW,197,12.0,19.0,75,0.00,,---,0.00,VWS V14.01,2013-01-20 00:02:00,
2013-01-19 19:03:00,43.1,35.7,29.85,SSW,198,14.0,19.0,75,0.00,,---,0.00,VWS V14.01,2013-01-20 00:03:00,
2013-01-19 19:04:00,43.1,35.7,29.85,SSW,198,15.0,19.0,75,0.00,,---,0.00,VWS V14.01,2013-01-20 00:04:00,
2013-01-19 19:05:00,43.0,35.6,29.85,SSW,194,13.0,19.0,75,0.00,,---,0.00,VWS V14.01,2013-01-20 00:05:00,
2013-01-19 19:06:00,43.0,35.6,29.85,SSW,196,11.0,19.0,75,0.00,,---,0.00,VWS V14.01,2013-01-20 00:06:00,
2013-01-19 19:07:00,43.0,35.6,29.85,SSW,196,12.0,19.0,75,0.00,,---,0.00,VWS V14.01,2013-01-20 00:07:00,
2013-01-19 19:08:00,43.1,35.7,29.85,SSW,192,14.0,19.0,75,0.00,,---,0.00,VWS V14.01,2013-01-20 00:08:00,
2013-01-19 19:09:00,43.0,36.0,29.85,SSW,196,12.0,19.0,76,0.00,,---,0.00,VWS V14.01,2013-01-20 00:09:00,
2013-01-19 19:10:00,43.0,35.6,29.85,SSW,198,11.0,19.0,75,0.00,,---,0.00,VWS V14.01,2013-01-20 00:10:00,
2013-01-19 19:11:00,43.0,36.0,29.85,SSW,196,14.0,19.0,76,0.00,,---,0.00,VWS V14.01,2013-01-20 00:11:00,
2013-01-19 19:12:00,43.0,35.6,29.85,SSW,196,11.0,19.0,75,0.00,,---,0.00,VWS V14.01,2013-01-20 00:12:00,
2013-01-19 19:13:00,43.0,36.0,29.85,SSW,194,16.0,19.0,76,0.00,,---,0.00,VWS V14.01,2013-01-20 00:13:00,
2013-01-19 19:14:00,43.0,36.0,29.85,SSW,197,11.0,19.0,76,0.00,,---,0.00,VWS V14.01,2013-01-20 00:14:00,
2013-01-19 19:15:00,43.0,36.0,29.84,SSW,192,12.0,19.0,76,0.00,,---,0.00,VWS V14.01,2013-01-20 00:15:00,
2013-01-19 19:16:00,43.0,36.0,29.84,SSW,192,16.0,19.0,76,0.00,,---,0.00,VWS V14.01,2013-01-20 00:16:00,
2013-01-19 19:17:00,42.9,35.9,29.84,SSW,194,13.0,19.0,76,0.00,,---,0.00,VWS V14.01,2013-01-20 00:17:00,
2013-01-19 19:18:00,43.0,36.0,29.84,SSW,194,15.0,19.0,76,0.00,,---,0.00,VWS V14.01,2013-01-20 00:18:00,
2013-01-19 19:19:00,43.0,36.0,29.84,South,191,13.0,19.0,76,0.00,,---,0.00,VWS V14.01,2013-01-20 00:19:00,
2013-01-19 19:20:00,43.0,36.0,29.84,South,189,14.0,19.0,76,0.00,,---,0.00,VWS V14.01,2013-01-20 00:20:00,
2013-01-19 19:21:00,43.1,36.1,29.84,South,190,18.0,19.0,76,0.00,,---,0.00,VWS V14.01,2013-01-20 00:21:00,
2013-01-19 19:22:00,43.1,36.1,29.84,South,189,19.0,19.0,76,0.00,,---,0.00,VWS V14.01,2013-01-20 00:22:00,
2013-01-19 19:23:00,43.1,36.1,29.84,SSW,192,15.0,19.0,76,0.00,,---,0.00,VWS V14.01,2013-01-20 00:23:00,
2013-01-19 19:24:00,43.1,36.1,29.84,SSW,195,16.0,19.0,76,0.00,,---,0.00,VWS V14.01,2013-01-20 00:24:00,
2013-01-19 19:25:00,43.1,36.1,29.84,SSW,194,16.0,19.0,76,0.00,,---,0.00,VWS V14.01,2013-01-20 00:25:00,
2013-01-19 19:26:00,43.1,36.4,29.84,SSW,196,18.0,19.0,77,0.00,,---,0.00,VWS V14.01,2013-01-20 00:26:00,
2013-01-19 19:27:00,43.1,36.1,29.84,SSW,192,15.0,20.0,76,0.00,,---,0.00,VWS V14.01,2013-01-20 00:27:00,
2013-01-19 19:28:00,43.1,36.1,29.84,SSW,195,14.0,20.0,76,0.00,,---,0.00,VWS V14.01,2013-01-20 00:28:00,
2013-01-19 19:29:00,43.1,36.4,29.84,SSW,194,16.0,20.0,77,0.00,,---,0.00,VWS V14.01,2013-01-20 00:29:00,
2013-01-19 19:30:00,43.2,36.5,29.84,South,191,15.0,20.0,77,0.00,,---,0.00,VWS V14.01,2013-01-20 00:30:00,
2013-01-19 19:31:00,43.2,36.2,29.84,SSW,195,16.0,17.0,76,0.00,,---,0.00,VWS V14.01,2013-01-20 00:31:00,
2013-01-19 19:32:00,43.2,36.2,29.84,SSW,196,14.0,18.0,76,0.00,,---,0.00,VWS V14.01,2013-01-20 00:32:00,
2013-01-19 19:33:00,43.2,35.8,29.84,SSW,196,16.0,20.0,75,0.00,,---,0.00,VWS V14.01,2013-01-20 00:33:00,
2013-01-19 19:34:00,43.3,35.9,29.84,SSW,195,13.0,20.0,75,0.00,,---,0.00,VWS V14.01,2013-01-20 00:34:00,
2013-01-19 19:35:00,43.3,36.3,29.84,SSW,195,13.0,20.0,76,0.00,,---,0.00,VWS V14.01,2013-01-20 00:35:00,
2013-01-19 19:36:00,43.3,36.3,29.84,SSW,196,14.0,20.0,76,0.00,,---,0.00,VWS V14.01,2013-01-20 00:36:00,
2013-01-19 19:37:00,43.3,36.3,29.84,SSW,195,14.0,20.0,76,0.00,,---,0.00,VWS V14.01,2013-01-20 00:37:00,
2013-01-19 19:38:00,43.3,36.3,29.84,SSW,194,13.0,20.0,76,0.00,,---,0.00,VWS V14.01,2013-01-20 00:38:00,
2013-01-19 19:39:00,43.2,36.2,29.84,SSW,196,12.0,20.0,76,0.00,,---,0.00,VWS V14.01,2013-01-20 00:39:00,
2013-01-19 19:40:00,43.2,36.2,29.84,South,191,15.0,20.0,76,0.00,,---,0.00,VWS V14.01,2013-01-20 00:40:00,
2013-01-19 19:41:00,43.2,36.2,29.84,SSW,192,14.0,20.0,76,0.00,,---,0.00,VWS V14.01,2013-01-20 00:41:00,
2013-01-19 19:42:00,43.2,36.5,29.84,SSW,192,13.0,20.0,77,0.00,,---,0.00,VWS V14.01,2013-01-20 00:42:00,
2013-01-19 19:43:00,43.2,36.5,29.84,South,191,13.0,20.0,77,0.00,,---,0.00,VWS V14.01,2013-01-20 00:43:00,
2013-01-19 19:44:00,43.2,36.2,29.84,SSW,195,12.0,20.0,76,0.00,,---,0.00,VWS V14.01,2013-01-20 00:44:00,
2013-01-19 19:45:00,43.2,36.2,29.84,SSW,192,16.0,20.0,76,0.00,,---,0.00,VWS V14.01,2013-01-20 00:45:00,
2013-01-19 19:46:00,43.2,36.2,29.83,SSW,192,12.0,20.0,76,0.00,,---,0.00,VWS V14.01,2013-01-20 00:46:00,
2013-01-19 19:47:00,43.2,36.2,29.83,South,187,17.0,20.0,76,0.00,,---,0.00,VWS V14.01,2013-01-20 00:47:00,
2013-01-19 19:48:00,43.2,35.8,29.83,South,188,17.0,20.0,75,0.00,,---,0.00,VWS V14.01,2013-01-20 00:48:00,
2013-01-19 19:49:00,43.3,35.9,29.83,South,191,13.0,20.0,75,0.00,,---,0.00,VWS V14.01,2013-01-20 00:49:00,
2013-01-19 19:50:00,43.3,36.3,29.83,South,190,12.0,20.0,76,0.00,,---,0.00,VWS V14.01,2013-01-20 00:50:00,
2013-01-19 19:51:00,43.3,36.3,29.83,South,190,13.0,20.0,76,0.00,,---,0.00,VWS V14.01,2013-01-20 00:51:00,
2013-01-19 19:52:00,43.3,36.3,29.83,SSW,195,15.0,20.0,76,0.00,,---,0.00,VWS V14.01,2013-01-20 00:52:00,
2013-01-19 19:53:00,43.2,36.2,29.84,SSW,196,15.0,20.0,76,0.00,,---,0.00,VWS V14.01,2013-01-20 00:53:00,
2013-01-19 19:54:00,43.2,35.8,29.84,South,191,11.0,20.0,75,0.00,,---,0.00,VWS V14.01,2013-01-20 00:54:00,
2013-01-19 19:55:00,43.2,36.2,29.84,SSW,192,11.0,20.0,76,0.00,,---,0.00,VWS V14.01,2013-01-20 00:55:00,
2013-01-19 19:56:00,43.2,36.2,29.84,SSW,192,13.0,20.0,76,0.00,,---,0.00,VWS V14.01,2013-01-20 00:56:00,
2013-01-19 19:57:00,43.2,36.2,29.84,SSW,193,14.0,20.0,76,0.00,,---,0.00,VWS V14.01,2013-01-20 00:57:00,
2013-01-19 19:58:00,43.2,35.8,29.83,South,189,12.0,20.0,75,0.00,,---,0.00,VWS V14.01,2013-01-20 00:58:00,
2013-01-19 19:59:00,43.2,36.2,29.83,SSW,192,13.0,20.0,76,0.00,,---,0.00,VWS V14.01,2013-01-20 00:59:00,
2013-01-19 20:00:00,43.2,36.2,29.83,South,191,12.0,20.0,76,0.00,,---,0.00,VWS V14.01,2013-01-20 01:00:00,
2013-01-19 20:01:00,43.2,35.8,29.83,South,185,14.0,17.0,75,0.00,,---,0.00,VWS V14.01,2013-01-20 01:01:00,
2013-01-19 20:02:00,43.2,35.8,29.83,South,190,16.0,18.0,75,0.00,,---,0.00,VWS V14.01,2013-01-20 01:02:00,
2013-01-19 20:03:00,43.2,35.8,29.83,South,184,13.0,18.0,75,0.00,,---,0.00,VWS V14.01,2013-01-20 01:03:00,
2013-01-19 20:04:00,43.2,35.8,29.83,South,191,17.0,18.0,75,0.00,,---,0.00,VWS V14.01,2013-01-20 01:04:00,
2013-01-19 20:05:00,43.2,35.8,29.83,South,190,17.0,18.0,75,0.00,,---,0.00,VWS V14.01,2013-01-20 01:05:00,
2013-01-19 20:06:00,43.2,35.8,29.83,South,188,17.0,18.0,75,0.00,,---,0.00,VWS V14.01,2013-01-20 01:06:00,
2013-01-19 20:07:00,43.2,35.8,29.82,South,186,14.0,18.0,75,0.00,,---,0.00,VWS V14.01,2013-01-20 01:07:00,
2013-01-19 20:08:00,43.3,35.9,29.82,South,186,14.0,18.0,75,0.00,,---,0.00,VWS V14.01,2013-01-20 01:08:00,
2013-01-19 20:09:00,43.2,35.8,29.82,South,185,16.0,18.0,75,0.00,,---,0.00,VWS V14.01,2013-01-20 01:09:00,
2013-01-19 20:10:00,43.3,35.9,29.82,SSW,194,14.0,18.0,75,0.00,,---,0.00,VWS V14.01,2013-01-20 01:10:00,
2013-01-19 20:11:00,43.3,35.6,29.82,South,180,14.0,18.0,74,0.00,,---,0.00,VWS V14.01,2013-01-20 01:11:00,
2013-01-19 20:12:00,43.3,35.6,29.82,South,188,13.0,21.0,74,0.00,,---,0.00,VWS V14.01,2013-01-20 01:12:00,
2013-01-19 20:13:00,43.4,35.7,29.82,South,190,14.0,21.0,74,0.00,,---,0.00,VWS V14.01,2013-01-20 01:13:00,
2013-01-19 20:14:00,43.4,36.0,29.82,South,187,13.0,21.0,75,0.00,,---,0.00,VWS V14.01,2013-01-20 01:14:00,
2013-01-19 20:15:00,43.4,36.0,29.82,South,188,12.0,21.0,75,0.00,,---,0.00,VWS V14.01,2013-01-20 01:15:00,
2013-01-19 20:16:00,43.3,35.9,29.82,South,186,14.0,21.0,75,0.00,,---,0.00,VWS V14.01,2013-01-20 01:16:00,
2013-01-19 20:17:00,43.3,36.3,29.82,South,180,11.0,21.0,76,0.00,,---,0.00,VWS V14.01,2013-01-20 01:17:00,
2013-01-19 20:18:00,43.2,35.8,29.82,South,189,13.0,21.0,75,0.00,,---,0.00,VWS V14.01,2013-01-20 01:18:00,
2013-01-19 20:19:00,43.2,35.8,29.82,South,190,13.0,21.0,75,0.00,,---,0.00,VWS V14.01,2013-01-20 01:19:00,
2013-01-19 20:20:00,43.2,36.2,29.82,South,188,14.0,21.0,76,0.00,,---,0.00,VWS V14.01,2013-01-20 01:20:00,
2013-01-19 20:21:00,43.2,36.2,29.82,South,190,15.0,21.0,76,0.00,,---,0.00,VWS V14.01,2013-01-20 01:21:00,
2013-01-19 20:22:00,43.2,36.2,29.82,SSW,192,12.0,21.0,76,0.00,,---,0.00,VWS V14.01,2013-01-20 01:22:00,
2013-01-19 20:23:00,43.2,36.2,29.82,SSW,192,14.0,21.0,76,0.00,,---,0.00,VWS V14.01,2013-01-20 01:23:00,
2013-01-19 20:24:00,43.2,36.2,29.82,SSW,192,14.0,21.0,76,0.00,,---,0.00,VWS V14.01,2013-01-20 01:24:00,
2013-01-19 20:25:00,43.2,36.2,29.82,SSW,192,13.0,21.0,76,0.00,,---,0.00,VWS V14.01,2013-01-20 01:25:00,
2013-01-19 20:26:00,43.1,36.1,29.82,SSW,193,13.0,21.0,76,0.00,,---,0.00,VWS V14.01,2013-01-20 01:26:00,
2013-01-19 20:27:00,43.1,36.1,29.81,SSW,192,13.0,21.0,76,0.00,,---,0.00,VWS V14.01,2013-01-20 01:27:00,
2013-01-19 20:28:00,43.1,36.1,29.81,SSW,192,13.0,21.0,76,0.00,,---,0.00,VWS V14.01,2013-01-20 01:28:00,
2013-01-19 20:29:00,43.1,36.1,29.81,South,190,15.0,21.0,76,0.00,,---,0.00,VWS V14.01,2013-01-20 01:29:00,
2013-01-19 20:30:00,43.1,36.1,29.81,South,188,14.0,21.0,76,0.00,,---,0.00,VWS V14.01,2013-01-20 01:30:00,
2013-01-19 20:31:00,43.1,36.1,29.81,South,190,15.0,18.0,76,0.00,,---,0.00,VWS V14.01,2013-01-20 01:31:00,
2013-01-19 20:32:00,43.1,36.1,29.81,SSW,193,12.0,18.0,76,0.00,,---,0.00,VWS V14.01,2013-01-20 01:32:00,
2013-01-19 20:33:00,43.1,36.1,29.81,SSW,192,11.0,18.0,76,0.00,,---,0.00,VWS V14.01,2013-01-20 01:33:00,
2013-01-19 20:34:00,43.1,36.1,29.81,South,191,13.0,18.0,76,0.00,,---,0.00,VWS V14.01,2013-01-20 01:34:00,
2013-01-19 20:35:00,43.1,36.1,29.81,South,189,14.0,18.0,76,0.00,,---,0.00,VWS V14.01,2013-01-20 01:35:00,
2013-01-19 20:36:00,43.1,36.1,29.81,South,190,13.0,18.0,76,0.00,,---,0.00,VWS V14.01,2013-01-20 01:36:00,
2013-01-19 20:37:00,43.1,36.1,29.81,SSW,192,10.0,18.0,76,0.00,,---,0.00,VWS V14.01,2013-01-20 01:37:00,
2013-01-19 20:38:00,43.1,36.1,29.81,SSW,193,16.0,18.0,76,0.00,,---,0.00,VWS V14.01,2013-01-20 01:38:00,
2013-01-19 20:39:00,43.1,36.1,29.81,SSW,194,11.0,18.0,76,0.00,,---,0.00,VWS V14.01,2013-01-20 01:39:00,
2013-01-19 20:40:00,43.1,36.1,29.81,SSW,192,13.0,18.0,76,0.00,,---,0.00,VWS V14.01,2013-01-20 01:40:00,
2013-01-19 20:41:00,43.1,36.1,29.81,SSW,200,13.0,18.0,76,0.00,,---,0.00,VWS V14.01,2013-01-20 01:41:00,
2013-01-19 20:42:00,43.1,36.1,29.81,SSW,195,11.0,18.0,76,0.00,,---,0.00,VWS V14.01,2013-01-20 01:42:00,
2013-01-19 20:43:00,43.1,36.1,29.81,SSW,195,12.0,18.0,76,0.00,,---,0.00,VWS V14.01,2013-01-20 01:43:00,
2013-01-19 20:44:00,43.1,36.1,29.81,SSW,196,13.0,18.0,76,0.00,,---,0.00,VWS V14.01,2013-01-20 01:44:00,
2013-01-19 20:45:00,43.1,36.1,29.80,SSW,195,12.0,18.0,76,0.00,,---,0.00,VWS V14.01,2013-01-20 01:45:00,
2013-01-19 20:46:00,43.1,36.4,29.80,SSW,194,14.0,18.0,77,0.00,,---,0.00,VWS V14.01,2013-01-20 01:46:00,
2013-01-19 20:47:00,43.1,36.1,29.80,SSW,196,10.0,18.0,76,0.00,,---,0.00,VWS V14.01,2013-01-20 01:47:00,
2013-01-19 20:48:00,43.1,36.1,29.80,SSW,194,12.0,18.0,76,0.00,,---,0.00,VWS V14.01,2013-01-20 01:48:00,
2013-01-19 20:49:00,43.1,36.4,29.80,SSW,198,11.0,18.0,77,0.00,,---,0.00,VWS V14.01,2013-01-20 01:49:00,
2013-01-19 20:50:00,43.1,36.4,29.80,SSW,197,12.0,18.0,77,0.00,,---,0.00,VWS V14.01,2013-01-20 01:50:00,
2013-01-19 20:51:00,43.1,36.4,29.80,SSW,198,11.0,18.0,77,0.00,,---,0.00,VWS V14.01,2013-01-20 01:51:00,
2013-01-19 20:52:00,43.1,36.4,29.80,SSW,197,10.0,18.0,77,0.00,,---,0.00,VWS V14.01,2013-01-20 01:52:00,
2013-01-19 20:53:00,43.0,36.3,29.80,SSW,193,12.0,18.0,77,0.00,,---,0.00,VWS V14.01,2013-01-20 01:53:00,
2013-01-19 20:54:00,43.1,36.1,29.80,SSW,196,12.0,18.0,76,0.00,,---,0.00,VWS V14.01,2013-01-20 01:54:00,
2013-01-19 20:55:00,43.0,36.3,29.80,SSW,196,12.0,18.0,77,0.00,,---,0.00,VWS V14.01,2013-01-20 01:55:00,
2013-01-19 20:56:00,43.0,36.3,29.80,SSW,197,11.0,18.0,77,0.00,,---,0.00,VWS V14.01,2013-01-20 01:56:00,
2013-01-19 20:57:00,43.0,36.3,29.80,SSW,195,12.0,18.0,77,0.00,,---,0.00,VWS V14.01,2013-01-20 01:57:00,
2013-01-19 20:58:00,43.0,36.3,29.80,SSW,194,10.0,18.0,77,0.00,,---,0.00,VWS V14.01,2013-01-20 01:58:00,
2013-01-19 20:59:00,43.0,36.3,29.80,SSW,198,9.0,18.0,77,0.00,,---,0.00,VWS V14.01,2013-01-20 01:59:00,
2013-01-19 21:00:00,43.0,36.3,29.80,SSW,194,12.0,18.0,77,0.00,,---,0.00,VWS V14.01,2013-01-20 02:00:00,
2013-01-19 21:01:00,43.0,36.3,29.80,SSW,194,12.0,13.0,77,0.00,,---,0.00,VWS V14.01,2013-01-20 02:01:00,
2013-01-19 21:02:00,43.0,36.3,29.79,SSW,194,12.0,14.0,77,0.00,,---,0.00,VWS V14.01,2013-01-20 02:02:00,
2013-01-19 21:03:00,43.0,36.3,29.79,SSW,194,11.0,14.0,77,0.00,,---,0.00,VWS V14.01,2013-01-20 02:03:00,
2013-01-19 21:04:00,43.0,36.3,29.79,SSW,193,10.0,14.0,77,0.00,,---,0.00,VWS V14.01,2013-01-20 02:04:00,
2013-01-19 21:05:00,43.0,36.6,29.79,SSW,192,10.0,14.0,78,0.00,,---,0.00,VWS V14.01,2013-01-20 02:05:00,
2013-01-19 21:06:00,43.0,36.6,29.79,SSW,192,13.0,15.0,78,0.00,,---,0.00,VWS V14.01,2013-01-20 02:06:00,
2013-01-19 21:07:00,43.0,36.6,29.79,SSW,193,10.0,15.0,78,0.00,,---,0.00,VWS V14.01,2013-01-20 02:07:00,
2013-01-19 21:08:00,43.0,36.6,29.78,SSW,193,12.0,15.0,78,0.00,,---,0.00,VWS V14.01,2013-01-20 02:08:00,
2013-01-19 21:09:00,43.0,36.6,29.79,SSW,193,12.0,15.0,78,0.00,,---,0.00,VWS V14.01,2013-01-20 02:09:00,
2013-01-19 21:10:00,43.0,36.6,29.78,South,191,14.0,15.0,78,0.00,,---,0.00,VWS V14.01,2013-01-20 02:10:00,
2013-01-19 21:11:00,43.0,36.6,29.78,South,191,14.0,16.0,78,0.00,,---,0.00,VWS V14.01,2013-01-20 02:11:00,
2013-01-19 21:12:00,43.0,36.6,29.78,South,189,13.0,16.0,78,0.00,,---,0.00,VWS V14.01,2013-01-20 02:12:00,
2013-01-19 21:13:00,43.0,36.6,29.78,South,191,14.0,16.0,78,0.00,,---,0.00,VWS V14.01,2013-01-20 02:13:00,
2013-01-19 21:14:00,43.1,36.7,29.78,South,186,15.0,18.0,78,0.00,,---,0.00,VWS V14.01,2013-01-20 02:14:00,
2013-01-19 21:15:00,43.1,36.7,29.78,South,191,14.0,18.0,78,0.00,,---,0.00,VWS V14.01,2013-01-20 02:15:00,
2013-01-19 21:16:00,43.2,36.5,29.78,SSW,192,14.0,18.0,77,0.00,,---,0.00,VWS V14.01,2013-01-20 02:16:00,
2013-01-19 21:17:00,43.2,36.5,29.77,South,189,15.0,18.0,77,0.00,,---,0.00,VWS V14.01,2013-01-20 02:17:00,
2013-01-19 21:18:00,43.2,36.5,29.77,SSW,192,13.0,18.0,77,0.00,,---,0.00,VWS V14.01,2013-01-20 02:18:00,
2013-01-19 21:19:00,43.2,36.5,29.77,SSW,192,13.0,18.0,77,0.00,,---,0.00,VWS V14.01,2013-01-20 02:19:00,
2013-01-19 21:20:00,43.2,36.5,29.77,SSW,192,14.0,19.0,77,0.00,,---,0.00,VWS V14.01,2013-01-20 02:20:00,
2013-01-19 21:21:00,43.3,36.6,29.77,SSW,192,15.0,19.0,77,0.00,,---,0.00,VWS V14.01,2013-01-20 02:21:00,
2013-01-19 21:22:00,43.3,36.6,29.77,SSW,192,14.0,19.0,77,0.00,,---,0.00,VWS V14.01,2013-01-20 02:22:00,
2013-01-19 21:23:00,43.3,36.6,29.77,SSW,193,14.0,19.0,77,0.00,,---,0.00,VWS V14.01,2013-01-20 02:23:00,
2013-01-19 21:24:00,43.3,36.6,29.77,SSW,194,13.0,19.0,77,0.00,,---,0.00,VWS V14.01,2013-01-20 02:24:00,
2013-01-19 21:25:00,43.3,36.9,29.77,SSW,194,15.0,19.0,78,0.00,,---,0.00,VWS V14.01,2013-01-20 02:25:00,
2013-01-19 21:26:00,43.3,36.6,29.77,SSW,194,12.0,19.0,77,0.00,,---,0.00,VWS V14.01,2013-01-20 02:26:00,
2013-01-19 21:27:00,43.4,36.7,29.77,SSW,192,11.0,19.0,77,0.00,,---,0.00,VWS V14.01,2013-01-20 02:27:00,
2013-01-19 21:28:00,43.3,36.9,29.77,SSW,192,19.0,19.0,78,0.00,,---,0.00,VWS V14.01,2013-01-20 02:28:00,
2013-01-19 21:29:00,43.4,36.7,29.77,South,190,17.0,20.0,77,0.00,,---,0.00,VWS V14.01,2013-01-20 02:29:00,
2013-01-19 21:30:00,43.4,36.7,29.77,SSW,194,15.0,20.0,77,0.00,,---,0.00,VWS V14.01,2013-01-20 02:30:00,
2013-01-19 21:31:00,43.4,36.7,29.77,SSW,196,14.0,19.0,77,0.00,,---,0.00,VWS V14.01,2013-01-20 02:31:00,
2013-01-19 21:32:00,43.4,36.7,29.77,SSW,194,15.0,19.0,77,0.00,,---,0.00,VWS V14.01,2013-01-20 02:32:00,
2013-01-19 21:33:00,43.4,37.0,29.77,SSW,196,15.0,19.0,78,0.00,,---,0.00,VWS V14.01,2013-01-20 02:33:00,
2013-01-19 21:34:00,43.4,37.0,29.77,SSW,197,14.0,19.0,78,0.00,,---,0.00,VWS V14.01,2013-01-20 02:34:00,
2013-01-19 21:35:00,43.4,37.0,29.77,SSW,200,14.0,19.0,78,0.00,,---,0.00,VWS V14.01,2013-01-20 02:35:00,
2013-01-19 21:36:00,43.5,37.1,29.77,SSW,199,13.0,19.0,78,0.00,,---,0.00,VWS V14.01,2013-01-20 02:36:00,
2013-01-19 21:37:00,43.4,37.0,29.77,SSW,198,12.0,19.0,78,0.00,,---,0.00,VWS V14.01,2013-01-20 02:37:00,
2013-01-19 21:38:00,43.4,37.0,29.77,SSW,195,13.0,19.0,78,0.00,,---,0.00,VWS V14.01,2013-01-20 02:38:00,
2013-01-19 21:39:00,43.3,36.9,29.77,SSW,198,13.0,19.0,78,0.00,,---,0.00,VWS V14.01,2013-01-20 02:39:00,
2013-01-19 21:40:00,43.3,36.9,29.77,SSW,202,13.0,19.0,78,0.00,,---,0.00,VWS V14.01,2013-01-20 02:40:00,
2013-01-19 21:41:00,43.4,37.0,29.77,SSW,198,14.0,19.0,78,0.00,,---,0.00,VWS V14.01,2013-01-20 02:41:00,
2013-01-19 21:42:00,43.4,36.7,29.77,SSW,197,17.0,19.0,77,0.00,,---,0.00,VWS V14.01,2013-01-20 02:42:00,
2013-01-19 21:43:00,43.5,36.8,29.77,SSW,200,14.0,19.0,77,0.00,,---,0.00,VWS V14.01,2013-01-20 02:43:00,
2013-01-19 21:44:00,43.5,36.8,29.77,SSW,198,12.0,19.0,77,0.00,,---,0.00,VWS V14.01,2013-01-20 02:44:00,
2013-01-19 21:45:00,43.4,37.0,29.77,SSW,202,17.0,19.0,78,0.00,,---,0.00,VWS V14.01,2013-01-20 02:45:00,
2013-01-19 21:46:00,43.4,37.0,29.77,SSW,199,12.0,19.0,78,0.00,,---,0.00,VWS V14.01,2013-01-20 02:46:00,
2013-01-19 21:47:00,43.4,36.7,29.76,SSW,195,16.0,19.0,77,0.00,,---,0.00,VWS V14.01,2013-01-20 02:47:00,
2013-01-19 21:48:00,43.4,36.7,29.76,SSW,194,19.0,20.0,77,0.00,,---,0.00,VWS V14.01,2013-01-20 02:48:00,
2013-01-19 21:49:00,43.4,36.7,29.76,SSW,198,15.0,20.0,77,0.00,,---,0.00,VWS V14.01,2013-01-20 02:49:00,
2013-01-19 21:50:00,43.4,36.7,29.76,SSW,197,15.0,20.0,77,0.00,,---,0.00,VWS V14.01,2013-01-20 02:50:00,
2013-01-19 21:51:00,43.4,36.7,29.76,SSW,194,17.0,20.0,77,0.00,,---,0.00,VWS V14.01,2013-01-20 02:51:00,
2013-01-19 21:52:00,43.4,36.7,29.76,SSW,196,15.0,20.0,77,0.00,,---,0.00,VWS V14.01,2013-01-20 02:52:00,
2013-01-19 21:53:00,43.5,36.8,29.76,SSW,201,14.0,20.0,77,0.00,,---,0.00,VWS V14.01,2013-01-20 02:53:00,
2013-01-19 21:54:00,43.5,36.8,29.76,SSW,199,16.0,20.0,77,0.00,,---,0.00,VWS V14.01,2013-01-20 02:54:00,
2013-01-19 21:55:00,43.4,36.7,29.76,SSW,198,17.0,20.0,77,0.00,,---,0.00,VWS V14.01,2013-01-20 02:55:00,
2013-01-19 21:56:00,43.5,36.8,29.76,SSW,196,18.0,20.0,77,0.00,,---,0.00,VWS V14.01,2013-01-20 02:56:00,
2013-01-19 21:57:00,43.5,36.8,29.76,SSW,201,14.0,20.0,77,0.00,,---,0.00,VWS V14.01,2013-01-20 02:57:00,
2013-01-19 21:58:00,43.5,36.8,29.76,SSW,196,15.0,20.0,77,0.00,,---,0.00,VWS V14.01,2013-01-20 02:58:00,
2013-01-19 21:59:00,43.5,36.8,29.76,SSW,192,24.0,24.0,77,0.00,,---,0.00,VWS V14.01,2013-01-20 02:59:00,
2013-01-19 22:00:00,43.6,36.5,29.75,SSW,195,18.0,24.0,76,0.00,,---,0.00,VWS V14.01,2013-01-20 03:00:00,
2013-01-19 22:01:00,43.6,36.5,29.75,SSW,194,16.0,24.0,76,0.00,,---,0.00,VWS V14.01,2013-01-20 03:01:00,
2013-01-19 22:02:00,43.6,36.9,29.75,SSW,194,15.0,24.0,77,0.00,,---,0.00,VWS V14.01,2013-01-20 03:02:00,
2013-01-19 22:03:00,43.6,36.9,29.75,SSW,194,12.0,24.0,77,0.00,,---,0.00,VWS V14.01,2013-01-20 03:03:00,
2013-01-19 22:04:00,43.6,36.9,29.75,SSW,195,13.0,24.0,77,0.00,,---,0.00,VWS V14.01,2013-01-20 03:04:00,
2013-01-19 22:05:00,43.5,36.8,29.75,SSW,194,17.0,24.0,77,0.00,,---,0.00,VWS V14.01,2013-01-20 03:05:00,
2013-01-19 22:06:00,43.5,37.1,29.75,SSW,195,17.0,24.0,78,0.00,,---,0.00,VWS V14.01,2013-01-20 03:06:00,
2013-01-19 22:07:00,43.4,37.0,29.75,SSW,196,17.0,24.0,78,0.00,,---,0.00,VWS V14.01,2013-01-20 03:07:00,
2013-01-19 22:08:00,43.4,37.0,29.75,SSW,199,17.0,24.0,78,0.00,,---,0.00,VWS V14.01,2013-01-20 03:08:00,
2013-01-19 22:09:00,43.4,37.0,29.75,SSW,193,17.0,24.0,78,0.00,,---,0.00,VWS V14.01,2013-01-20 03:09:00,
2013-01-19 22:10:00,43.4,37.0,29.75,SSW,193,15.0,24.0,78,0.00,,---,0.00,VWS V14.01,2013-01-20 03:10:00,
2013-01-19 22:11:00,43.4,37.0,29.75,SSW,192,15.0,24.0,78,0.00,,---,0.00,VWS V14.01,2013-01-20 03:11:00,
2013-01-19 22:12:00,43.3,36.9,29.75,SSW,193,21.0,24.0,78,0.00,,---,0.00,VWS V14.01,2013-01-20 03:12:00,
2013-01-19 22:13:00,43.3,36.9,29.75,SSW,194,18.0,24.0,78,0.00,,---,0.00,VWS V14.01,2013-01-20 03:13:00,
2013-01-19 22:14:00,43.3,36.9,29.74,SSW,196,16.0,24.0,78,0.00,,---,0.00,VWS V14.01,2013-01-20 03:14:00,
2013-01-19 22:15:00,43.3,36.9,29.74,South,190,18.0,24.0,78,0.00,,---,0.00,VWS V14.01,2013-01-20 03:15:00,
2013-01-19 22:16:00,43.3,36.9,29.74,South,190,18.0,24.0,78,0.00,,---,0.00,VWS V14.01,2013-01-20 03:16:00,
2013-01-19 22:17:00,43.4,37.0,29.74,SSW,197,18.0,24.0,78,0.00,,---,0.00,VWS V14.01,2013-01-20 03:17:00,
2013-01-19 22:18:00,43.3,36.9,29.74,SSW,196,21.0,24.0,78,0.00,,---,0.00,VWS V14.01,2013-01-20 03:18:00,
2013-01-19 22:19:00,43.3,36.9,29.74,South,191,19.0,24.0,78,0.00,,---,0.00,VWS V14.01,2013-01-20 03:19:00,
2013-01-19 22:20:00,43.4,37.0,29.74,South,190,17.0,24.0,78,0.00,,---,0.00,VWS V14.01,2013-01-20 03:20:00,
2013-01-19 22:21:00,43.4,37.0,29.74,SSW,195,17.0,24.0,78,0.00,,---,0.00,VWS V14.01,2013-01-20 03:21:00,
2013-01-19 22:22:00,43.4,37.0,29.74,South,190,18.0,24.0,78,0.00,,---,0.00,VWS V14.01,2013-01-20 03:22:00,
2013-01-19 22:23:00,43.4,37.0,29.74,SSW,192,15.0,24.0,78,0.00,,---,0.00,VWS V14.01,2013-01-20 03:23:00,
2013-01-19 22:24:00,43.3,37.2,29.74,SSW,194,11.0,24.0,79,0.00,,---,0.00,VWS V14.01,2013-01-20 03:24:00,
2013-01-19 22:25:00,43.3,36.9,29.74,South,188,16.0,24.0,78,0.00,,---,0.00,VWS V14.01,2013-01-20 03:25:00,
2013-01-19 22:26:00,43.3,37.2,29.74,SSW,193,19.0,24.0,79,0.00,,---,0.00,VWS V14.01,2013-01-20 03:26:00,
2013-01-19 22:27:00,43.3,37.2,29.74,SSW,192,17.0,24.0,79,0.00,,---,0.00,VWS V14.01,2013-01-20 03:27:00,
2013-01-19 22:28:00,43.3,37.2,29.73,SSW,196,14.0,24.0,79,0.00,,---,0.00,VWS V14.01,2013-01-20 03:28:00,
2013-01-19 22:29:00,43.3,37.2,29.73,SSW,199,20.0,24.0,79,0.00,,---,0.00,VWS V14.01,2013-01-20 03:29:00,
2013-01-19 22:30:00,43.3,37.2,29.73,SSW,192,17.0,24.0,79,0.00,,---,0.00,VWS V14.01,2013-01-20 03:30:00,
2013-01-19 22:31:00,43.2,37.1,29.74,SSW,195,17.0,21.0,79,0.00,,---,0.00,VWS V14.01,2013-01-20 03:31:00,
2013-01-19 22:32:00,43.2,37.1,29.73,SSW,196,20.0,21.0,79,0.00,,---,0.00,VWS V14.01,2013-01-20 03:32:00,
2013-01-19 22:33:00,43.3,37.2,29.73,SSW,200,17.0,21.0,79,0.00,,---,0.00,VWS V14.01,2013-01-20 03:33:00,
2013-01-19 22:34:00,43.3,37.2,29.73,SSW,196,14.0,21.0,79,0.00,,---,0.00,VWS V14.01,2013-01-20 03:34:00,
2013-01-19 22:35:00,43.3,37.2,29.73,SSW,195,18.0,21.0,79,0.00,,---,0.00,VWS V14.01,2013-01-20 03:35:00,
2013-01-19 22:36:00,43.2,36.8,29.73,SSW,196,17.0,21.0,78,0.00,,---,0.00,VWS V14.01,2013-01-20 03:36:00,
2013-01-19 22:37:00,43.2,36.8,29.73,SSW,196,17.0,21.0,78,0.00,,---,0.00,VWS V14.01,2013-01-20 03:37:00,
2013-01-19 22:38:00,43.2,36.8,29.73,SSW,196,14.0,21.0,78,0.00,,---,0.00,VWS V14.01,2013-01-20 03:38:00,
2013-01-19 22:39:00,43.2,37.1,29.73,SSW,195,15.0,21.0,79,0.00,,---,0.00,VWS V14.01,2013-01-20 03:39:00,
2013-01-19 22:40:00,43.1,37.0,29.73,SSW,199,17.0,21.0,79,0.00,,---,0.00,VWS V14.01,2013-01-20 03:40:00,
2013-01-19 22:41:00,43.1,37.0,29.73,SSW,196,18.0,21.0,79,0.00,,---,0.00,VWS V14.01,2013-01-20 03:41:00,
2013-01-19 22:42:00,43.1,37.0,29.73,SSW,200,16.0,21.0,79,0.00,,---,0.00,VWS V14.01,2013-01-20 03:42:00,
2013-01-19 22:43:00,43.2,37.1,29.73,SSW,200,14.0,21.0,79,0.00,,---,0.00,VWS V14.01,2013-01-20 03:43:00,
2013-01-19 22:44:00,43.1,37.0,29.73,SSW,194,13.0,21.0,79,0.00,,---,0.00,VWS V14.01,2013-01-20 03:44:00,
2013-01-19 22:45:00,43.1,37.4,29.73,SSW,192,18.0,21.0,80,0.00,,---,0.00,VWS V14.01,2013-01-20 03:45:00,
2013-01-19 22:46:00,43.1,37.0,29.73,SSW,199,13.0,21.0,79,0.00,,---,0.00,VWS V14.01,2013-01-20 03:46:00,
2013-01-19 22:47:00,43.0,36.9,29.73,SSW,200,15.0,21.0,79,0.00,,---,0.00,VWS V14.01,2013-01-20 03:47:00,
2013-01-19 22:48:00,43.0,36.9,29.73,SSW,196,16.0,21.0,79,0.00,,---,0.00,VWS V14.01,2013-01-20 03:48:00,
2013-01-19 22:49:00,43.0,36.9,29.73,SSW,196,15.0,21.0,79,0.00,,---,0.00,VWS V14.01,2013-01-20 03:49:00,
2013-01-19 22:50:00,43.0,36.9,29.73,SSW,196,18.0,21.0,79,0.00,,---,0.00,VWS V14.01,2013-01-20 03:50:00,
2013-01-19 22:51:00,43.0,36.9,29.73,SSW,202,18.0,21.0,79,0.00,,---,0.00,VWS V14.01,2013-01-20 03:51:00,
2013-01-19 22:52:00,43.0,36.9,29.73,SSW,202,14.0,21.0,79,0.00,,---,0.00,VWS V14.01,2013-01-20 03:52:00,
2013-01-19 22:53:00,43.0,36.9,29.73,SSW,193,17.0,21.0,79,0.00,,---,0.00,VWS V14.01,2013-01-20 03:53:00,
2013-01-19 22:54:00,43.0,36.6,29.73,SSW,193,16.0,22.0,78,0.00,,---,0.00,VWS V14.01,2013-01-20 03:54:00,
2013-01-19 22:55:00,43.0,36.6,29.73,SSW,195,12.0,22.0,78,0.00,,---,0.00,VWS V14.01,2013-01-20 03:55:00,
2013-01-19 22:56:00,43.0,36.6,29.73,SSW,194,19.0,22.0,78,0.00,,---,0.00,VWS V14.01,2013-01-20 03:56:00,
2013-01-19 22:57:00,43.0,36.6,29.73,SSW,199,15.0,22.0,78,0.00,,---,0.00,VWS V14.01,2013-01-20 03:57:00,
2013-01-19 22:58:00,43.0,36.9,29.72,SSW,198,15.0,22.0,79,0.00,,---,0.00,VWS V14.01,2013-01-20 03:58:00,
2013-01-19 22:59:00,43.0,36.9,29.72,SSW,198,15.0,22.0,79,0.00,,---,0.00,VWS V14.01,2013-01-20 03:59:00,
2013-01-19 23:00:00,42.9,36.8,29.72,SSW,193,13.0,22.0,79,0.00,,---,0.00,VWS V14.01,2013-01-20 04:00:00,
2013-01-19 23:01:00,42.9,36.8,29.72,SSW,198,13.0,19.0,79,0.00,,---,0.00,VWS V14.01,2013-01-20 04:01:00,
2013-01-19 23:02:00,42.9,36.8,29.72,SSW,196,16.0,19.0,79,0.00,,---,0.00,VWS V14.01,2013-01-20 04:02:00,
2013-01-19 23:03:00,42.9,36.8,29.72,SSW,196,17.0,19.0,79,0.00,,---,0.00,VWS V14.01,2013-01-20 04:03:00,
2013-01-19 23:04:00,42.9,36.8,29.72,SSW,194,15.0,21.0,79,0.00,,---,0.00,VWS V14.01,2013-01-20 04:04:00,
2013-01-19 23:05:00,42.9,36.8,29.72,SSW,192,14.0,21.0,79,0.00,,---,0.00,VWS V14.01,2013-01-20 04:05:00,
2013-01-19 23:06:00,42.9,36.8,29.72,SSW,200,18.0,23.0,79,0.00,,---,0.00,VWS V14.01,2013-01-20 04:06:00,
2013-01-19 23:07:00,42.9,36.5,29.72,SSW,202,19.0,23.0,78,0.00,,---,0.00,VWS V14.01,2013-01-20 04:07:00,
2013-01-19 23:08:00,42.9,36.5,29.72,SSW,192,14.0,23.0,78,0.00,,---,0.00,VWS V14.01,2013-01-20 04:08:00,
2013-01-19 23:09:00,43.0,36.6,29.72,South,189,20.0,23.0,78,0.00,,---,0.00,VWS V14.01,2013-01-20 04:09:00,
2013-01-19 23:10:00,43.0,36.6,29.72,SSW,198,15.0,23.0,78,0.00,,---,0.00,VWS V14.01,2013-01-20 04:10:00,
2013-01-19 23:11:00,43.0,36.6,29.72,SSW,194,19.0,23.0,78,0.00,,---,0.00,VWS V14.01,2013-01-20 04:11:00,
2013-01-19 23:12:00,43.0,36.6,29.72,SSW,192,18.0,23.0,78,0.00,,---,0.00,VWS V14.01,2013-01-20 04:12:00,
2013-01-19 23:13:00,42.9,36.5,29.71,South,191,19.0,23.0,78,0.00,,---,0.00,VWS V14.01,2013-01-20 04:13:00,
2013-01-19 23:14:00,42.9,36.5,29.71,SSW,194,16.0,23.0,78,0.00,,---,0.00,VWS V14.01,2013-01-20 04:14:00,
2013-01-19 23:15:00,42.9,36.5,29.71,South,190,18.0,23.0,78,0.00,,---,0.00,VWS V14.01,2013-01-20 04:15:00,
2013-01-19 23:16:00,42.9,36.8,29.71,SSW,192,15.0,23.0,79,0.00,,---,0.00,VWS V14.01,2013-01-20 04:16:00,
2013-01-19 23:17:00,42.9,36.5,29.71,SSW,192,18.0,23.0,78,0.00,,---,0.00,VWS V14.01,2013-01-20 04:17:00,
2013-01-19 23:18:00,42.8,36.8,29.71,South,191,19.0,23.0,79,0.00,,---,0.00,VWS V14.01,2013-01-20 04:18:00,
2013-01-19 23:19:00,42.8,36.4,29.71,South,191,18.0,23.0,78,0.00,,---,0.00,VWS V14.01,2013-01-20 04:19:00,
2013-01-19 23:20:00,42.8,36.4,29.71,South,186,18.0,23.0,78,0.00,,---,0.00,VWS V14.01,2013-01-20 04:20:00,
2013-01-19 23:21:00,42.8,36.8,29.71,SSW,198,17.0,23.0,79,0.00,,---,0.00,VWS V14.01,2013-01-20 04:21:00,
2013-01-19 23:22:00,42.8,36.8,29.71,SSW,193,19.0,23.0,79,0.00,,---,0.00,VWS V14.01,2013-01-20 04:22:00,
2013-01-19 23:23:00,42.8,36.4,29.71,SSW,192,17.0,23.0,78,0.00,,---,0.00,VWS V14.01,2013-01-20 04:23:00,
2013-01-19 23:24:00,42.8,36.8,29.71,SSW,194,17.0,23.0,79,0.00,,---,0.00,VWS V14.01,2013-01-20 04:24:00,
2013-01-19 23:25:00,42.8,36.8,29.71,South,190,14.0,23.0,79,0.00,,---,0.00,VWS V14.01,2013-01-20 04:25:00,
2013-01-19 23:26:00,42.8,36.4,29.71,SSW,192,21.0,23.0,78,0.00,,---,0.00,VWS V14.01,2013-01-20 04:26:00,
2013-01-19 23:27:00,42.8,36.4,29.71,South,190,21.0,23.0,78,0.00,,---,0.00,VWS V14.01,2013-01-20 04:27:00,
2013-01-19 23:28:00,42.8,36.4,29.71,South,185,21.0,23.0,78,0.00,,---,0.00,VWS V14.01,2013-01-20 04:28:00,
2013-01-19 23:29:00,42.8,36.4,29.71,South,189,17.0,23.0,78,0.00,,---,0.00,VWS V14.01,2013-01-20 04:29:00,
2013-01-19 23:30:00,42.8,36.4,29.71,SSW,192,15.0,23.0,78,0.00,,---,0.00,VWS V14.01,2013-01-20 04:30:00,
2013-01-19 23:31:00,42.9,36.5,29.70,SSW,192,21.0,21.0,78,0.00,,---,0.00,VWS V14.01,2013-01-20 04:31:00,
2013-01-19 23:32:00,42.9,36.5,29.70,SSW,194,20.0,21.0,78,0.00,,---,0.00,VWS V14.01,2013-01-20 04:32:00,
2013-01-19 23:33:00,42.9,36.5,29.70,SSW,192,15.0,22.0,78,0.00,,---,0.00,VWS V14.01,2013-01-20 04:33:00,
2013-01-19 23:34:00,42.8,36.4,29.70,SSW,194,19.0,22.0,78,0.00,,---,0.00,VWS V14.01,2013-01-20 04:34:00,
2013-01-19 23:35:00,42.8,36.4,29.70,South,191,19.0,22.0,78,0.00,,---,0.00,VWS V14.01,2013-01-20 04:35:00,
2013-01-19 23:36:00,42.8,36.4,29.70,SSW,196,19.0,22.0,78,0.00,,---,0.00,VWS V14.01,2013-01-20 04:36:00,
2013-01-19 23:37:00,42.8,36.4,29.70,SSW,192,21.0,26.0,78,0.00,,---,0.00,VWS V14.01,2013-01-20 04:37:00,
2013-01-19 23:38:00,42.8,36.4,29.70,SSW,196,19.0,26.0,78,0.00,,---,0.00,VWS V14.01,2013-01-20 04:38:00,
2013-01-19 23:39:00,42.8,36.4,29.70,South,187,16.0,26.0,78,0.00,,---,0.00,VWS V14.01,2013-01-20 04:39:00,
2013-01-19 23:40:00,42.8,36.4,29.70,South,187,15.0,26.0,78,0.00,,---,0.00,VWS V14.01,2013-01-20 04:40:00,
2013-01-19 23:41:00,42.8,36.4,29.69,South,185,18.0,26.0,78,0.00,,---,0.00,VWS V14.01,2013-01-20 04:41:00,
2013-01-19 23:42:00,42.8,36.4,29.69,South,190,18.0,26.0,78,0.00,,---,0.00,VWS V14.01,2013-01-20 04:42:00,
2013-01-19 23:43:00,42.9,36.5,29.69,SSW,194,21.0,26.0,78,0.00,,---,0.00,VWS V14.01,2013-01-20 04:43:00,
2013-01-19 23:44:00,42.9,36.5,29.69,South,190,18.0,26.0,78,0.00,,---,0.00,VWS V14.01,2013-01-20 04:44:00,
2013-01-19 23:45:00,42.9,36.5,29.69,South,190,22.0,26.0,78,0.00,,---,0.00,VWS V14.01,2013-01-20 04:45:00,
2013-01-19 23:46:00,42.9,36.5,29.69,South,186,18.0,26.0,78,0.00,,---,0.00,VWS V14.01,2013-01-20 04:46:00,
2013-01-19 23:47:00,42.8,36.4,29.69,SSW,192,16.0,26.0,78,0.00,,---,0.00,VWS V14.01,2013-01-20 04:47:00,
2013-01-19 23:48:00,42.9,36.5,29.69,South,190,19.0,26.0,78,0.00,,---,0.00,VWS V14.01,2013-01-20 04:48:00,
2013-01-19 23:49:00,42.8,36.4,29.69,South,190,18.0,26.0,78,0.00,,---,0.00,VWS V14.01,2013-01-20 04:49:00,
2013-01-19 23:50:00,42.8,36.4,29.69,SSW,192,18.0,26.0,78,0.00,,---,0.00,VWS V14.01,2013-01-20 04:50:00,
2013-01-19 23:51:00,42.8,36.4,29.69,South,190,21.0,26.0,78,0.00,,---,0.00,VWS V14.01,2013-01-20 04:51:00,
2013-01-19 23:52:00,42.8,36.4,29.69,South,188,20.0,26.0,78,0.00,,---,0.00,VWS V14.01,2013-01-20 04:52:00,
2013-01-19 23:53:00,42.8,36.4,29.69,South,184,15.0,26.0,78,0.00,,---,0.00,VWS V14.01,2013-01-20 04:53:00,
2013-01-19 23:54:00,42.7,36.3,29.69,SSW,195,20.0,26.0,78,0.00,,---,0.00,VWS V14.01,2013-01-20 04:54:00,
2013-01-19 23:55:00,42.8,36.4,29.69,South,189,18.0,26.0,78,0.00,,---,0.00,VWS V14.01,2013-01-20 04:55:00,
2013-01-19 23:56:00,42.8,36.4,29.69,South,191,18.0,26.0,78,0.00,,---,0.00,VWS V14.01,2013-01-20 04:56:00,
2013-01-19 23:57:00,42.8,36.4,29.69,South,189,18.0,26.0,78,0.00,,---,0.00,VWS V14.01,2013-01-20 04:57:00,
2013-01-19 23:58:00,42.8,36.4,29.69,SSW,194,16.0,26.0,78,0.00,,---,0.00,VWS V14.01,2013-01-20 04:58:00,
2013-01-19 23:59:00,42.8,36.4,29.69,SSW,192,19.0,26.0,78,0.00,,---,0.00,VWS V14.01,2013-01-20 04:59:00,